Provisional Data: South Branch Tunkhannock Creek near La Plume, PA


Please select a monitoring station.
Please select start date.
Please select start date.

Toggle Unit: C/F Toggle Unit: C/F
Sample Time Temperature (C) Temperature (F) Specific Conductivity (mS/cm) pH   Turbidity (NTU+) DO (mg/L)
4/13/2022 12:00:00 AM 9.41 48.938 0.168 7.19 9.37 10.85
4/13/2022 12:15:00 AM 9.43 48.974 0.169 7.19 9.29 10.85
4/13/2022 12:30:00 AM 9.45 49.01 0.169 7.19 9.31 10.84
4/13/2022 12:45:00 AM 9.48 49.064 0.169 7.19 9.4 10.83
4/13/2022 1:00:00 AM 9.51 49.118 0.169 7.19 9.4 10.82
4/13/2022 1:15:00 AM 9.54 49.172 0.17 7.19 9.21 10.81
4/13/2022 1:30:00 AM 9.56 49.208 0.166 7.19 101.67 10.81
4/13/2022 1:45:00 AM 9.57 49.226 0.169 7.19 9.05 10.8
4/13/2022 2:00:00 AM 9.57 49.226 0.17 7.19 8.69 10.8
4/13/2022 2:15:00 AM 9.55 49.19 0.169 7.19 8.99 10.8
4/13/2022 2:30:00 AM 9.54 49.172 0.17 7.19 8.85 10.81
4/13/2022 2:45:00 AM 9.51 49.118 0.17 7.19 8.69 10.82
4/13/2022 3:00:00 AM 9.47 49.046 0.17 7.19 8.6 10.82
4/13/2022 3:15:00 AM 9.43 48.974 0.17 7.18 8.57 10.84
4/13/2022 3:30:00 AM 9.39 48.902 0.17 7.19 8.52 10.85
4/13/2022 3:45:00 AM 9.35 48.83 0.17 7.19 8.35 10.86
4/13/2022 4:00:00 AM 9.32 48.776 0.171 7.19 8.17 10.87
4/13/2022 4:15:00 AM 9.29 48.722 0.171 7.19 8.58 10.88
4/13/2022 4:30:00 AM 9.28 48.704 0.171 7.19 8.44 10.89
4/13/2022 4:45:00 AM 9.27 48.686 0.17 7.19 8.23 10.89
4/13/2022 5:00:00 AM 9.25 48.65 0.17 7.19 8.46 10.9
4/13/2022 5:15:00 AM 9.24 48.632 0.171 7.19 8.4 10.9
4/13/2022 5:30:00 AM 9.22 48.596 0.171 7.18 8.41 10.91
4/13/2022 5:45:00 AM 9.21 48.578 0.17 7.19 8.14 10.92
4/13/2022 6:00:00 AM 9.2 48.56 0.172 7.19 8.49 10.92
4/13/2022 6:15:00 AM 9.19 48.542 0.171 7.19 8.28 10.93
4/13/2022 6:30:00 AM 9.19 48.542 0.171 7.19 8.35 10.93
4/13/2022 6:45:00 AM 9.19 48.542 0.171 7.19 8.29 10.92
4/13/2022 7:00:00 AM 9.2 48.56 0.17 7.19 8.04 10.93
4/13/2022 7:15:00 AM 9.2 48.56 0.17 7.19 8.21 10.94
4/13/2022 7:30:00 AM 9.2 48.56 0.171 7.2 8.16 10.94
4/13/2022 7:45:00 AM 9.21 48.578 0.171 7.2 8.37 10.95
4/13/2022 8:00:00 AM 9.23 48.614 0.171 7.2 8.26 10.96
4/13/2022 8:15:00 AM 9.26 48.668 0.172 7.21 8.11 10.97
4/13/2022 8:30:00 AM 9.28 48.704 0.172 7.21 8.31 10.98
4/13/2022 8:45:00 AM 9.32 48.776 0.172 7.21 7.83 11
4/13/2022 9:00:00 AM 9.37 48.866 0.171 7.22 8.07 11.02
4/13/2022 9:15:00 AM 9.45 49.01 0.172 7.23 8.05 11.03
4/13/2022 9:30:00 AM 9.54 49.172 0.172 7.24 8.11 11.03
4/13/2022 9:45:00 AM 9.64 49.352 0.172 7.25 7.84 11.03
4/13/2022 10:00:00 AM 9.76 49.568 0.172 7.26 7.71 11.03
4/13/2022 10:15:00 AM 9.9 49.82 0.171 7.26 7.63 11.01
4/13/2022 10:30:00 AM 10.06 50.108 0.172 7.27 7.9 10.99
4/13/2022 10:45:00 AM 10.24 50.432 0.173 7.28 8.03 10.97
4/13/2022 11:00:00 AM 10.43 50.774 0.172 7.28 7.59 10.94
4/13/2022 11:15:00 AM 10.64 51.152 0.172 7.29 7.56 10.91
4/13/2022 11:30:00 AM 10.87 51.566 0.172 7.29 7.93 10.87
4/13/2022 11:45:00 AM 11.1 51.98 0.172 7.3 7.83 10.84
4/13/2022 12:00:00 PM 11.32 52.376 0.172 7.31 7.44 10.79
4/13/2022 12:15:00 PM 11.5 52.7 0.173 7.32 7.56 10.75
4/13/2022 12:30:00 PM 11.68 53.024 0.173 7.33 7.63 10.71
4/13/2022 12:45:00 PM 11.91 53.438 0.173 7.33 7.36 10.67
4/13/2022 1:00:00 PM 12.06 53.708 0.173 7.33 7.6 10.63
4/13/2022 1:15:00 PM 12.2 53.96 0.174 7.34 7.24 10.58
4/13/2022 1:30:00 PM 12.37 54.266 0.173 7.34 7.41 10.54
4/13/2022 1:45:00 PM 12.57 54.626 0.173 7.35 7.64 10.49
4/13/2022 2:00:00 PM 12.77 54.986 0.171 7.35 7.53 10.46
4/13/2022 2:15:00 PM 12.86 55.148 0.173 7.35 7.13 10.44
4/13/2022 2:30:00 PM 12.9 55.22 0.174 7.36 7.52 10.41
4/13/2022 2:45:00 PM 12.92 55.256 0.173 7.34 7.39 10.39
4/13/2022 3:00:00 PM 12.95 55.31 0.173 7.35 7.3 10.37
4/13/2022 3:15:00 PM 12.94 55.292 0.174 7.36 7.31 10.34
4/13/2022 3:30:00 PM 12.92 55.256 0.174 7.35 7.14 10.31
4/13/2022 3:45:00 PM 12.87 55.166 0.173 7.34 7.55 10.28
4/13/2022 4:00:00 PM 12.8 55.04 0.174 7.34 7 10.26
4/13/2022 4:15:00 PM 12.72 54.896 0.173 7.34 6.82 10.28
4/13/2022 4:30:00 PM 12.68 54.824 0.174 7.33 6.91 10.28
4/13/2022 4:45:00 PM 12.68 54.824 0.174 7.34 6.96 10.3
4/13/2022 5:00:00 PM 12.63 54.734 0.175 7.33 6.63 10.31
4/13/2022 5:15:00 PM 12.54 54.572 0.175 7.34 6.85 10.33
4/13/2022 5:30:00 PM 12.39 54.302 0.175 7.33 6.85 10.35
4/13/2022 5:45:00 PM 12.22 53.996 0.176 7.33 7.02 10.37
4/13/2022 6:00:00 PM 12 53.6 0.174 7.31 7.16 10.39
4/13/2022 6:15:00 PM 11.8 53.24 0.175 7.3 7.09 10.42
4/13/2022 6:30:00 PM 11.61 52.898 0.175 7.29 7.29 10.43
4/13/2022 6:45:00 PM 11.44 52.592 0.175 7.28 9.62 10.46
4/13/2022 7:00:00 PM 11.27 52.286 0.176 7.27 8.51 10.48
4/13/2022 7:15:00 PM 11.11 51.998 0.176 7.26 8.32 10.49
4/13/2022 7:30:00 PM 10.96 51.728 0.176 7.25 7.89 10.5
4/13/2022 7:45:00 PM 10.83 51.494 0.177 7.24 10.57 10.51
4/13/2022 8:00:00 PM 10.72 51.296 0.175 7.23 8.01 10.52
4/13/2022 8:15:00 PM 10.62 51.116 0.176 7.21 8.14 10.53
4/13/2022 8:30:00 PM 10.52 50.936 0.176 7.2 8.49 10.55
4/13/2022 8:45:00 PM 10.41 50.738 0.175 7.19 8.06 10.57
4/13/2022 9:00:00 PM 10.31 50.558 0.177 7.19 8.45 10.58
4/13/2022 9:15:00 PM 10.23 50.414 0.176 7.19 8.77 10.6
4/13/2022 9:30:00 PM 10.14 50.252 0.177 7.18 8.39 10.62
4/13/2022 9:45:00 PM 10.06 50.108 0.176 7.18 8.24 10.63
4/13/2022 10:00:00 PM 9.99 49.982 0.177 7.18 8.51 10.65
4/13/2022 10:15:00 PM 9.94 49.892 0.177 7.17 8.66 10.65
4/13/2022 10:30:00 PM 9.93 49.874 0.177 7.17 8.22 10.64
4/13/2022 10:45:00 PM 9.98 49.964 0.176 7.17 8.16 10.62
4/13/2022 11:00:00 PM 10.05 50.09 0.176 7.17 8.59 10.6
4/13/2022 11:15:00 PM 10.12 50.216 0.177 7.17 7.53 10.57
4/13/2022 11:30:00 PM 10.19 50.342 0.178 7.17 7.27 10.55
4/13/2022 11:45:00 PM 10.26 50.468 0.177 7.18 7.29 10.52
4/14/2022 12:00:00 AM 10.33 50.594 0.178 7.18 6.93 10.5
4/14/2022 12:15:00 AM 10.41 50.738 0.178 7.18 7.05 10.47
4/14/2022 12:30:00 AM 10.49 50.882 0.178 7.18 6.85 10.44
4/14/2022 12:45:00 AM 10.56 51.008 0.178 7.18 6.56 10.42
4/14/2022 1:00:00 AM 10.63 51.134 0.178 7.18 6.87 10.4
4/14/2022 1:15:00 AM 10.69 51.242 0.179 7.18 6.35 10.38
4/14/2022 1:30:00 AM 10.74 51.332 0.179 7.19 6.14 10.37
4/14/2022 1:45:00 AM 10.78 51.404 0.178 7.19 8.31 10.34
4/14/2022 2:00:00 AM 10.83 51.494 0.179 7.2 6.15 10.34
4/14/2022 2:15:00 AM 10.87 51.566 0.18 7.21 6.21 10.33
4/14/2022 2:30:00 AM 10.9 51.62 0.179 7.21 6.19 10.32
4/14/2022 2:45:00 AM 10.93 51.674 0.18 7.21 5.99 10.32
4/14/2022 3:00:00 AM 10.96 51.728 0.179 7.21 6.07 10.32
4/14/2022 3:15:00 AM 10.98 51.764 0.181 7.22 6.1 10.31
4/14/2022 3:30:00 AM 11.01 51.818 0.18 7.21 6.14 10.3
4/14/2022 3:45:00 AM 11.05 51.89 0.179 7.22 5.79 10.29
4/14/2022 4:00:00 AM 11.08 51.944 0.18 7.22 5.88 10.28
4/14/2022 4:15:00 AM 11.11 51.998 0.18 7.22 6.16 10.27
4/14/2022 4:30:00 AM 11.13 52.034 0.181 7.22 6.11 10.26
4/14/2022 4:45:00 AM 11.14 52.052 0.18 7.21 5.76 10.26
4/14/2022 5:00:00 AM 11.13 52.034 0.18 7.21 5.77 10.26
4/14/2022 5:15:00 AM 11.12 52.016 0.18 7.21 6.09 10.26
4/14/2022 5:30:00 AM 11.11 51.998 0.18 7.21 5.59 10.26
4/14/2022 5:45:00 AM 11.08 51.944 0.18 7.21 5.99 10.27
4/14/2022 6:00:00 AM 11.06 51.908 0.181 7.21 5.97 10.27
4/14/2022 6:15:00 AM 11.03 51.854 0.181 7.2 6.2 10.28
4/14/2022 6:30:00 AM 11.01 51.818 0.181 7.2 6.03 10.29
4/14/2022 6:45:00 AM 10.98 51.764 0.181 7.21 5.84 10.3
4/14/2022 7:00:00 AM 10.96 51.728 0.181 7.21 5.91 10.31
4/14/2022 7:15:00 AM 10.94 51.692 0.181 7.21 6.08 10.33
4/14/2022 7:30:00 AM 10.93 51.674 0.181 7.21 6.04 10.35
4/14/2022 7:45:00 AM 10.92 51.656 0.181 7.23 5.65 10.37
4/14/2022 8:00:00 AM 10.93 51.674 0.181 7.23 5.87 10.4
4/14/2022 8:15:00 AM 10.95 51.71 0.181 7.24 5.81 10.42
4/14/2022 8:30:00 AM 10.98 51.764 0.181 7.24 5.99 10.45
4/14/2022 8:45:00 AM 11.04 51.872 0.181 7.26 5.86 10.47
4/14/2022 9:00:00 AM 11.1 51.98 0.18 7.26 5.55 10.49
4/14/2022 9:15:00 AM 11.18 52.124 0.18 7.28 5.73 10.51
4/14/2022 9:30:00 AM 11.27 52.286 0.18 7.29 5.74 10.52
4/14/2022 9:45:00 AM 11.37 52.466 0.18 7.3 5.83 10.53
4/14/2022 10:00:00 AM 11.51 52.718 0.181 7.3 5.69 10.53
4/14/2022 10:15:00 AM 11.67 53.006 0.181 7.32 5.78 10.52
4/14/2022 10:30:00 AM 11.85 53.33 0.18 7.33 8.54 10.5
4/14/2022 10:45:00 AM 12.07 53.726 0.18 7.34 5.65 10.49
4/14/2022 11:00:00 AM 12.32 54.176 0.18 7.35 5.83 10.45
4/14/2022 11:15:00 AM 12.56 54.608 0.181 7.36 5.45 10.42
4/14/2022 11:30:00 AM 12.79 55.022 0.181 7.36 5.33 10.39
4/14/2022 11:45:00 AM 13.02 55.436 0.182 7.38 5.42 10.36
4/14/2022 12:00:00 PM 13.27 55.886 0.181 7.38 5.29 10.32
4/14/2022 12:15:00 PM 13.53 56.354 0.181 7.39 5.51 10.28
4/14/2022 12:30:00 PM 13.6 56.48 0.178 7.38 6.82 10.22
4/14/2022 12:45:00 PM 13.65 56.57 0.18 7.39 5.67 10.18
4/14/2022 1:00:00 PM 13.68 56.624 0.181 7.39 5.46 10.13
4/14/2022 1:15:00 PM 13.78 56.804 0.181 7.39 5.52 10.1
4/14/2022 1:30:00 PM 13.84 56.912 0.181 7.39 5.26 10.07
4/14/2022 1:45:00 PM 13.86 56.948 0.181 7.38 5.08 10.03
4/14/2022 2:00:00 PM 13.88 56.984 0.181 7.39 5.33 10.01
4/14/2022 2:15:00 PM 13.86 56.948 0.181 7.38 5.19 10
4/14/2022 2:30:00 PM 13.77 56.786 0.181 7.38 5.26 10
4/14/2022 2:45:00 PM 13.65 56.57 0.182 7.37 5.17 9.99
4/14/2022 3:00:00 PM 13.52 56.336 0.182 7.37 5.37 10
4/14/2022 3:15:00 PM 13.4 56.12 0.181 7.36 5.36 10.02
4/14/2022 3:30:00 PM 13.26 55.868 0.181 7.36 5.4 10.06
4/14/2022 3:45:00 PM 13.06 55.508 0.182 7.35 5.32 10.09
4/14/2022 4:00:00 PM 12.87 55.166 0.181 7.35 5.45 10.12
4/14/2022 4:15:00 PM 12.7 54.86 0.181 7.33 5.71 10.16
4/14/2022 4:30:00 PM 12.51 54.518 0.181 7.34 5.62 10.2
4/14/2022 4:45:00 PM 12.33 54.194 0.181 7.33 5.58 10.23
4/14/2022 5:00:00 PM 12.17 53.906 0.181 7.32 5.67 10.25
4/14/2022 5:15:00 PM 12.01 53.618 0.18 7.32 5.82 10.28
4/14/2022 5:30:00 PM 11.85 53.33 0.18 7.31 5.87 10.32
4/14/2022 5:45:00 PM 11.69 53.042 0.181 7.31 5.85 10.35
4/14/2022 6:00:00 PM 11.53 52.754 0.181 7.3 6 10.39
4/14/2022 6:15:00 PM 11.38 52.484 0.181 7.3 5.89 10.43
4/14/2022 6:30:00 PM 11.25 52.25 0.181 7.3 6.06 10.47
4/14/2022 6:45:00 PM 11.11 51.998 0.181 7.3 6.08 10.5
4/14/2022 7:00:00 PM 10.97 51.746 0.182 7.28 6.19 10.52
4/14/2022 7:15:00 PM 10.84 51.512 0.181 7.29 6.4 10.53
4/14/2022 7:30:00 PM 10.71 51.278 0.181 7.27 6.43 10.55
4/14/2022 7:45:00 PM 10.59 51.062 0.182 7.27 6.47 10.57
4/14/2022 8:00:00 PM 10.48 50.864 0.181 7.26 6.34 10.57
4/14/2022 8:15:00 PM 10.39 50.702 0.182 7.26 6.31 10.59
4/14/2022 8:30:00 PM 10.3 50.54 0.182 7.25 12.53 10.59
4/14/2022 8:45:00 PM 10.23 50.414 0.182 7.25 6.52 10.6
4/14/2022 9:00:00 PM 10.16 50.288 0.182 7.25 6.18 10.61
4/14/2022 9:15:00 PM 10.12 50.216 0.183 7.25 6.33 10.61
4/14/2022 9:30:00 PM 10.11 50.198 0.183 7.25 6.28 10.6
4/14/2022 9:45:00 PM 10.11 50.198 0.183 7.24 6.01 10.58
4/14/2022 10:00:00 PM 10.11 50.198 0.183 7.24 5.71 10.58
4/14/2022 10:15:00 PM 10.09 50.162 0.183 7.24 6.62 10.58
4/14/2022 10:30:00 PM 10.09 50.162 0.184 7.24 5.65 10.57
4/14/2022 10:45:00 PM 10.17 50.306 0.184 7.24 5.55 10.55
4/14/2022 11:00:00 PM 10.29 50.522 0.184 7.24 5.49 10.5
4/14/2022 11:15:00 PM 10.42 50.756 0.184 7.25 5.46 10.47
4/14/2022 11:30:00 PM 10.51 50.918 0.185 7.24 8.87 10.42
4/14/2022 11:45:00 PM 10.57 51.026 0.185 7.25 5.29 10.42
4/15/2022 12:00:00 AM 10.61 51.098 0.185 7.25 5.14 10.41
4/15/2022 12:15:00 AM 10.6 51.08 0.185 7.25 5.01 10.41
4/15/2022 12:30:00 AM 10.58 51.044 0.185 7.25 4.95 10.42
4/15/2022 12:45:00 AM 10.55 50.99 0.185 7.25 5.17 10.43
4/15/2022 1:00:00 AM 10.52 50.936 0.185 7.25 5.01 10.44
4/15/2022 1:15:00 AM 10.5 50.9 0.185 7.24 4.93 10.45
4/15/2022 1:30:00 AM 10.48 50.864 0.185 7.25 5.11 10.46
4/15/2022 1:45:00 AM 10.45 50.81 0.185 7.25 5.11 10.47
4/15/2022 2:00:00 AM 10.42 50.756 0.185 7.24 4.81 10.47
4/15/2022 2:15:00 AM 10.39 50.702 0.185 7.25 4.93 10.48
4/15/2022 2:30:00 AM 10.36 50.648 0.185 7.25 5.07 10.49
4/15/2022 2:45:00 AM 10.32 50.576 0.185 7.25 4.75 10.5
4/15/2022 3:00:00 AM 10.3 50.54 0.185 7.25 4.74 10.51
4/15/2022 3:15:00 AM 10.27 50.486 0.185 7.24 4.84 10.51
4/15/2022 3:30:00 AM 10.25 50.45 0.185 7.24 4.9 10.51
4/15/2022 3:45:00 AM 10.22 50.396 0.185 7.25 4.79 10.53
4/15/2022 4:00:00 AM 10.19 50.342 0.185 7.25 4.78 10.54
4/15/2022 4:15:00 AM 10.15 50.27 0.185 7.24 4.82 10.55
4/15/2022 4:30:00 AM 10.11 50.198 0.185 7.24 5.01 10.56
4/15/2022 4:45:00 AM 10.08 50.144 0.184 7.24 4.66 10.58
4/15/2022 5:00:00 AM 10.04 50.072 0.185 7.25 4.66 10.6
4/15/2022 5:15:00 AM 10 50 0.185 7.25 5.04 10.61
4/15/2022 5:30:00 AM 9.97 49.946 0.185 7.25 4.6 10.62
4/15/2022 5:45:00 AM 9.95 49.91 0.185 7.25 4.54 10.63
4/15/2022 6:00:00 AM 9.93 49.874 0.185 7.25 4.86 10.63
4/15/2022 6:15:00 AM 9.93 49.874 0.185 7.25 4.66 10.63
4/15/2022 6:30:00 AM 9.91 49.838 0.185 7.25 4.77 10.64
4/15/2022 6:45:00 AM 9.9 49.82 0.185 7.25 4.57 10.65
4/15/2022 7:00:00 AM 9.89 49.802 0.185 7.25 4.58 10.67
4/15/2022 7:15:00 AM 9.88 49.784 0.185 7.26 4.53 10.69
4/15/2022 7:30:00 AM 9.89 49.802 0.185 7.26 4.52 10.72
4/15/2022 7:45:00 AM 9.89 49.802 0.185 7.27 4.34 10.75
4/15/2022 8:00:00 AM 9.9 49.82 0.185 7.27 4.49 10.78
4/15/2022 8:15:00 AM 9.9 49.82 0.185 7.29 4.64 10.82
4/15/2022 8:30:00 AM 9.93 49.874 0.185 7.3 4.62 10.86
4/15/2022 8:45:00 AM 9.97 49.946 0.185 7.3 4.37 10.89
4/15/2022 9:00:00 AM 10.03 50.054 0.185 7.31 4.69 10.9
4/15/2022 9:15:00 AM 10.13 50.234 0.185 7.32 4.5 10.91
4/15/2022 9:30:00 AM 10.24 50.432 0.186 7.33 4.22 10.92
4/15/2022 9:45:00 AM 10.38 50.684 0.185 7.33 4.36 10.92
4/15/2022 10:00:00 AM 10.53 50.954 0.185 7.34 4.44 10.92
4/15/2022 10:15:00 AM 10.67 51.206 0.186 7.36 4.3 10.91
4/15/2022 10:30:00 AM 10.83 51.494 0.185 7.37 4.24 10.9
4/15/2022 10:45:00 AM 11 51.8 0.185 7.38 4.3 10.88
4/15/2022 11:00:00 AM 11.19 52.142 0.185 7.39 4.31 10.85
4/15/2022 11:15:00 AM 11.39 52.502 0.185 7.4 4.28 10.82
4/15/2022 11:30:00 AM 11.59 52.862 0.186 7.4 4.41 10.79
4/15/2022 11:45:00 AM 11.78 53.204 0.186 7.41 4.31 10.76
4/15/2022 12:00:00 PM 11.99 53.582 0.186 7.42 4.41 10.73
4/15/2022 12:15:00 PM 12.18 53.924 0.185 7.42 4.53 10.69
4/15/2022 12:30:00 PM 12.38 54.284 0.186 7.43 4.27 10.64
4/15/2022 12:45:00 PM 12.6 54.68 0.185 7.44 4.18 10.6
4/15/2022 1:00:00 PM 12.83 55.094 0.187 7.44 4.33 10.56
4/15/2022 1:15:00 PM 13.04 55.472 0.186 7.44 4.42 10.51
4/15/2022 1:30:00 PM 13.27 55.886 0.186 7.45 4.28 10.46
4/15/2022 1:45:00 PM 13.47 56.246 0.185 7.44 6.16 10.42
4/15/2022 2:00:00 PM 13.6 56.48 0.186 7.45 4.34 10.37
4/15/2022 2:15:00 PM 13.71 56.678 0.186 7.46 4.23 10.34
4/15/2022 2:30:00 PM 13.81 56.858 0.187 7.45 4.21 10.31
4/15/2022 2:45:00 PM 13.87 56.966 0.186 7.46 4.29 10.28
4/15/2022 3:00:00 PM 13.94 57.092 0.187 7.46 4.18 10.25
4/15/2022 3:15:00 PM 13.96 57.128 0.187 7.45 4.33 10.24
4/15/2022 3:30:00 PM 13.94 57.092 0.187 7.46 4.3 10.23
4/15/2022 3:45:00 PM 13.94 57.092 0.186 7.46 4.28 10.21
4/15/2022 4:00:00 PM 13.91 57.038 0.187 7.46 4.29 10.2
4/15/2022 4:15:00 PM 13.9 57.02 0.186 7.46 4.22 10.19
4/15/2022 4:30:00 PM 13.83 56.894 0.187 7.46 4.3 10.18
4/15/2022 4:45:00 PM 13.78 56.804 0.187 7.45 4.26 10.17
4/15/2022 5:00:00 PM 13.62 56.516 0.185 7.44 4.31 10.16
4/15/2022 5:15:00 PM 13.53 56.354 0.186 7.43 4.26 10.16
4/15/2022 5:30:00 PM 13.34 56.012 0.186 7.43 4.13 10.16
4/15/2022 5:45:00 PM 13.19 55.742 0.186 7.42 4.31 10.17
4/15/2022 6:00:00 PM 13.02 55.436 0.186 7.41 4.34 10.19
4/15/2022 6:15:00 PM 12.86 55.148 0.186 7.4 4.44 10.21
4/15/2022 6:30:00 PM 12.66 54.788 0.186 7.39 4.58 10.22
4/15/2022 6:45:00 PM 12.44 54.392 0.186 7.38 4.56 10.23
4/15/2022 7:00:00 PM 12.23 54.014 0.186 7.36 4.87 10.24
4/15/2022 7:15:00 PM 12.01 53.618 0.186 7.35 5.3 10.26
4/15/2022 7:30:00 PM 11.81 53.258 0.186 7.34 5.26 10.28
4/15/2022 7:45:00 PM 11.61 52.898 0.186 7.33 5.43 10.3
4/15/2022 8:00:00 PM 11.41 52.538 0.186 7.31 5.23 10.32
4/15/2022 8:15:00 PM 11.23 52.214 0.185 7.3 4.95 10.35
4/15/2022 8:30:00 PM 11.05 51.89 0.185 7.3 5.45 10.38
4/15/2022 8:45:00 PM 10.88 51.584 0.185 7.29 5.48 10.41
4/15/2022 9:00:00 PM 10.71 51.278 0.185 7.29 5.17 10.44
4/15/2022 9:15:00 PM 10.56 51.008 0.185 7.28 5.3 10.48
4/15/2022 9:30:00 PM 10.42 50.756 0.185 7.27 5.41 10.51
4/15/2022 9:45:00 PM 10.28 50.504 0.185 7.27 5.55 10.53
4/15/2022 10:00:00 PM 10.16 50.288 0.185 7.27 5.39 10.56
4/15/2022 10:15:00 PM 10.05 50.09 0.185 7.26 5.6 10.59
4/15/2022 10:30:00 PM 9.94 49.892 0.186 7.26 5.82 10.62
4/15/2022 10:45:00 PM 9.84 49.712 0.186 7.26 5.69 10.64
4/15/2022 11:00:00 PM 9.75 49.55 0.186 7.26 5.99 10.66
4/15/2022 11:15:00 PM 9.67 49.406 0.187 7.26 5.78 10.68
4/15/2022 11:30:00 PM 9.61 49.298 0.186 7.26 5.45 10.69
4/15/2022 11:45:00 PM 9.56 49.208 0.187 7.25 5.13 10.7
4/16/2022 12:00:00 AM 9.54 49.172 0.187 7.25 6.21 10.7
4/16/2022 12:15:00 AM 9.54 49.172 0.187 7.26 5.47 10.7
4/16/2022 12:30:00 AM 9.58 49.244 0.188 7.25 5.22 10.68
4/16/2022 12:45:00 AM 9.65 49.37 0.188 7.26 5.15 10.65
4/16/2022 1:00:00 AM 9.74 49.532 0.188 7.26 4.84 10.61
4/16/2022 1:15:00 AM 9.85 49.73 0.188 7.27 4.75 10.57
4/16/2022 1:30:00 AM 9.96 49.928 0.189 7.27 4.7 10.55
4/16/2022 1:45:00 AM 10.06 50.108 0.189 7.27 4.69 10.52
4/16/2022 2:00:00 AM 10.14 50.252 0.189 7.27 4.65 10.49
4/16/2022 2:15:00 AM 10.2 50.36 0.189 7.27 4.67 10.48
4/16/2022 2:30:00 AM 10.25 50.45 0.19 7.28 4.68 10.46
4/16/2022 2:45:00 AM 10.29 50.522 0.19 7.27 4.53 10.45
4/16/2022 3:00:00 AM 10.32 50.576 0.19 7.28 4.47 10.44
4/16/2022 3:15:00 AM 10.35 50.63 0.19 7.28 4.58 10.43
4/16/2022 3:30:00 AM 10.39 50.702 0.189 7.28 4.42 10.43
4/16/2022 3:45:00 AM 10.41 50.738 0.19 7.28 4.44 10.42
4/16/2022 4:00:00 AM 10.43 50.774 0.19 7.28 4.38 10.42
4/16/2022 4:15:00 AM 10.45 50.81 0.19 7.28 4.48 10.42
4/16/2022 4:30:00 AM 10.47 50.846 0.19 7.28 4.44 10.42
4/16/2022 4:45:00 AM 10.48 50.864 0.19 7.28 4.28 10.41
4/16/2022 5:00:00 AM 10.48 50.864 0.19 7.28 4.3 10.41
4/16/2022 5:15:00 AM 10.48 50.864 0.19 7.28 4.19 10.41
4/16/2022 5:30:00 AM 10.48 50.864 0.19 7.29 4.55 10.41
4/16/2022 5:45:00 AM 10.49 50.882 0.19 7.28 4.18 10.41
4/16/2022 6:00:00 AM 10.5 50.9 0.19 7.28 4.88 10.41
4/16/2022 6:15:00 AM 10.51 50.918 0.19 7.28 4.38 10.41
4/16/2022 6:30:00 AM 10.52 50.936 0.19 7.28 4.29 10.41
4/16/2022 6:45:00 AM 10.53 50.954 0.19 7.28 4.25 10.41
4/16/2022 7:00:00 AM 10.53 50.954 0.19 7.28 4.24 10.42
4/16/2022 7:15:00 AM 10.53 50.954 0.19 7.28 4.12 10.43
4/16/2022 7:30:00 AM 10.53 50.954 0.19 7.28 4.36 10.44
4/16/2022 7:45:00 AM 10.53 50.954 0.19 7.28 4.12 10.45
4/16/2022 8:00:00 AM 10.53 50.954 0.19 7.28 4.22 10.47
4/16/2022 8:15:00 AM 10.51 50.918 0.19 7.29 4.01 10.48
4/16/2022 8:30:00 AM 10.5 50.9 0.19 7.29 4.03 10.5
4/16/2022 8:45:00 AM 10.5 50.9 0.19 7.3 3.97 10.53
4/16/2022 9:00:00 AM 10.49 50.882 0.19 7.31 4.04 10.56
4/16/2022 9:15:00 AM 10.52 50.936 0.19 7.32 3.8 10.61
4/16/2022 9:30:00 AM 10.53 50.954 0.19 7.33 4.03 10.65
4/16/2022 9:45:00 AM 10.56 51.008 0.19 7.34 3.95 10.69
4/16/2022 10:00:00 AM 10.63 51.134 0.19 7.36 4.05 10.73
4/16/2022 10:15:00 AM 10.69 51.242 0.191 7.37 3.7 10.76
4/16/2022 10:30:00 AM 10.72 51.296 0.19 7.38 3.8 10.79
4/16/2022 10:45:00 AM 10.88 51.584 0.19 7.39 3.94 10.81
4/16/2022 11:00:00 AM 10.92 51.656 0.19 7.4 3.98 10.81
4/16/2022 11:15:00 AM 11.01 51.818 0.191 7.41 3.77 10.82
4/16/2022 11:30:00 AM 11.13 52.034 0.191 7.42 3.85 10.82
4/16/2022 11:45:00 AM 11.22 52.196 0.19 7.43 3.88 10.81
4/16/2022 12:00:00 PM 11.33 52.394 0.192 7.43 5.44 10.8
4/16/2022 12:15:00 PM 11.37 52.466 0.191 7.44 3.82 10.74
4/16/2022 12:30:00 PM 11.39 52.502 0.191 7.43 3.93 10.68
4/16/2022 12:45:00 PM 11.41 52.538 0.19 7.42 3.88 10.61
4/16/2022 1:00:00 PM 11.42 52.556 0.191 7.41 3.86 10.56
4/16/2022 1:15:00 PM 11.43 52.574 0.191 7.4 3.82 10.52
4/16/2022 1:30:00 PM 11.46 52.628 0.191 7.4 3.94 10.5
4/16/2022 1:45:00 PM 11.49 52.682 0.191 7.4 3.64 10.49
4/16/2022 2:00:00 PM 11.54 52.772 0.191 7.41 3.63 10.5
4/16/2022 2:15:00 PM 11.55 52.79 0.191 7.41 3.68 10.49
4/16/2022 2:30:00 PM 11.52 52.736 0.191 7.4 3.81 10.49
4/16/2022 2:45:00 PM 11.47 52.646 0.191 7.4 3.88 10.47
4/16/2022 3:00:00 PM 11.41 52.538 0.191 7.39 3.78 10.47
4/16/2022 3:15:00 PM 11.35 52.43 0.191 7.39 3.89 10.47
4/16/2022 3:30:00 PM 11.27 52.286 0.191 7.38 3.94 10.46
4/16/2022 3:45:00 PM 11.19 52.142 0.191 7.37 4.1 10.46
4/16/2022 4:00:00 PM 11.12 52.016 0.191 7.37 4.3 10.47
4/16/2022 4:15:00 PM 11.04 51.872 0.191 7.36 4.19 10.48
4/16/2022 4:30:00 PM 10.96 51.728 0.191 7.36 4.41 10.49
4/16/2022 4:45:00 PM 10.88 51.584 0.191 7.36 4.38 10.52
4/16/2022 5:00:00 PM 10.81 51.458 0.192 7.36 4.37 10.54
4/16/2022 5:15:00 PM 10.73 51.314 0.193 7.35 4.33 10.55
4/16/2022 5:30:00 PM 10.65 51.17 0.194 7.35 4.48 10.57
4/16/2022 5:45:00 PM 10.56 51.008 0.194 7.34 4.52 10.57
4/16/2022 6:00:00 PM 10.46 50.828 0.195 7.35 4.74 10.59
4/16/2022 6:15:00 PM 10.35 50.63 0.194 7.34 4.75 10.61
4/16/2022 6:30:00 PM 10.24 50.432 0.196 7.33 5.17 10.62
4/16/2022 6:45:00 PM 10.13 50.234 0.197 7.32 5.25 10.64
4/16/2022 7:00:00 PM 10.03 50.054 0.198 7.33 5.99 10.66
4/16/2022 7:15:00 PM 9.92 49.856 0.199 7.32 5.61 10.67
4/16/2022 7:30:00 PM 9.81 49.658 0.199 7.32 5.92 10.69
4/16/2022 7:45:00 PM 9.72 49.496 0.201 7.31 5.99 10.7
4/16/2022 8:00:00 PM 9.64 49.352 0.203 7.3 6.05 10.71
4/16/2022 8:15:00 PM 9.58 49.244 0.205 7.32 5.85 10.71
4/16/2022 8:30:00 PM 9.52 49.136 0.206 7.31 6.56 10.72
4/16/2022 8:45:00 PM 9.48 49.064 0.207 7.32 6.42 10.73
4/16/2022 9:00:00 PM 9.46 49.028 0.208 7.31 6.62 10.73
4/16/2022 9:15:00 PM 9.45 49.01 0.21 7.31 6.43 10.74
4/16/2022 9:30:00 PM 9.45 49.01 0.21 7.31 6.38 10.73
4/16/2022 9:45:00 PM 9.45 49.01 0.211 7.31 6.41 10.72
4/16/2022 10:00:00 PM 9.46 49.028 0.211 7.31 6.45 10.72
4/16/2022 10:15:00 PM 9.47 49.046 0.212 7.32 5.94 10.71
4/16/2022 10:30:00 PM 9.47 49.046 0.213 7.31 6.07 10.71
4/16/2022 10:45:00 PM 9.49 49.082 0.215 7.31 5.93 10.71
4/16/2022 11:00:00 PM 9.5 49.1 0.217 7.31 5.92 10.71
4/16/2022 11:15:00 PM 9.51 49.118 0.218 7.31 5.85 10.71
4/16/2022 11:30:00 PM 9.52 49.136 0.219 7.31 5.94 10.71
4/16/2022 11:45:00 PM 9.51 49.118 0.218 7.31 5.42 10.71
4/17/2022 12:00:00 AM 9.5 49.1 0.218 7.31 5.59 10.72
4/17/2022 12:15:00 AM 9.48 49.064 0.216 7.31 5.48 10.72
4/17/2022 12:30:00 AM 9.45 49.01 0.213 7.31 5.49 10.73
4/17/2022 12:45:00 AM 9.42 48.956 0.211 7.31 5.25 10.74
4/17/2022 1:00:00 AM 9.4 48.92 0.209 7.31 5.25 10.74
4/17/2022 1:15:00 AM 9.37 48.866 0.206 7.3 5.15 10.75
4/17/2022 1:30:00 AM 9.35 48.83 0.205 7.3 5.24 10.76
4/17/2022 1:45:00 AM 9.33 48.794 0.203 7.3 5.05 10.76
4/17/2022 2:00:00 AM 9.33 48.794 0.202 7.3 5.35 10.77
4/17/2022 2:15:00 AM 9.31 48.758 0.2 7.31 5.08 10.78
4/17/2022 2:30:00 AM 9.27 48.686 0.2 7.3 4.94 10.78
4/17/2022 2:45:00 AM 9.25 48.65 0.199 7.3 4.94 10.79
4/17/2022 3:00:00 AM 9.22 48.596 0.198 7.3 4.65 10.8
4/17/2022 3:15:00 AM 9.19 48.542 0.197 7.3 5.01 10.81
4/17/2022 3:30:00 AM 9.15 48.47 0.196 7.31 4.65 10.82
4/17/2022 3:45:00 AM 9.11 48.398 0.195 7.3 5.02 10.84
4/17/2022 4:00:00 AM 9.07 48.326 0.195 7.3 4.92 10.85
4/17/2022 4:15:00 AM 9.04 48.272 0.194 7.3 4.74 10.86
4/17/2022 4:30:00 AM 9 48.2 0.194 7.3 4.7 10.87
4/17/2022 4:45:00 AM 8.96 48.128 0.193 7.3 4.72 10.88
4/17/2022 5:00:00 AM 8.93 48.074 0.192 7.3 4.58 10.89
4/17/2022 5:15:00 AM 8.89 48.002 0.192 7.3 4.54 10.89
4/17/2022 5:30:00 AM 8.86 47.948 0.191 7.3 4.42 10.91
4/17/2022 5:45:00 AM 8.83 47.894 0.191 7.3 4.51 10.92
4/17/2022 6:00:00 AM 8.8 47.84 0.191 7.3 4.39 10.93
4/17/2022 6:15:00 AM 8.78 47.804 0.191 7.3 4.66 10.93
4/17/2022 6:30:00 AM 8.76 47.768 0.19 7.3 4.4 10.95
4/17/2022 6:45:00 AM 8.75 47.75 0.19 7.3 4.48 10.96
4/17/2022 7:00:00 AM 8.74 47.732 0.19 7.31 4.47 10.98
4/17/2022 7:15:00 AM 8.73 47.714 0.189 7.31 4.44 11
4/17/2022 7:30:00 AM 8.73 47.714 0.19 7.31 4.3 11.03
4/17/2022 7:45:00 AM 8.73 47.714 0.189 7.32 4.15 11.05
4/17/2022 8:00:00 AM 8.74 47.732 0.189 7.33 4.4 11.08
4/17/2022 8:15:00 AM 8.76 47.768 0.189 7.33 4.15 11.12
4/17/2022 8:30:00 AM 8.78 47.804 0.188 7.34 4.37 11.17
4/17/2022 8:45:00 AM 8.81 47.858 0.188 7.36 4.16 11.23
4/17/2022 9:00:00 AM 8.85 47.93 0.188 7.37 4.24 11.27
4/17/2022 9:15:00 AM 8.88 47.984 0.188 7.39 4.28 11.31
4/17/2022 9:30:00 AM 8.92 48.056 0.188 7.4 4.21 11.33
4/17/2022 9:45:00 AM 9 48.2 0.188 7.41 4.22 11.37
4/17/2022 10:00:00 AM 9.07 48.326 0.188 7.42 4.23 11.39
4/17/2022 10:15:00 AM 9.12 48.416 0.188 7.44 3.98 11.4
4/17/2022 10:30:00 AM 9.22 48.596 0.188 7.44 4 11.42
4/17/2022 10:45:00 AM 9.26 48.668 0.187 7.46 4.31 11.42
4/17/2022 11:00:00 AM 9.34 48.812 0.188 7.47 4.2 11.42
4/17/2022 11:15:00 AM 9.38 48.884 0.187 7.47 4.25 11.42
4/17/2022 11:30:00 AM 9.41 48.938 0.187 7.47 4.13 11.4
4/17/2022 11:45:00 AM 9.53 49.154 0.187 7.48 4.12 11.4
4/17/2022 12:00:00 PM 9.53 49.154 0.187 7.49 4.1 11.39
4/17/2022 12:15:00 PM 9.61 49.298 0.187 7.49 3.98 11.39
4/17/2022 12:30:00 PM 9.7 49.46 0.188 7.5 4.15 11.39
4/17/2022 12:45:00 PM 9.76 49.568 0.187 7.5 3.92 11.37
4/17/2022 1:00:00 PM 9.77 49.586 0.187 7.5 3.94 11.37
4/17/2022 1:15:00 PM 9.77 49.586 0.187 7.5 4.03 11.34
4/17/2022 1:30:00 PM 9.91 49.838 0.187 7.5 4 11.33
4/17/2022 1:45:00 PM 9.93 49.874 0.187 7.5 3.94 11.32
4/17/2022 2:00:00 PM 10.07 50.126 0.187 7.51 3.94 11.31
4/17/2022 2:15:00 PM 10.14 50.252 0.187 7.51 3.94 11.3
4/17/2022 2:30:00 PM 10.15 50.27 0.187 7.51 4.07 11.28
4/17/2022 2:45:00 PM 10.24 50.432 0.187 7.5 4.06 11.26
4/17/2022 3:00:00 PM 10.26 50.468 0.187 7.51 4.03 11.23
4/17/2022 3:15:00 PM 10.48 50.864 0.187 7.51 4.07 11.22
4/17/2022 3:30:00 PM 10.54 50.972 0.187 7.51 4.01 11.2
4/17/2022 3:45:00 PM 10.59 51.062 0.186 7.51 4.05 11.19
4/17/2022 4:00:00 PM 10.68 51.224 0.187 7.51 4.07 11.17
4/17/2022 4:15:00 PM 10.54 50.972 0.187 7.51 4.11 11.17
4/17/2022 4:30:00 PM 10.51 50.918 0.187 7.51 3.91 11.15
4/17/2022 4:45:00 PM 10.47 50.846 0.187 7.5 3.98 11.13
4/17/2022 5:00:00 PM 10.46 50.828 0.187 7.5 3.94 11.12
4/17/2022 5:15:00 PM 10.37 50.666 0.187 7.5 3.89 11.12
4/17/2022 5:30:00 PM 10.29 50.522 0.187 7.49 3.73 11.1
4/17/2022 5:45:00 PM 10.23 50.414 0.187 7.48 3.92 11.1
4/17/2022 6:00:00 PM 10.14 50.252 0.187 7.47 3.83 11.1
4/17/2022 6:15:00 PM 10.08 50.144 0.187 7.47 4.03 11.1
4/17/2022 6:30:00 PM 9.98 49.964 0.188 7.45 4.02 11.08
4/17/2022 6:45:00 PM 9.87 49.766 0.188 7.44 4.02 11.05
4/17/2022 7:00:00 PM 9.75 49.55 0.188 7.42 4.11 11.05
4/17/2022 7:15:00 PM 9.64 49.352 0.188 7.41 4.08 11.04
4/17/2022 7:30:00 PM 9.54 49.172 0.188 7.4 4.14 11.02
4/17/2022 7:45:00 PM 9.45 49.01 0.188 7.38 4.19 11
4/17/2022 8:00:00 PM 9.38 48.884 0.188 7.37 4.13 10.98
4/17/2022 8:15:00 PM 9.31 48.758 0.189 7.35 4.13 10.96
4/17/2022 8:30:00 PM 9.24 48.632 0.189 7.34 4.05 10.95
4/17/2022 8:45:00 PM 9.18 48.524 0.188 7.34 4.25 10.95
4/17/2022 9:00:00 PM 9.12 48.416 0.188 7.33 3.95 10.95
4/17/2022 9:15:00 PM 9.07 48.326 0.189 7.32 3.98 10.94
4/17/2022 9:30:00 PM 9.01 48.218 0.189 7.32 4.39 10.96
4/17/2022 9:45:00 PM 8.95 48.11 0.19 7.31 4.2 10.96
4/17/2022 10:00:00 PM 8.9 48.02 0.19 7.31 4.31 10.96
4/17/2022 10:15:00 PM 8.85 47.93 0.19 7.3 4.19 10.97
4/17/2022 10:30:00 PM 8.8 47.84 0.19 7.3 4.38 10.98
4/17/2022 10:45:00 PM 8.76 47.768 0.19 7.3 4.22 10.99
4/17/2022 11:00:00 PM 8.71 47.678 0.19 7.29 4.51 10.99
4/17/2022 11:15:00 PM 8.68 47.624 0.19 7.29 4.29 11.01
4/17/2022 11:30:00 PM 8.63 47.534 0.19 7.29 4.36 11.02
4/17/2022 11:45:00 PM 8.59 47.462 0.189 7.29 4.19 11.03
4/18/2022 12:00:00 AM 8.55 47.39 0.189 7.29 4.18 11.04
4/18/2022 12:15:00 AM 8.51 47.318 0.191 7.29 4.14 11.05
4/18/2022 12:30:00 AM 8.47 47.246 0.189 7.29 4.2 11.06
4/18/2022 12:45:00 AM 8.42 47.156 0.19 7.28 4.23 11.07
4/18/2022 1:00:00 AM 8.38 47.084 0.19 7.29 4.11 11.08
4/18/2022 1:15:00 AM 8.34 47.012 0.19 7.28 4.1 11.1
4/18/2022 1:30:00 AM 8.3 46.94 0.19 7.28 4.32 11.11
4/18/2022 1:45:00 AM 8.26 46.868 0.19 7.28 4.39 11.12
4/18/2022 2:00:00 AM 8.22 46.796 0.19 7.28 4.18 11.14
4/18/2022 2:15:00 AM 8.17 46.706 0.191 7.28 4.13 11.14
4/18/2022 2:30:00 AM 8.13 46.634 0.19 7.28 4.11 11.16
4/18/2022 2:45:00 AM 8.08 46.544 0.19 7.28 4.15 11.17
4/18/2022 3:00:00 AM 8.03 46.454 0.191 7.28 4.38 11.18
4/18/2022 3:15:00 AM 7.99 46.382 0.191 7.28 4.22 11.2
4/18/2022 3:30:00 AM 7.94 46.292 0.191 7.27 4.03 11.22
4/18/2022 3:45:00 AM 7.9 46.22 0.191 7.27 4.17 11.23
4/18/2022 4:00:00 AM 7.85 46.13 0.191 7.27 3.92 11.24
4/18/2022 4:15:00 AM 7.81 46.058 0.19 7.27 4.05 11.26
4/18/2022 4:30:00 AM 7.76 45.968 0.191 7.27 3.95 11.27
4/18/2022 4:45:00 AM 7.72 45.896 0.191 7.27 4.11 11.28
4/18/2022 5:00:00 AM 7.67 45.806 0.191 7.27 4.09 11.29
4/18/2022 5:15:00 AM 7.63 45.734 0.191 7.26 4.2 11.3
4/18/2022 5:30:00 AM 7.59 45.662 0.191 7.27 3.97 11.32
4/18/2022 5:45:00 AM 7.54 45.572 0.191 7.26 4.06 11.33
4/18/2022 6:00:00 AM 7.5 45.5 0.191 7.26 4.05 11.34
4/18/2022 6:15:00 AM 7.46 45.428 0.191 7.26 3.84 11.36
4/18/2022 6:30:00 AM 7.42 45.356 0.191 7.25 4.05 11.38
4/18/2022 6:45:00 AM 7.38 45.284 0.191 7.25 4.07 11.4
4/18/2022 7:00:00 AM 7.36 45.248 0.192 7.25 4.12 11.43
4/18/2022 7:15:00 AM 7.34 45.212 0.191 7.26 4.11 11.45
4/18/2022 7:30:00 AM 7.33 45.194 0.192 7.26 4.03 11.5
4/18/2022 7:45:00 AM 7.34 45.212 0.191 7.27 3.92 11.54
4/18/2022 8:00:00 AM 7.37 45.266 0.192 7.28 4.02 11.59
4/18/2022 8:15:00 AM 7.41 45.338 0.192 7.3 3.9 11.64
4/18/2022 8:30:00 AM 7.46 45.428 0.191 7.31 3.93 11.68
4/18/2022 8:45:00 AM 7.54 45.572 0.192 7.33 3.96 11.7
4/18/2022 9:00:00 AM 7.64 45.752 0.192 7.35 3.81 11.72
4/18/2022 9:15:00 AM 7.73 45.914 0.192 7.36 3.8 11.75
4/18/2022 9:30:00 AM 7.88 46.184 0.193 7.38 3.9 11.77
4/18/2022 9:45:00 AM 8 46.4 0.192 7.39 3.95 11.77
4/18/2022 10:00:00 AM 8.13 46.634 0.192 7.41 3.99 11.77
4/18/2022 10:15:00 AM 8.25 46.85 0.193 7.43 4 11.76
4/18/2022 10:30:00 AM 8.4 47.12 0.192 7.44 3.89 11.75
4/18/2022 10:45:00 AM 8.54 47.372 0.192 7.45 3.94 11.74
4/18/2022 11:00:00 AM 8.68 47.624 0.192 7.47 3.79 11.71
4/18/2022 11:15:00 AM 8.84 47.912 0.192 7.48 3.99 11.69
4/18/2022 11:30:00 AM 8.98 48.164 0.192 7.49 3.85 11.67
4/18/2022 11:45:00 AM 9.09 48.362 0.191 7.5 3.91 11.64
4/18/2022 12:00:00 PM 9.19 48.542 0.192 7.51 3.95 11.61
4/18/2022 12:15:00 PM 9.27 48.686 0.192 7.51 4.06 11.59
4/18/2022 12:30:00 PM 9.34 48.812 0.192 7.52 4.01 11.57
4/18/2022 12:45:00 PM 9.4 48.92 0.192 7.53 3.89 11.54
4/18/2022 1:00:00 PM 9.48 49.064 0.192 7.53 3.96 11.52
4/18/2022 1:15:00 PM 9.56 49.208 0.193 7.54 3.94 11.5
4/18/2022 1:30:00 PM 9.61 49.298 0.193 7.54 3.91 11.48
4/18/2022 1:45:00 PM 9.67 49.406 0.193 7.54 3.89 11.46
4/18/2022 2:00:00 PM 9.7 49.46 0.193 7.55 3.86 11.45
4/18/2022 2:15:00 PM 9.69 49.442 0.193 7.54 3.88 11.44
4/18/2022 2:30:00 PM 9.7 49.46 0.192 7.54 3.86 11.42
4/18/2022 2:45:00 PM 9.66 49.388 0.193 7.54 3.82 11.39
4/18/2022 3:00:00 PM 9.64 49.352 0.193 7.53 3.87 11.37
4/18/2022 3:15:00 PM 9.61 49.298 0.193 7.53 3.67 11.35
4/18/2022 3:30:00 PM 9.57 49.226 0.195 7.53 3.66 11.33
4/18/2022 3:45:00 PM 9.54 49.172 0.194 7.52 3.51 11.32
4/18/2022 4:00:00 PM 9.5 49.1 0.194 7.51 3.62 11.3
4/18/2022 4:15:00 PM 9.46 49.028 0.195 7.5 4.58 11.27
4/18/2022 4:30:00 PM 9.4 48.92 0.195 7.49 3.5 11.24
4/18/2022 4:45:00 PM 9.34 48.812 0.194 7.48 3.59 11.21
4/18/2022 5:00:00 PM 9.26 48.668 0.194 7.46 3.59 11.19
4/18/2022 5:15:00 PM 9.18 48.524 0.194 7.45 3.67 11.16
4/18/2022 5:30:00 PM 9.1 48.38 0.194 7.43 3.61 11.14
4/18/2022 5:45:00 PM 9.02 48.236 0.195 7.42 3.51 11.13
4/18/2022 6:00:00 PM 8.91 48.038 0.194 7.41 3.56 11.11
4/18/2022 6:15:00 PM 8.74 47.732 0.194 7.39 3.71 11.1
4/18/2022 6:30:00 PM 8.55 47.39 0.194 7.38 3.96 11.09
4/18/2022 6:45:00 PM 8.39 47.102 0.194 7.37 3.87 11.1
4/18/2022 7:00:00 PM 8.23 46.814 0.194 7.36 4.37 11.1
4/18/2022 7:15:00 PM 8.13 46.634 0.194 7.35 4.2 11.12
4/18/2022 7:30:00 PM 8.07 46.526 0.195 7.35 4.05 11.13
4/18/2022 7:45:00 PM 8.04 46.472 0.195 7.34 4.13 11.14
4/18/2022 8:00:00 PM 8.01 46.418 0.196 7.33 4.45 11.14
4/18/2022 8:15:00 PM 7.97 46.346 0.197 7.33 4.17 11.14
4/18/2022 8:30:00 PM 7.94 46.292 0.199 7.33 4.17 11.16
4/18/2022 8:45:00 PM 7.92 46.256 0.198 7.32 4.24 11.15
4/18/2022 9:00:00 PM 7.89 46.202 0.198 7.32 4.47 11.16
4/18/2022 9:15:00 PM 7.85 46.13 0.199 7.32 4.6 11.16
4/18/2022 9:30:00 PM 7.83 46.094 0.199 7.31 4.51 11.16
4/18/2022 9:45:00 PM 7.78 46.004 0.199 7.31 4.62 11.17
4/18/2022 10:00:00 PM 7.74 45.932 0.2 7.31 4.59 11.16
4/18/2022 10:15:00 PM 7.67 45.806 0.2 7.31 4.71 11.16
4/18/2022 10:30:00 PM 7.62 45.716 0.2 7.31 4.63 11.17
4/18/2022 10:45:00 PM 7.54 45.572 0.201 7.3 4.72 11.17
4/18/2022 11:00:00 PM 7.44 45.392 0.202 7.3 4.64 11.19
4/18/2022 11:15:00 PM 7.27 45.086 0.202 7.3 4.79 11.2
4/18/2022 11:30:00 PM 7.11 44.798 0.203 7.24 4.65 11.22
4/18/2022 11:45:00 PM 6.91 44.438 0.203 7.26 4.68 11.24
4/19/2022 12:00:00 AM 6.65 43.97 0.204 7.27 4.79 11.29
4/19/2022 12:15:00 AM 6.32 43.376 0.203 7.23 5.03 11.33
4/19/2022 12:30:00 AM 6.08 42.944 0.203 7.22 4.98 11.4
4/19/2022 12:45:00 AM 5.99 42.782 0.203 7.23 5.34 11.47
4/19/2022 1:00:00 AM 5.84 42.512 0.206 7.23 5.99 11.52
4/19/2022 1:15:00 AM 5.64 42.152 0.209 7.23 6.15 11.59
4/19/2022 1:30:00 AM 5.41 41.738 0.213 7.21 6.88 11.69
4/19/2022 1:45:00 AM 5.23 41.414 0.215 7.22 7.41 11.76
4/19/2022 2:00:00 AM 5.11 41.198 0.22 7.22 9.9 11.85
4/19/2022 2:15:00 AM 4.91 40.838 0.228 7.23 13.5 11.93
4/19/2022 2:30:00 AM 4.68 40.424 0.245 7.27 18.58 12.02
4/19/2022 2:45:00 AM 4.45 40.01 0.26 7.23 23.23 12.1
4/19/2022 3:00:00 AM 4.26 39.668 0.247 7.23 29.24 12.18
4/19/2022 3:15:00 AM 4.2 39.56 0.249 7.24 32.47 12.23
4/19/2022 3:30:00 AM 4.23 39.614 0.252 7.26 33.64 12.25
4/19/2022 3:45:00 AM 4.33 39.794 0.252 7.27 47.76 12.22
4/19/2022 4:00:00 AM 4.45 40.01 0.242 7.28 37.13 12.2
4/19/2022 4:15:00 AM 4.55 40.19 0.23 7.28 37.91 12.19
4/19/2022 4:30:00 AM 4.67 40.406 0.221 7.29 32.37 12.16
4/19/2022 4:45:00 AM 4.81 40.658 0.214 7.29 29.71 12.12
4/19/2022 5:00:00 AM 4.94 40.892 0.208 7.3 26.98 12.09
4/19/2022 5:15:00 AM 5.05 41.09 0.203 7.3 25.28 12.05
4/19/2022 5:30:00 AM 5.2 41.36 0.198 7.3 23.88 12.01
4/19/2022 5:45:00 AM 5.33 41.594 0.195 7.3 23.74 11.97
4/19/2022 6:00:00 AM 5.46 41.828 0.191 7.3 21.37 11.94
4/19/2022 6:15:00 AM 5.57 42.026 0.19 7.29 20.25 11.91
4/19/2022 6:30:00 AM 5.68 42.224 0.188 7.29 18.92 11.88
4/19/2022 6:45:00 AM 5.76 42.368 0.187 7.29 17.73 11.87
4/19/2022 7:00:00 AM 5.84 42.512 0.186 7.29 17.61 11.85
4/19/2022 7:15:00 AM 5.92 42.656 0.187 7.29 16.33 11.83
4/19/2022 7:30:00 AM 5.98 42.764 0.189 7.29 16.18 11.82
4/19/2022 7:45:00 AM 6.06 42.908 0.188 7.29 15.6 11.81
4/19/2022 8:00:00 AM 6.11 42.998 0.188 7.3 14.91 11.81
4/19/2022 8:15:00 AM 6.19 43.142 0.189 7.3 13.62 11.81
4/19/2022 8:30:00 AM 6.27 43.286 0.189 7.3 13.44 11.81
4/19/2022 8:45:00 AM 6.33 43.394 0.189 7.3 12.96 11.81
4/19/2022 9:00:00 AM 6.38 43.484 0.188 7.3 12.15 11.81
4/19/2022 9:15:00 AM 6.44 43.592 0.188 7.31 11.82 11.81
4/19/2022 9:30:00 AM 6.51 43.718 0.189 7.32 11.36 11.82
4/19/2022 9:45:00 AM 6.57 43.826 0.189 7.32 11.44 11.83
4/19/2022 10:00:00 AM 6.64 43.952 0.191 7.32 11.28 11.84
4/19/2022 10:15:00 AM 6.7 44.06 0.189 7.32 11.09 11.85
4/19/2022 10:30:00 AM 6.76 44.168 0.192 7.33 11.07 11.85
4/19/2022 10:45:00 AM 6.79 44.222 0.195 7.32 11.17 11.84
4/19/2022 11:00:00 AM 6.82 44.276 0.199 7.34 11.21 11.83
4/19/2022 11:15:00 AM 6.83 44.294 0.199 7.34 10.84 11.81
4/19/2022 11:30:00 AM 6.88 44.384 0.2 7.34 10.82 11.81
4/19/2022 11:45:00 AM 6.93 44.474 0.203 7.33 10.92 11.81
4/19/2022 12:00:00 PM 6.96 44.528 0.206 7.34 11 11.81
4/19/2022 12:15:00 PM 6.98 44.564 0.209 7.35 11.59 11.81
4/19/2022 12:30:00 PM 6.98 44.564 0.213 7.37 10.5 11.8
4/19/2022 12:45:00 PM 7.02 44.636 0.218 7.37 12.47 11.8
4/19/2022 1:00:00 PM 7.09 44.762 0.221 7.36 4 11.8
4/19/2022 1:15:00 PM 7.09 44.762 0.225 7.35 118.93 11.8
4/19/2022 1:30:00 PM 7.1 44.78 0.229 7.34 10.52 11.79
4/19/2022 1:45:00 PM 7.07 44.726 0.228 7.35 10.78 11.78
4/19/2022 2:00:00 PM 7.08 44.744 0.232 7.33 10.95 11.78
4/19/2022 2:15:00 PM 7.09 44.762 0.232 7.33 10.61 11.79
4/19/2022 2:30:00 PM 7.11 44.798 0.236 7.34 10.91 11.79
4/19/2022 2:45:00 PM 7.12 44.816 0.236 7.36 10.54 11.8
4/19/2022 3:00:00 PM 7.12 44.816 0.24 7.34 10.5 11.79
4/19/2022 3:15:00 PM 7.13 44.834 0.241 7.34 10.74 11.79
4/19/2022 3:30:00 PM 7.14 44.852 0.239 7.35 10.31 11.79
4/19/2022 3:45:00 PM 7.17 44.906 0.239 7.33 10.82 11.79
4/19/2022 4:00:00 PM 7.21 44.978 0.237 7.35 11.08 11.78
4/19/2022 4:15:00 PM 7.24 45.032 0.238 7.34 11.17 11.77
4/19/2022 4:30:00 PM 7.24 45.032 0.235 7.33 11.2 11.75
4/19/2022 4:45:00 PM 7.25 45.05 0.232 7.33 10.87 11.75
4/19/2022 5:00:00 PM 7.26 45.068 0.231 7.28 11.32 11.74
4/19/2022 5:15:00 PM 7.28 45.104 0.23 7.28 11.65 11.73
4/19/2022 5:30:00 PM 7.26 45.068 0.227 7.28 11.7 11.72
4/19/2022 5:45:00 PM 7.22 44.996 0.224 7.29 11.67 11.71
4/19/2022 6:00:00 PM 7.2 44.96 0.223 7.3 11.93 11.7
4/19/2022 6:15:00 PM 7.16 44.888 0.22 7.28 12.5 11.69
4/19/2022 6:30:00 PM 7.11 44.798 0.219 7.28 13.29 11.69
4/19/2022 6:45:00 PM 7.06 44.708 0.218 7.28 12.32 11.68
4/19/2022 7:00:00 PM 7.02 44.636 0.217 7.29 12.26 11.67
4/19/2022 7:15:00 PM 6.98 44.564 0.217 7.28 11.62 11.67
4/19/2022 7:30:00 PM 6.93 44.474 0.217 7.26 11.4 11.67
4/19/2022 7:45:00 PM 6.89 44.402 0.215 7.27 11.72 11.67
4/19/2022 8:00:00 PM 6.87 44.366 0.213 7.28 11.4 11.66
4/19/2022 8:15:00 PM 6.83 44.294 0.214 7.29 11.41 11.66
4/19/2022 8:30:00 PM 6.81 44.258 0.212 7.28 11.05 11.66
4/19/2022 8:45:00 PM 6.77 44.186 0.211 7.27 10.75 11.68
4/19/2022 9:00:00 PM 6.73 44.114 0.21 7.27 10.75 11.68
4/19/2022 9:15:00 PM 6.71 44.078 0.21 7.25 10.44 11.69
4/19/2022 9:30:00 PM 6.69 44.042 0.209 7.24 10.26 11.69
4/19/2022 9:45:00 PM 6.67 44.006 0.209 7.24 10.06 11.71
4/19/2022 10:00:00 PM 6.65 43.97 0.207 7.25 9.82 11.71
4/19/2022 10:15:00 PM 6.65 43.97 0.208 7.25 10.01 11.71
4/19/2022 10:30:00 PM 6.65 43.97 0.206 7.24 9.4 11.72
4/19/2022 10:45:00 PM 6.64 43.952 0.205 7.26 9.23 11.72
4/19/2022 11:00:00 PM 6.62 43.916 0.205 7.28 9.31 11.73
4/19/2022 11:15:00 PM 6.62 43.916 0.204 7.27 9.02 11.73
4/19/2022 11:30:00 PM 6.63 43.934 0.202 7.27 8.83 11.73
4/19/2022 11:45:00 PM 6.63 43.934 0.202 7.28 8.5 11.73
4/20/2022 12:00:00 AM 6.63 43.934 0.201 7.29 8.61 11.74
4/20/2022 12:15:00 AM 6.63 43.934 0.2 7.29 8.57 11.74
4/20/2022 12:30:00 AM 6.62 43.916 0.2 7.3 8.39 11.75
4/20/2022 12:45:00 AM 6.61 43.898 0.199 7.29 8.45 11.75
4/20/2022 1:00:00 AM 6.61 43.898 0.198 7.28 8.43 11.75
4/20/2022 1:15:00 AM 6.61 43.898 0.198 7.3 9.84 11.75
4/20/2022 1:30:00 AM 6.63 43.934 0.198 7.3 10.12 11.75
4/20/2022 1:45:00 AM 6.64 43.952 0.197 7.28 8.53 11.74
4/20/2022 2:00:00 AM 6.64 43.952 0.197 7.28 8.31 11.75
4/20/2022 2:15:00 AM 6.64 43.952 0.197 7.28 7.82 11.75
4/20/2022 2:30:00 AM 6.64 43.952 0.197 7.28 7.91 11.75
4/20/2022 2:45:00 AM 6.64 43.952 0.197 7.29 7.93 11.76
4/20/2022 3:00:00 AM 6.64 43.952 0.197 7.3 7.86 11.76
4/20/2022 3:15:00 AM 6.63 43.934 0.197 7.29 7.77 11.77
4/20/2022 3:30:00 AM 6.63 43.934 0.197 7.3 7.65 11.77
4/20/2022 3:45:00 AM 6.62 43.916 0.196 7.27 7.97 11.77
4/20/2022 4:00:00 AM 6.61 43.898 0.197 7.3 7.84 11.78
4/20/2022 4:15:00 AM 6.61 43.898 0.195 7.29 7.59 11.78
4/20/2022 4:30:00 AM 6.6 43.88 0.195 7.3 7.56 11.78
4/20/2022 4:45:00 AM 6.59 43.862 0.194 7.31 7.69 11.79
4/20/2022 5:00:00 AM 6.57 43.826 0.197 7.28 7.31 11.79
4/20/2022 5:15:00 AM 6.56 43.808 0.196 7.28 7.44 11.8
4/20/2022 5:30:00 AM 6.55 43.79 0.195 7.28 7.22 11.81
4/20/2022 5:45:00 AM 6.56 43.808 0.195 7.28 7.29 11.8
4/20/2022 6:00:00 AM 6.56 43.808 0.196 7.28 7.19 11.81
4/20/2022 6:15:00 AM 6.55 43.79 0.196 7.25 6.78 11.82
4/20/2022 6:30:00 AM 6.55 43.79 0.196 7.27 7.08 11.82
4/20/2022 6:45:00 AM 6.56 43.808 0.195 7.28 7.29 11.83
4/20/2022 7:00:00 AM 6.56 43.808 0.195 7.28 7.15 11.84
4/20/2022 7:15:00 AM 6.56 43.808 0.195 7.28 7.17 11.85
4/20/2022 7:30:00 AM 6.57 43.826 0.195 7.29 7.32 11.87
4/20/2022 7:45:00 AM 6.58 43.844 0.197 7.29 7.09 11.9
4/20/2022 8:00:00 AM 6.6 43.88 0.195 7.3 6.81 11.92
4/20/2022 8:15:00 AM 6.65 43.97 0.196 7.31 6.85 11.95
4/20/2022 8:30:00 AM 6.7 44.06 0.194 7.32 6.65 11.98
4/20/2022 8:45:00 AM 6.69 44.042 0.196 7.33 6.55 11.99
4/20/2022 9:00:00 AM 6.7 44.06 0.196 7.33 6.5 12
4/20/2022 9:15:00 AM 6.77 44.186 0.195 7.34 6.45 12.02
4/20/2022 9:30:00 AM 6.83 44.294 0.195 7.34 6.57 12.03
4/20/2022 9:45:00 AM 6.92 44.456 0.194 7.36 6.34 12.04
4/20/2022 10:00:00 AM 6.99 44.582 0.195 7.36 6.52 12.04
4/20/2022 10:15:00 AM 7.07 44.726 0.195 7.36 6.49 12.04
4/20/2022 10:30:00 AM 7.19 44.942 0.195 7.37 6.33 12.04
4/20/2022 10:45:00 AM 7.29 45.122 0.195 7.39 6.36 12.03
4/20/2022 11:00:00 AM 7.34 45.212 0.195 7.38 6.63 12.02
4/20/2022 11:15:00 AM 7.44 45.392 0.196 7.39 6.27 12.01
4/20/2022 11:30:00 AM 7.61 45.698 0.196 7.4 6.38 12
4/20/2022 11:45:00 AM 7.75 45.95 0.194 7.4 6.25 11.97
4/20/2022 12:00:00 PM 7.89 46.202 0.196 7.41 6.4 11.95
4/20/2022 12:15:00 PM 8.06 46.508 0.195 7.43 6.64 11.92
4/20/2022 12:30:00 PM 8.19 46.742 0.195 7.42 6.58 11.9
4/20/2022 12:45:00 PM 8.33 46.994 0.197 7.41 6.48 11.87
4/20/2022 1:00:00 PM 8.46 47.228 0.194 7.42 7.02 11.85
4/20/2022 1:15:00 PM 8.6 47.48 0.196 7.44 7.14 11.82
4/20/2022 1:30:00 PM 8.72 47.696 0.195 7.45 7.2 11.78
4/20/2022 1:45:00 PM 8.83 47.894 0.194 7.45 7.26 11.76
4/20/2022 2:00:00 PM 8.93 48.074 0.194 7.46 7.45 11.73
4/20/2022 2:15:00 PM 9.03 48.254 0.193 7.45 7.96 11.71
4/20/2022 2:30:00 PM 9.11 48.398 0.189 7.45 7.68 11.66
4/20/2022 2:45:00 PM 9.19 48.542 0.191 7.46 7.76 11.63
4/20/2022 3:00:00 PM 9.26 48.668 0.192 7.45 7.51 11.6
4/20/2022 3:15:00 PM 9.31 48.758 0.191 7.46 7.71 11.58
4/20/2022 3:30:00 PM 9.34 48.812 0.191 7.45 7.71 11.56
4/20/2022 3:45:00 PM 9.36 48.848 0.191 7.44 8.12 11.54
4/20/2022 4:00:00 PM 9.37 48.866 0.193 7.44 7.2 11.52
4/20/2022 4:15:00 PM 9.35 48.83 0.193 7.43 7.16 11.51
4/20/2022 4:30:00 PM 9.33 48.794 0.193 7.44 6.85 11.5
4/20/2022 4:45:00 PM 9.28 48.704 0.194 7.45 7.02 11.48
4/20/2022 5:00:00 PM 9.23 48.614 0.194 7.44 6.76 11.48
4/20/2022 5:15:00 PM 9.17 48.506 0.195 7.43 6.85 11.47
4/20/2022 5:30:00 PM 9.11 48.398 0.193 7.43 6.87 11.46
4/20/2022 5:45:00 PM 9.03 48.254 0.192 7.41 6.79 11.46
4/20/2022 6:00:00 PM 8.95 48.11 0.193 7.41 6.9 11.45
4/20/2022 6:15:00 PM 8.87 47.966 0.192 7.4 6.8 11.44
4/20/2022 6:30:00 PM 8.8 47.84 0.191 7.37 6.64 11.43
4/20/2022 6:45:00 PM 8.73 47.714 0.191 7.36 6.5 11.42
4/20/2022 7:00:00 PM 8.65 47.57 0.19 7.35 6.63 11.4
4/20/2022 7:15:00 PM 8.58 47.444 0.191 7.35 6.67 11.4
4/20/2022 7:30:00 PM 8.51 47.318 0.189 7.33 6.54 11.39
4/20/2022 7:45:00 PM 8.43 47.174 0.188 7.32 6.46 11.39
4/20/2022 8:00:00 PM 8.37 47.066 0.187 7.3 6.66 11.39
4/20/2022 8:15:00 PM 8.3 46.94 0.189 7.3 6.51 11.39
4/20/2022 8:30:00 PM 8.24 46.832 0.187 7.29 6.58 11.39
4/20/2022 8:45:00 PM 8.18 46.724 0.186 7.28 6.67 11.39
4/20/2022 9:00:00 PM 8.13 46.634 0.187 7.28 6.45 11.4
4/20/2022 9:15:00 PM 8.1 46.58 0.186 7.27 6.35 11.4
4/20/2022 9:30:00 PM 8.08 46.544 0.186 7.28 6.51 11.4
4/20/2022 9:45:00 PM 8.06 46.508 0.186 7.28 6.2 11.4
4/20/2022 10:00:00 PM 8.04 46.472 0.185 7.27 6.18 11.41
4/20/2022 10:15:00 PM 8.02 46.436 0.187 7.27 6.11 11.41
4/20/2022 10:30:00 PM 7.99 46.382 0.186 7.27 6.17 11.42
4/20/2022 10:45:00 PM 7.96 46.328 0.185 7.26 6.07 11.43
4/20/2022 11:00:00 PM 7.94 46.292 0.186 7.24 5.61 11.44
4/20/2022 11:15:00 PM 7.92 46.256 0.184 7.27 6.13 11.44
4/20/2022 11:30:00 PM 7.91 46.238 0.186 7.28 5.98 11.44
4/20/2022 11:45:00 PM 7.9 46.22 0.186 7.28 5.96 11.44
4/21/2022 12:00:00 AM 7.87 46.166 0.185 7.26 16.79 11.45
4/21/2022 12:15:00 AM 7.84 46.112 0.138 7.26 10.53 11.46
4/21/2022 12:30:00 AM 7.8 46.04 0.185 7.26 5.23 11.46
4/21/2022 12:45:00 AM 7.75 45.95 0.185 7.24 5.6 11.47
4/21/2022 1:00:00 AM 7.71 45.878 0.185 7.27 5.86 11.48
4/21/2022 1:15:00 AM 7.66 45.788 0.185 7.3 5.6 11.5
4/21/2022 1:30:00 AM 7.62 45.716 0.186 7.28 5.96 11.5
4/21/2022 1:45:00 AM 7.59 45.662 0.185 7.28 5.58 11.52
4/21/2022 2:00:00 AM 7.56 45.608 0.186 7.3 5.86 11.53
4/21/2022 2:15:00 AM 7.54 45.572 0.186 7.28 5.57 11.55
4/21/2022 2:30:00 AM 7.51 45.518 0.186 7.25 5.7 11.55
4/21/2022 2:45:00 AM 7.48 45.464 0.185 7.25 5.82 11.57
4/21/2022 3:00:00 AM 7.46 45.428 0.186 7.28 5.72 11.58
4/21/2022 3:15:00 AM 7.44 45.392 0.186 7.28 5.52 11.57
4/21/2022 3:30:00 AM 7.42 45.356 0.186 7.27 5.73 11.58
4/21/2022 3:45:00 AM 7.42 45.356 0.186 7.26 12.37 11.58
4/21/2022 4:00:00 AM 7.43 45.374 0.185 7.26 5.59 11.58
4/21/2022 4:15:00 AM 7.43 45.374 0.186 7.27 5.51 11.58
4/21/2022 4:30:00 AM 7.43 45.374 0.185 7.27 5.44 11.58
4/21/2022 4:45:00 AM 7.42 45.356 0.186 7.27 5.73 11.58
4/21/2022 5:00:00 AM 7.4 45.32 0.186 7.28 5.57 11.59
4/21/2022 5:15:00 AM 7.39 45.302 0.186 7.27 5.56 11.59
4/21/2022 5:30:00 AM 7.37 45.266 0.186 7.28 5.4 11.59
4/21/2022 5:45:00 AM 7.36 45.248 0.186 7.27 5.62 11.6
4/21/2022 6:00:00 AM 7.35 45.23 0.188 7.28 5.5 11.6
4/21/2022 6:15:00 AM 7.33 45.194 0.188 7.27 5.48 11.61
4/21/2022 6:30:00 AM 7.3 45.14 0.187 7.28 5.61 11.62
4/21/2022 6:45:00 AM 7.28 45.104 0.188 7.28 5.47 11.63
4/21/2022 7:00:00 AM 7.27 45.086 0.187 7.27 5.39 11.65
4/21/2022 7:15:00 AM 7.27 45.086 0.189 7.28 5.43 11.68
4/21/2022 7:30:00 AM 7.28 45.104 0.186 7.3 5.4 11.71
4/21/2022 7:45:00 AM 7.29 45.122 0.187 7.31 5.5 11.74
4/21/2022 8:00:00 AM 7.31 45.158 0.189 7.32 5.48 11.77
4/21/2022 8:15:00 AM 7.35 45.23 0.188 7.33 5.23 11.81
4/21/2022 8:30:00 AM 7.39 45.302 0.187 7.34 5.28 11.83
4/21/2022 8:45:00 AM 7.44 45.392 0.187 7.35 5.19 11.86
4/21/2022 9:00:00 AM 7.5 45.5 0.188 7.36 5.2 11.88
4/21/2022 9:15:00 AM 7.57 45.626 0.188 7.38 5.23 11.9
4/21/2022 9:30:00 AM 7.63 45.734 0.189 7.39 5.15 11.9
4/21/2022 9:45:00 AM 7.68 45.824 0.187 7.4 5.22 11.9
4/21/2022 10:00:00 AM 7.71 45.878 0.187 7.4 5.11 11.88
4/21/2022 10:15:00 AM 7.75 45.95 0.187 7.41 5.32 11.88
4/21/2022 10:30:00 AM 7.79 46.022 0.188 7.41 4.99 11.87
4/21/2022 10:45:00 AM 7.82 46.076 0.188 7.42 5.02 11.87
4/21/2022 11:00:00 AM 7.88 46.184 0.189 7.43 5.17 11.88
4/21/2022 11:15:00 AM 7.95 46.31 0.189 7.44 5.1 11.89
4/21/2022 11:30:00 AM 8.02 46.436 0.188 7.43 5.13 11.89
4/21/2022 11:45:00 AM 8.08 46.544 0.188 7.44 5.14 11.88
4/21/2022 12:00:00 PM 8.14 46.652 0.189 7.46 5.12 11.88
4/21/2022 12:15:00 PM 8.18 46.724 0.189 7.47 5.28 11.86
4/21/2022 12:30:00 PM 8.22 46.796 0.19 7.46 5.39 11.83
4/21/2022 12:45:00 PM 8.24 46.832 0.189 7.45 5.19 11.79
4/21/2022 1:00:00 PM 8.28 46.904 0.189 7.44 5.13 11.76
4/21/2022 1:15:00 PM 8.32 46.976 0.188 7.45 5.13 11.75
4/21/2022 1:30:00 PM 8.41 47.138 0.188 7.46 5.14 11.76
4/21/2022 1:45:00 PM 8.48 47.264 0.189 7.46 5.28 11.77
4/21/2022 2:00:00 PM 8.52 47.336 0.189 7.46 5.22 11.75
4/21/2022 2:15:00 PM 8.52 47.336 0.19 7.46 5.36 11.73
4/21/2022 2:30:00 PM 8.5 47.3 0.189 7.46 5.42 11.69
4/21/2022 2:45:00 PM 8.47 47.246 0.189 7.45 5.52 11.67
4/21/2022 3:00:00 PM 8.45 47.21 0.189 7.43 5.17 11.64
4/21/2022 3:15:00 PM 8.43 47.174 0.189 7.44 5.26 11.61
4/21/2022 3:30:00 PM 8.41 47.138 0.189 7.43 5.03 11.6
4/21/2022 3:45:00 PM 8.38 47.084 0.19 7.42 5.14 11.58
4/21/2022 4:00:00 PM 8.37 47.066 0.191 7.41 5.32 11.57
4/21/2022 4:15:00 PM 8.35 47.03 0.191 7.41 5.18 11.56
4/21/2022 4:30:00 PM 8.33 46.994 0.19 7.4 5.41 11.55
4/21/2022 4:45:00 PM 8.32 46.976 0.192 7.4 5.39 11.54
4/21/2022 5:00:00 PM 8.3 46.94 0.191 7.38 5.38 11.53
4/21/2022 5:15:00 PM 8.27 46.886 0.191 7.39 5.37 11.52
4/21/2022 5:30:00 PM 8.24 46.832 0.191 7.37 5.44 11.5
4/21/2022 5:45:00 PM 8.24 46.832 0.191 7.36 5.43 11.48
4/21/2022 6:00:00 PM 8.26 46.868 0.191 7.36 5.4 11.45
4/21/2022 6:15:00 PM 8.28 46.904 0.193 7.35 5.07 11.42
4/21/2022 6:30:00 PM 8.29 46.922 0.19 7.34 5.07 11.4
4/21/2022 6:45:00 PM 8.28 46.904 0.191 7.34 5.32 11.38
4/21/2022 7:00:00 PM 8.26 46.868 0.192 7.33 5.12 11.38
4/21/2022 7:15:00 PM 8.24 46.832 0.192 7.33 5.28 11.38
4/21/2022 7:30:00 PM 8.23 46.814 0.192 7.33 5.19 11.37
4/21/2022 7:45:00 PM 8.21 46.778 0.192 7.32 5.65 11.36
4/21/2022 8:00:00 PM 8.19 46.742 0.192 7.32 5.29 11.36
4/21/2022 8:15:00 PM 8.16 46.688 0.192 7.31 5.59 11.36
4/21/2022 8:30:00 PM 8.12 46.616 0.192 7.31 5.7 11.36
4/21/2022 8:45:00 PM 8.1 46.58 0.191 7.31 5.57 11.36
4/21/2022 9:00:00 PM 8.09 46.562 0.192 7.3 5.61 11.36
4/21/2022 9:15:00 PM 8.08 46.544 0.193 7.3 5.6 11.36
4/21/2022 9:30:00 PM 8.06 46.508 0.192 7.3 5.61 11.36
4/21/2022 9:45:00 PM 8.02 46.436 0.192 7.3 5.36 11.37
4/21/2022 10:00:00 PM 7.98 46.364 0.193 7.29 5.46 11.38
4/21/2022 10:15:00 PM 7.94 46.292 0.194 7.29 5.58 11.39
4/21/2022 10:30:00 PM 7.9 46.22 0.192 7.29 5.75 11.4
4/21/2022 10:45:00 PM 7.86 46.148 0.194 7.29 5.72 11.41
4/21/2022 11:00:00 PM 7.82 46.076 0.193 7.29 5.7 11.42
4/21/2022 11:15:00 PM 7.77 45.986 0.194 7.28 5.68 11.43
4/21/2022 11:30:00 PM 7.73 45.914 0.194 7.29 5.63 11.44
4/21/2022 11:45:00 PM 7.68 45.824 0.194 7.27 5.87 11.46
4/22/2022 12:00:00 AM 7.64 45.752 0.194 7.27 5.69 11.46
4/22/2022 12:15:00 AM 7.6 45.68 0.194 7.27 5.66 11.46
4/22/2022 12:30:00 AM 7.58 45.644 0.193 7.27 5.57 11.47
4/22/2022 12:45:00 AM 7.55 45.59 0.193 7.27 5.51 11.48
4/22/2022 1:00:00 AM 7.53 45.554 0.194 7.27 5.49 11.48
4/22/2022 1:15:00 AM 7.51 45.518 0.194 7.27 5.34 11.49
4/22/2022 1:30:00 AM 7.49 45.482 0.193 7.26 5.53 11.49
4/22/2022 1:45:00 AM 7.47 45.446 0.193 7.26 5.4 11.5
4/22/2022 2:00:00 AM 7.45 45.41 0.193 7.27 5.22 11.49
4/22/2022 2:15:00 AM 7.44 45.392 0.194 7.26 5.12 11.5
4/22/2022 2:30:00 AM 7.43 45.374 0.193 7.26 5.34 11.51
4/22/2022 2:45:00 AM 7.41 45.338 0.193 7.28 5.35 11.51
4/22/2022 3:00:00 AM 7.39 45.302 0.193 7.27 5.08 11.51
4/22/2022 3:15:00 AM 7.37 45.266 0.193 7.26 5.23 11.51
4/22/2022 3:30:00 AM 7.36 45.248 0.193 7.26 5.03 11.52
4/22/2022 3:45:00 AM 7.33 45.194 0.194 7.26 4.83 11.53
4/22/2022 4:00:00 AM 7.31 45.158 0.194 7.26 5.2 11.53
4/22/2022 4:15:00 AM 7.28 45.104 0.195 7.26 5.19 11.54
4/22/2022 4:30:00 AM 7.25 45.05 0.194 7.26 4.91 11.55
4/22/2022 4:45:00 AM 7.24 45.032 0.195 7.26 4.98 11.55
4/22/2022 5:00:00 AM 7.22 44.996 0.195 7.26 5.01 11.56
4/22/2022 5:15:00 AM 7.2 44.96 0.194 7.25 5.3 11.57
4/22/2022 5:30:00 AM 7.2 44.96 0.195 7.25 5.11 11.58
4/22/2022 5:45:00 AM 7.19 44.942 0.194 7.26 5 11.58
4/22/2022 6:00:00 AM 7.18 44.924 0.193 7.27 5.19 11.58
4/22/2022 6:15:00 AM 7.18 44.924 0.194 7.27 4.97 11.59
4/22/2022 6:30:00 AM 7.18 44.924 0.193 7.26 4.92 11.6
4/22/2022 6:45:00 AM 7.19 44.942 0.194 7.27 5.06 11.61
4/22/2022 7:00:00 AM 7.21 44.978 0.195 7.28 5.07 11.63
4/22/2022 7:15:00 AM 7.23 45.014 0.194 7.28 4.95 11.66
4/22/2022 7:30:00 AM 7.25 45.05 0.194 7.29 4.8 11.7
4/22/2022 7:45:00 AM 7.28 45.104 0.194 7.3 4.91 11.74
4/22/2022 8:00:00 AM 7.31 45.158 0.194 7.33 4.74 11.79
4/22/2022 8:15:00 AM 7.36 45.248 0.194 7.34 4.61 11.82
4/22/2022 8:30:00 AM 7.41 45.338 0.194 7.35 4.73 11.86
4/22/2022 8:45:00 AM 7.48 45.464 0.193 7.36 4.39 11.89
4/22/2022 9:00:00 AM 7.56 45.608 0.194 7.37 4.56 11.92
4/22/2022 9:15:00 AM 7.65 45.77 0.194 7.39 4.48 11.93
4/22/2022 9:30:00 AM 7.75 45.95 0.193 7.41 4.32 11.95
4/22/2022 9:45:00 AM 7.86 46.148 0.194 7.42 4.31 11.97
4/22/2022 10:00:00 AM 7.98 46.364 0.195 7.44 4.53 11.98
4/22/2022 10:15:00 AM 8.11 46.598 0.193 7.44 4.34 11.97
4/22/2022 10:30:00 AM 8.25 46.85 0.192 7.45 3.69 11.96
4/22/2022 10:45:00 AM 8.41 47.138 0.193 7.47 4.61 11.95
4/22/2022 11:00:00 AM 8.56 47.408 0.191 7.48 4.46 11.93
4/22/2022 11:15:00 AM 8.73 47.714 0.193 7.5 4.52 11.91
4/22/2022 11:30:00 AM 8.91 48.038 0.194 7.5 4.53 11.89
4/22/2022 11:45:00 AM 9.09 48.362 0.192 7.51 4.54 11.85
4/22/2022 12:00:00 PM 9.27 48.686 0.192 7.52 4.34 11.83
4/22/2022 12:15:00 PM 9.45 49.01 0.193 7.52 4.34 11.8
4/22/2022 12:30:00 PM 9.63 49.334 0.193 7.53 4.34 11.76
4/22/2022 12:45:00 PM 9.81 49.658 0.191 7.54 4.55 11.73
4/22/2022 1:00:00 PM 9.97 49.946 0.192 7.55 4.7 11.7
4/22/2022 1:15:00 PM 10.13 50.234 0.193 7.55 4.39 11.66
4/22/2022 1:30:00 PM 10.27 50.486 0.193 7.55 5.61 11.63
4/22/2022 1:45:00 PM 10.39 50.702 0.193 7.55 5.45 11.61
4/22/2022 2:00:00 PM 10.5 50.9 0.192 7.56 4.55 11.58
4/22/2022 2:15:00 PM 10.58 51.044 0.192 7.56 4.64 11.55
4/22/2022 2:30:00 PM 10.64 51.152 0.193 7.57 4.5 11.52
4/22/2022 2:45:00 PM 10.69 51.242 0.195 7.56 4.64 11.51
4/22/2022 3:00:00 PM 10.71 51.278 0.193 7.56 4.61 11.49
4/22/2022 3:15:00 PM 10.71 51.278 0.194 7.56 4.52 11.47
4/22/2022 3:30:00 PM 10.7 51.26 0.194 7.56 4.76 11.45
4/22/2022 3:45:00 PM 10.66 51.188 0.194 7.56 4.8 11.44
4/22/2022 4:00:00 PM 10.62 51.116 0.194 7.56 4.58 11.43
4/22/2022 4:15:00 PM 10.55 50.99 0.194 7.55 4.78 11.42
4/22/2022 4:30:00 PM 10.48 50.864 0.193 7.54 4.83 11.41
4/22/2022 4:45:00 PM 10.38 50.684 0.195 7.54 4.91 11.41
4/22/2022 5:00:00 PM 10.29 50.522 0.195 7.53 4.73 11.41
4/22/2022 5:15:00 PM 10.19 50.342 0.195 7.53 4.79 11.41
4/22/2022 5:30:00 PM 10.07 50.126 0.195 7.51 4.73 11.41
4/22/2022 5:45:00 PM 9.95 49.91 0.196 7.51 4.82 11.4
4/22/2022 6:00:00 PM 9.84 49.712 0.195 7.5 4.72 11.4
4/22/2022 6:15:00 PM 9.71 49.478 0.195 7.5 4.89 11.4
4/22/2022 6:30:00 PM 9.58 49.244 0.195 7.47 5.05 11.38
4/22/2022 6:45:00 PM 9.47 49.046 0.195 7.45 4.83 11.36
4/22/2022 7:00:00 PM 9.37 48.866 0.196 7.44 4.99 11.34
4/22/2022 7:15:00 PM 9.29 48.722 0.196 7.43 4.69 11.32
4/22/2022 7:30:00 PM 9.22 48.596 0.196 7.41 4.86 11.28
4/22/2022 7:45:00 PM 9.14 48.452 0.195 7.39 4.79 11.25
4/22/2022 8:00:00 PM 9.07 48.326 0.194 7.37 4.74 11.22
4/22/2022 8:15:00 PM 9.01 48.218 0.197 7.35 4.94 11.18
4/22/2022 8:30:00 PM 8.97 48.146 0.195 7.35 4.85 11.15
4/22/2022 8:45:00 PM 8.96 48.128 0.195 7.33 4.61 11.13
4/22/2022 9:00:00 PM 8.94 48.092 0.195 7.32 4.92 11.11
4/22/2022 9:15:00 PM 8.92 48.056 0.196 7.32 4.67 11.09
4/22/2022 9:30:00 PM 8.89 48.002 0.196 7.3 4.73 11.09
4/22/2022 9:45:00 PM 8.86 47.948 0.197 7.29 4.67 11.09
4/22/2022 10:00:00 PM 8.82 47.876 0.195 7.29 4.86 11.09
4/22/2022 10:15:00 PM 8.77 47.786 0.196 7.29 4.9 11.1
4/22/2022 10:30:00 PM 8.73 47.714 0.196 7.29 4.42 11.1
4/22/2022 10:45:00 PM 8.71 47.678 0.196 7.29 4.53 11.11
4/22/2022 11:00:00 PM 8.69 47.642 0.196 7.29 4.29 11.11
4/22/2022 11:15:00 PM 8.69 47.642 0.197 7.28 6.23 11.1
4/22/2022 11:30:00 PM 8.7 47.66 0.196 7.28 4.39 11.1
4/22/2022 11:45:00 PM 8.71 47.678 0.196 7.29 4.52 11.1
4/23/2022 12:00:00 AM 8.71 47.678 0.195 7.28 4.51 11.09
4/23/2022 12:15:00 AM 8.71 47.678 0.195 7.28 4.27 11.09
4/23/2022 12:30:00 AM 8.71 47.678 0.196 7.28 4.4 11.09
4/23/2022 12:45:00 AM 8.69 47.642 0.196 7.29 4.34 11.09
4/23/2022 1:00:00 AM 8.68 47.624 0.196 7.28 6.16 11.09
4/23/2022 1:15:00 AM 8.66 47.588 0.196 7.27 6.27 11.09
4/23/2022 1:30:00 AM 8.64 47.552 0.196 7.27 4.25 11.1
4/23/2022 1:45:00 AM 8.62 47.516 0.196 7.28 4.25 11.11
4/23/2022 2:00:00 AM 8.59 47.462 0.197 7.28 4.01 11.11
4/23/2022 2:15:00 AM 8.58 47.444 0.195 7.28 4.16 11.12
4/23/2022 2:30:00 AM 8.56 47.408 0.197 7.28 4.17 11.12
4/23/2022 2:45:00 AM 8.55 47.39 0.196 7.28 4.15 11.13
4/23/2022 3:00:00 AM 8.53 47.354 0.197 7.28 4.07 11.14
4/23/2022 3:15:00 AM 8.52 47.336 0.197 7.28 4.12 11.14
4/23/2022 3:30:00 AM 8.51 47.318 0.195 7.28 4.18 11.14
4/23/2022 3:45:00 AM 8.49 47.282 0.195 7.28 5.97 11.14
4/23/2022 4:00:00 AM 8.48 47.264 0.196 7.28 4.08 11.15
4/23/2022 4:15:00 AM 8.47 47.246 0.194 7.27 4.03 11.16
4/23/2022 4:30:00 AM 8.45 47.21 0.196 7.28 3.85 11.16
4/23/2022 4:45:00 AM 8.44 47.192 0.195 7.28 4.18 11.17
4/23/2022 5:00:00 AM 8.42 47.156 0.196 7.27 6.94 11.18
4/23/2022 5:15:00 AM 8.4 47.12 0.196 7.27 7.84 11.18
4/23/2022 5:30:00 AM 8.38 47.084 0.196 7.27 3.64 11.18
4/23/2022 5:45:00 AM 8.36 47.048 0.197 7.26 4.04 11.19
4/23/2022 6:00:00 AM 8.35 47.03 0.197 7.26 3.8 11.19
4/23/2022 6:15:00 AM 8.34 47.012 0.198 7.27 3.92 11.2
4/23/2022 6:30:00 AM 8.33 46.994 0.196 7.27 4.16 11.21
4/23/2022 6:45:00 AM 8.33 46.994 0.196 7.28 4.03 11.22
4/23/2022 7:00:00 AM 8.32 46.976 0.198 7.27 4.17 11.23
4/23/2022 7:15:00 AM 8.31 46.958 0.196 7.27 4.97 11.25
4/23/2022 7:30:00 AM 8.3 46.94 0.198 7.27 3.99 11.27
4/23/2022 7:45:00 AM 8.3 46.94 0.197 7.29 3.8 11.3
4/23/2022 8:00:00 AM 8.29 46.922 0.198 7.31 3.96 11.32
4/23/2022 8:15:00 AM 8.3 46.94 0.198 7.31 6.42 11.38
4/23/2022 8:30:00 AM 8.32 46.976 0.196 7.32 4.03 11.44
4/23/2022 8:45:00 AM 8.36 47.048 0.196 7.34 3.78 11.54
4/23/2022 9:00:00 AM 8.41 47.138 0.196 7.36 6.07 11.61
4/23/2022 9:15:00 AM 8.45 47.21 0.197 7.38 3.58 11.67
4/23/2022 9:30:00 AM 8.51 47.318 0.197 7.42 3.82 11.72
4/23/2022 9:45:00 AM 8.56 47.408 0.198 7.44 3.74 11.75
4/23/2022 10:00:00 AM 8.64 47.552 0.198 7.46 3.78 11.8
4/23/2022 10:15:00 AM 8.76 47.768 0.197 7.49 3.75 11.84
4/23/2022 10:30:00 AM 8.85 47.93 0.196 7.5 3.75 11.86
4/23/2022 10:45:00 AM 8.96 48.128 0.196 7.53 3.73 11.88
4/23/2022 11:00:00 AM 9.11 48.398 0.195 7.55 3.63 11.89
4/23/2022 11:15:00 AM 9.25 48.65 0.197 7.57 3.62 11.9
4/23/2022 11:30:00 AM 9.4 48.92 0.197 7.59 6.5 11.89
4/23/2022 11:45:00 AM 9.54 49.172 0.197 7.61 5.5 11.88
4/23/2022 12:00:00 PM 9.63 49.334 0.197 7.62 3.32 11.85
4/23/2022 12:15:00 PM 9.75 49.55 0.196 7.64 3.61 11.84
4/23/2022 12:30:00 PM 9.89 49.802 0.196 7.66 3.64 11.82
4/23/2022 12:45:00 PM 10 50 0.197 7.68 3.6 11.8
4/23/2022 1:00:00 PM 10.13 50.234 0.197 7.69 3.69 11.78
4/23/2022 1:15:00 PM 10.32 50.576 0.196 7.7 3.6 11.75
4/23/2022 1:30:00 PM 10.53 50.954 0.196 7.71 23.38 11.71
4/23/2022 1:45:00 PM 10.73 51.314 0.196 7.72 14.56 11.66
4/23/2022 2:00:00 PM 10.95 51.71 0.196 7.74 3.53 11.62
4/23/2022 2:15:00 PM 11.05 51.89 0.197 7.74 3.64 11.57
4/23/2022 2:30:00 PM 11.16 52.088 0.195 7.76 3.63 11.55
4/23/2022 2:45:00 PM 11.28 52.304 0.199 7.77 4 11.52
4/23/2022 3:00:00 PM 11.32 52.376 0.196 7.78 6.43 11.48
4/23/2022 3:15:00 PM 11.38 52.484 0.195 7.79 3.84 11.43
4/23/2022 3:30:00 PM 11.4 52.52 0.195 7.79 4.1 11.39
4/23/2022 3:45:00 PM 11.39 52.502 0.197 7.78 6.51 11.34
4/23/2022 4:00:00 PM 11.35 52.43 0.196 7.77 4.8 11.28
4/23/2022 4:15:00 PM 11.3 52.34 0.195 7.74 6.75 11.19
4/23/2022 4:30:00 PM 11.24 52.232 0.195 7.69 5.71 11.11
4/23/2022 4:45:00 PM 11.15 52.07 0.195 7.65 3.71 11.05
4/23/2022 5:00:00 PM 11.08 51.944 0.195 7.62 3.68 11.02
4/23/2022 5:15:00 PM 11.01 51.818 0.196 7.61 3.73 11.02
4/23/2022 5:30:00 PM 10.94 51.692 0.196 7.6 3.62 11.04
4/23/2022 5:45:00 PM 10.88 51.584 0.196 7.59 6.43 11.06
4/23/2022 6:00:00 PM 10.81 51.458 0.197 7.59 3.64 11.09
4/23/2022 6:15:00 PM 10.72 51.296 0.196 7.58 3.53 11.1
4/23/2022 6:30:00 PM 10.62 51.116 0.203 7.55 4.82 11.09
4/23/2022 6:45:00 PM 10.54 50.972 0.194 7.52 4.09 11.04
4/23/2022 7:00:00 PM 10.47 50.846 0.195 7.5 3.72 10.98
4/23/2022 7:15:00 PM 10.4 50.72 0.196 7.46 5.06 10.94
4/23/2022 7:30:00 PM 10.33 50.594 0.197 7.44 3.59 10.9
4/23/2022 7:45:00 PM 10.27 50.486 0.196 7.43 3.64 10.86
4/23/2022 8:00:00 PM 10.21 50.378 0.196 7.4 3.62 10.83
4/23/2022 8:15:00 PM 10.14 50.252 0.197 7.38 3.71 10.79
4/23/2022 8:30:00 PM 10.07 50.126 0.197 7.37 3.83 10.76
4/23/2022 8:45:00 PM 10 50 0.195 7.34 3.73 10.75
4/23/2022 9:00:00 PM 9.94 49.892 0.196 7.34 3.85 10.75
4/23/2022 9:15:00 PM 9.88 49.784 0.196 7.32 3.79 10.75
4/23/2022 9:30:00 PM 9.81 49.658 0.196 7.3 5.09 10.75
4/23/2022 9:45:00 PM 9.75 49.55 0.197 7.3 5.58 10.76
4/23/2022 10:00:00 PM 9.69 49.442 0.197 7.29 3.78 10.76
4/23/2022 10:15:00 PM 9.63 49.334 0.196 7.28 3.86 10.77
4/23/2022 10:30:00 PM 9.57 49.226 0.198 7.28 3.81 10.77
4/23/2022 10:45:00 PM 9.51 49.118 0.196 7.28 3.91 10.78
4/23/2022 11:00:00 PM 9.45 49.01 0.196 7.27 4.24 10.8
4/23/2022 11:15:00 PM 9.39 48.902 0.197 7.27 4.57 10.82
4/23/2022 11:30:00 PM 9.34 48.812 0.197 7.27 5.54 10.83
4/23/2022 11:45:00 PM 9.28 48.704 0.197 7.26 5.67 10.85
4/24/2022 12:00:00 AM 9.23 48.614 0.196 7.27 3.72 10.86
4/24/2022 12:15:00 AM 9.17 48.506 0.196 7.26 3.83 10.87
4/24/2022 12:30:00 AM 9.12 48.416 0.197 7.27 3.76 10.88
4/24/2022 12:45:00 AM 9.07 48.326 0.197 7.27 3.76 10.89
4/24/2022 1:00:00 AM 9.02 48.236 0.196 7.26 6.07 10.9
4/24/2022 1:15:00 AM 8.97 48.146 0.198 7.26 3.69 10.92
4/24/2022 1:30:00 AM 8.92 48.056 0.197 7.26 3.74 10.93
4/24/2022 1:45:00 AM 8.88 47.984 0.196 7.26 3.73 10.94
4/24/2022 2:00:00 AM 8.84 47.912 0.196 7.26 3.71 10.95
4/24/2022 2:15:00 AM 8.8 47.84 0.195 7.26 3.58 10.96
4/24/2022 2:30:00 AM 8.77 47.786 0.196 7.26 3.74 10.96
4/24/2022 2:45:00 AM 8.76 47.768 0.196 7.26 3.73 10.96
4/24/2022 3:00:00 AM 8.75 47.75 0.196 7.25 3.65 10.96
4/24/2022 3:15:00 AM 8.75 47.75 0.196 7.26 3.69 10.96
4/24/2022 3:30:00 AM 8.75 47.75 0.197 7.26 3.44 10.95
4/24/2022 3:45:00 AM 8.76 47.768 0.197 7.26 3.53 10.95
4/24/2022 4:00:00 AM 8.77 47.786 0.197 7.26 3.57 10.94
4/24/2022 4:15:00 AM 8.77 47.786 0.196 7.26 3.53 10.94
4/24/2022 4:30:00 AM 8.78 47.804 0.197 7.27 3.57 10.94
4/24/2022 4:45:00 AM 8.79 47.822 0.197 7.25 3.41 10.93
4/24/2022 5:00:00 AM 8.79 47.822 0.197 7.25 3.57 10.92
4/24/2022 5:15:00 AM 8.8 47.84 0.196 7.26 3.58 10.92
4/24/2022 5:30:00 AM 8.79 47.822 0.198 7.25 3.5 10.92
4/24/2022 5:45:00 AM 8.79 47.822 0.198 7.26 3.55 10.92
4/24/2022 6:00:00 AM 8.79 47.822 0.198 7.26 3.5 10.93
4/24/2022 6:15:00 AM 8.79 47.822 0.198 7.26 3.51 10.93
4/24/2022 6:30:00 AM 8.79 47.822 0.198 7.26 3.5 10.94
4/24/2022 6:45:00 AM 8.8 47.84 0.198 7.26 3.35 10.97
4/24/2022 7:00:00 AM 8.81 47.858 0.197 7.28 3.42 11
4/24/2022 7:15:00 AM 8.84 47.912 0.198 7.29 3.44 11.06
4/24/2022 7:30:00 AM 8.88 47.984 0.198 7.31 3.36 11.14
4/24/2022 7:45:00 AM 8.93 48.074 0.198 7.33 3.17 11.22
4/24/2022 8:00:00 AM 9 48.2 0.198 7.35 3.34 11.28
4/24/2022 8:15:00 AM 9.08 48.344 0.198 7.38 3.34 11.35
4/24/2022 8:30:00 AM 9.17 48.506 0.197 7.41 3.2 11.41
4/24/2022 8:45:00 AM 9.24 48.632 0.197 7.43 3.16 11.46
4/24/2022 9:00:00 AM 9.37 48.866 0.198 7.46 3.2 11.52
4/24/2022 9:15:00 AM 9.48 49.064 0.197 7.49 3.04 11.56
4/24/2022 9:30:00 AM 9.52 49.136 0.197 7.51 3.16 11.58
4/24/2022 9:45:00 AM 9.58 49.244 0.198 7.53 3.02 11.59
4/24/2022 10:00:00 AM 9.74 49.532 0.197 7.55 9.66 11.62
4/24/2022 10:15:00 AM 9.87 49.766 0.195 7.57 3.15 11.66
4/24/2022 10:30:00 AM 10.03 50.054 0.196 7.62 3 11.68
4/24/2022 10:45:00 AM 10.21 50.378 0.197 7.64 2.98 11.7
4/24/2022 11:00:00 AM 10.4 50.72 0.197 7.67 6.65 11.68
4/24/2022 11:15:00 AM 10.6 51.08 0.197 7.69 6.38 11.67
4/24/2022 11:30:00 AM 10.81 51.458 0.196 7.71 5.04 11.64
4/24/2022 11:45:00 AM 11.03 51.854 0.196 7.73 3.08 11.61
4/24/2022 12:00:00 PM 11.28 52.304 0.197 7.76 3.08 11.57
4/24/2022 12:15:00 PM 11.55 52.79 0.197 7.79 2.96 11.53
4/24/2022 12:30:00 PM 11.82 53.276 0.197 7.81 5.36 11.49
4/24/2022 12:45:00 PM 12.09 53.762 0.195 7.84 3.01 11.44
4/24/2022 1:00:00 PM 12.36 54.248 0.198 7.86 3.06 11.38
4/24/2022 1:15:00 PM 12.64 54.752 0.197 7.9 3.08 11.33
4/24/2022 1:30:00 PM 12.89 55.202 0.198 7.93 2.98 11.27
4/24/2022 1:45:00 PM 13.14 55.652 0.197 7.97 2.85 11.21
4/24/2022 2:00:00 PM 13.37 56.066 0.197 8 2.55 11.15
4/24/2022 2:15:00 PM 13.58 56.444 0.196 8.02 3.93 11.1
4/24/2022 2:30:00 PM 13.77 56.786 0.197 8.05 2.92 11.04
4/24/2022 2:45:00 PM 13.94 57.092 0.195 8.07 2.79 10.99
4/24/2022 3:00:00 PM 14.09 57.362 0.195 8.1 2.94 10.93
4/24/2022 3:15:00 PM 14.21 57.578 0.197 8.11 2.94 10.89
4/24/2022 3:30:00 PM 14.3 57.74 0.199 8.12 4.41 10.83
4/24/2022 3:45:00 PM 14.37 57.866 0.195 8.13 2.98 10.79
4/24/2022 4:00:00 PM 14.39 57.902 0.196 8.13 2.97 10.75
4/24/2022 4:15:00 PM 14.41 57.938 0.196 8.13 2.89 10.7
4/24/2022 4:30:00 PM 14.41 57.938 0.197 8.13 3.07 10.67
4/24/2022 4:45:00 PM 14.39 57.902 0.197 8.11 4.93 10.63
4/24/2022 5:00:00 PM 14.37 57.866 0.198 8.09 22.14 10.59
4/24/2022 5:15:00 PM 14.31 57.758 0.196 8.07 2.9 10.56
4/24/2022 5:30:00 PM 14.24 57.632 0.195 8.04 9.65 10.52
4/24/2022 5:45:00 PM 14.15 57.47 0.198 8 4.95 10.48
4/24/2022 6:00:00 PM 14.06 57.308 0.197 7.95 9.07 10.43
4/24/2022 6:15:00 PM 13.98 57.164 0.199 7.91 5.94 10.38
4/24/2022 6:30:00 PM 13.86 56.948 0.197 7.83 3.11 10.33
4/24/2022 6:45:00 PM 13.71 56.678 0.198 7.77 4.83 10.27
4/24/2022 7:00:00 PM 13.55 56.39 0.198 7.7 28.42 10.22
4/24/2022 7:15:00 PM 13.38 56.084 0.197 7.64 5.48 10.18
4/24/2022 7:30:00 PM 13.21 55.778 0.198 7.59 4.22 10.13
4/24/2022 7:45:00 PM 13.06 55.508 0.199 7.53 3.64 10.08
4/24/2022 8:00:00 PM 12.93 55.274 0.199 7.49 3.06 10.04
4/24/2022 8:15:00 PM 12.79 55.022 0.197 7.45 3.19 10.02
4/24/2022 8:30:00 PM 12.64 54.752 0.199 7.43 3.32 10
4/24/2022 8:45:00 PM 12.48 54.464 0.199 7.4 5.6 10
4/24/2022 9:00:00 PM 12.31 54.158 0.199 7.38 29.94 10.02
4/24/2022 9:15:00 PM 12.15 53.87 0.199 7.37 25.93 10.04
4/24/2022 9:30:00 PM 11.98 53.564 0.2 7.35 7.49 10.07
4/24/2022 9:45:00 PM 11.8 53.24 0.199 7.34 7.62 10.11
4/24/2022 10:00:00 PM 11.62 52.916 0.2 7.34 8.25 10.15
4/24/2022 10:15:00 PM 11.46 52.628 0.199 7.33 5.29 10.19
4/24/2022 10:30:00 PM 11.32 52.376 0.199 7.32 3.19 10.22
4/24/2022 10:45:00 PM 11.22 52.196 0.2 7.32 3.25 10.24
4/24/2022 11:00:00 PM 11.14 52.052 0.2 7.31 3.16 10.26
4/24/2022 11:15:00 PM 11.07 51.926 0.201 7.3 3.4 10.27
4/24/2022 11:30:00 PM 11 51.8 0.201 7.31 3.26 10.29
4/24/2022 11:45:00 PM 10.94 51.692 0.2 7.3 1.72 10.3
4/25/2022 12:00:00 AM 10.88 51.584 0.2 7.29 3.72 10.31
4/25/2022 12:15:00 AM 10.84 51.512 0.2 7.29 3.39 10.32
4/25/2022 12:30:00 AM 10.81 51.458 0.199 7.29 3.2 10.33
4/25/2022 12:45:00 AM 10.78 51.404 0.199 7.29 4.9 10.33
4/25/2022 1:00:00 AM 10.8 51.44 0.199 7.29 17.11 10.33
4/25/2022 1:15:00 AM 10.82 51.476 0.2 7.29 4.51 10.31
4/25/2022 1:30:00 AM 10.87 51.566 0.199 7.29 14.51 10.29
4/25/2022 1:45:00 AM 10.91 51.638 0.198 7.29 4.47 10.28
4/25/2022 2:00:00 AM 10.94 51.692 0.198 7.3 4.04 10.26
4/25/2022 2:15:00 AM 10.96 51.728 0.199 7.29 5.53 10.25
4/25/2022 2:30:00 AM 10.97 51.746 0.198 7.29 4.67 10.25
4/25/2022 2:45:00 AM 10.96 51.728 0.199 7.29 3.48 10.25
4/25/2022 3:00:00 AM 10.95 51.71 0.199 7.29 3.19 10.25
4/25/2022 3:15:00 AM 10.94 51.692 0.199 7.28 4.43 10.26
4/25/2022 3:30:00 AM 10.92 51.656 0.199 7.28 30.8 10.26
4/25/2022 3:45:00 AM 10.9 51.62 0.2 7.28 4.53 10.26
4/25/2022 4:00:00 AM 10.88 51.584 0.199 7.29 5.1 10.27
4/25/2022 4:15:00 AM 10.85 51.53 0.2 7.29 3.07 10.28
4/25/2022 4:30:00 AM 10.82 51.476 0.2 7.29 3.76 10.29
4/25/2022 4:45:00 AM 10.79 51.422 0.2 7.28 5.69 10.3
4/25/2022 5:00:00 AM 10.76 51.368 0.2 7.29 3.3 10.31
4/25/2022 5:15:00 AM 10.74 51.332 0.2 7.29 5.8 10.32
4/25/2022 5:30:00 AM 10.72 51.296 0.2 7.28 4.26 10.32
4/25/2022 5:45:00 AM 10.69 51.242 0.2 7.28 3.3 10.33
4/25/2022 6:00:00 AM 10.67 51.206 0.2 7.28 5.96 10.34
4/25/2022 6:15:00 AM 10.65 51.17 0.2 7.28 2.83 10.35
4/25/2022 6:30:00 AM 10.63 51.134 0.201 7.3 2.95 10.38
4/25/2022 6:45:00 AM 10.62 51.116 0.201 7.31 2.78 10.42
4/25/2022 7:00:00 AM 10.61 51.098 0.2 7.32 2.79 10.49
4/25/2022 7:15:00 AM 10.61 51.098 0.2 7.33 2.68 10.55
4/25/2022 7:30:00 AM 10.61 51.098 0.199 7.35 2.76 10.62
4/25/2022 7:45:00 AM 10.62 51.116 0.2 7.37 2.68 10.73
4/25/2022 8:00:00 AM 10.63 51.134 0.199 7.4 2.73 10.84
4/25/2022 8:15:00 AM 10.64 51.152 0.199 7.44 2.79 10.96
4/25/2022 8:30:00 AM 10.66 51.188 0.198 7.46 2.58 11.06
4/25/2022 8:45:00 AM 10.68 51.224 0.199 7.5 2.5 11.16
4/25/2022 9:00:00 AM 10.72 51.296 0.199 7.53 2.59 11.25
4/25/2022 9:15:00 AM 10.76 51.368 0.199 7.57 2.65 11.32
4/25/2022 9:30:00 AM 10.82 51.476 0.198 7.61 2.53 11.39
4/25/2022 9:45:00 AM 10.9 51.62 0.199 7.65 2.51 11.44
4/25/2022 10:00:00 AM 10.99 51.782 0.199 7.7 2.51 11.5
4/25/2022 10:15:00 AM 11.11 51.998 0.197 7.74 2.73 11.55
4/25/2022 10:30:00 AM 11.22 52.196 0.197 7.79 2.5 11.58
4/25/2022 10:45:00 AM 11.37 52.466 0.198 7.84 2.79 11.61
4/25/2022 11:00:00 AM 11.52 52.736 0.197 7.89 4.01 11.63
4/25/2022 11:15:00 AM 11.73 53.114 0.199 7.95 2.42 11.64
4/25/2022 11:30:00 AM 11.9 53.42 0.197 8.02 2.38 11.63
4/25/2022 11:45:00 AM 12.14 53.852 0.197 8.07 2.5 11.62
4/25/2022 12:00:00 PM 12.37 54.266 0.197 8.12 2.64 11.59
4/25/2022 12:15:00 PM 12.6 54.68 0.197 8.17 3.89 11.55
4/25/2022 12:30:00 PM 12.84 55.112 0.196 8.21 2.54 11.51
4/25/2022 12:45:00 PM 13.1 55.58 0.197 8.28 2.43 11.47
4/25/2022 1:00:00 PM 13.35 56.03 0.197 8.33 29.73 11.43
4/25/2022 1:15:00 PM 13.6 56.48 0.198 8.4 21.81 11.38
4/25/2022 1:30:00 PM 13.84 56.912 0.197 8.44 2.44 11.33
4/25/2022 1:45:00 PM 14.07 57.326 0.197 8.48 2.38 11.28
4/25/2022 2:00:00 PM 14.27 57.686 0.197 8.53 2.43 11.24
4/25/2022 2:15:00 PM 14.47 58.046 0.197 8.56 2.41 11.17
4/25/2022 2:30:00 PM 14.66 58.388 0.197 8.58 2.5 11.12
4/25/2022 2:45:00 PM 14.82 58.676 0.196 8.61 13 11.06
4/25/2022 3:00:00 PM 14.96 58.928 0.197 8.63 15.13 11.01
4/25/2022 3:15:00 PM 15.07 59.126 0.197 8.64 2.8 10.94
4/25/2022 3:30:00 PM 15.17 59.306 0.198 8.65 24.48 10.9
4/25/2022 3:45:00 PM 15.23 59.414 0.193 8.65 4.73 10.84
4/25/2022 4:00:00 PM 15.26 59.468 0.197 8.65 8.15 10.79
4/25/2022 4:15:00 PM 15.28 59.504 0.198 8.65 23.47 10.74
4/25/2022 4:30:00 PM 15.26 59.468 0.198 8.64 27.21 10.69
4/25/2022 4:45:00 PM 15.24 59.432 0.197 8.62 4.94 10.64
4/25/2022 5:00:00 PM 15.2 59.36 0.197 8.6 2.41 10.6
4/25/2022 5:15:00 PM 15.12 59.216 0.198 8.57 2.43 10.55
4/25/2022 5:30:00 PM 15.02 59.036 0.198 8.53 2.36 10.49
4/25/2022 5:45:00 PM 14.9 58.82 0.197 8.48 2.76 10.42
4/25/2022 6:00:00 PM 14.8 58.64 0.198 8.42 27.06 10.37
4/25/2022 6:15:00 PM 14.69 58.442 0.198 8.36 2.67 10.33
4/25/2022 6:30:00 PM 14.58 58.244 0.198 8.29 2.47 10.28
4/25/2022 6:45:00 PM 14.48 58.064 0.199 8.2 3.48 10.2
4/25/2022 7:00:00 PM 14.35 57.83 0.199 8.06 2.55 10.08
4/25/2022 7:15:00 PM 14.23 57.614 0.198 7.94 2.77 9.99
4/25/2022 7:30:00 PM 14.1 57.38 0.199 7.84 3.42 9.92
4/25/2022 7:45:00 PM 13.97 57.146 0.199 7.74 30.5 9.85
4/25/2022 8:00:00 PM 13.81 56.858 0.199 7.66 2.67 9.8
4/25/2022 8:15:00 PM 13.66 56.588 0.199 7.59 2.62 9.75
4/25/2022 8:30:00 PM 13.54 56.372 0.2 7.54 2.67 9.71
4/25/2022 8:45:00 PM 13.45 56.21 0.2 7.49 16.41 9.68
4/25/2022 9:00:00 PM 13.36 56.048 0.062 7.45 3.27 9.67
4/25/2022 9:15:00 PM 13.27 55.886 0.2 7.43 5.72 9.67
4/25/2022 9:30:00 PM 13.2 55.76 0.201 7.4 21.8 9.66
4/25/2022 9:45:00 PM 13.14 55.652 0.192 7.39 9.01 9.66
4/25/2022 10:00:00 PM 13.08 55.544 0.185 7.38 6.24 9.67
4/25/2022 10:15:00 PM 13.02 55.436 0.201 7.37 16.41 9.68
4/25/2022 10:30:00 PM 12.97 55.346 0.202 7.36 17.6 9.68
4/25/2022 10:45:00 PM 12.91 55.238 0.202 7.35 17.8 9.7
4/25/2022 11:00:00 PM 12.87 55.166 0.202 7.34 2.85 9.7
4/25/2022 11:15:00 PM 12.82 55.076 0.173 7.34 9.33 9.71
4/25/2022 11:30:00 PM 12.79 55.022 0.203 7.34 11.68 9.71
4/25/2022 11:45:00 PM 12.74 54.932 0.202 7.33 4.99 9.72
4/26/2022 12:00:00 AM 12.7 54.86 0.202 7.33 4.11 9.73
4/26/2022 12:15:00 AM 12.65 54.77 0.203 7.33 2.65 9.74
4/26/2022 12:30:00 AM 12.61 54.698 0.202 7.32 3.49 9.75
4/26/2022 12:45:00 AM 12.56 54.608 0.203 7.32 26.86 9.76
4/26/2022 1:00:00 AM 12.52 54.536 0.203 7.32 2.72 9.77
4/26/2022 1:15:00 AM 12.46 54.428 0.203 7.32 2.78 9.79
4/26/2022 1:30:00 AM 12.41 54.338 0.203 7.32 2.49 9.81
4/26/2022 1:45:00 AM 12.34 54.212 0.203 7.31 3 9.82
4/26/2022 2:00:00 AM 12.27 54.086 0.203 7.31 16.11 9.84
4/26/2022 2:15:00 AM 12.2 53.96 0.203 7.31 2.58 9.86
4/26/2022 2:30:00 AM 12.13 53.834 0.203 7.31 2.32 9.88
4/26/2022 2:45:00 AM 12.07 53.726 0.203 7.31 27.01 9.89
4/26/2022 3:00:00 AM 12.03 53.654 0.203 7.3 2.34 9.9
4/26/2022 3:15:00 AM 11.99 53.582 0.203 7.31 2.7 9.92
4/26/2022 3:30:00 AM 11.96 53.528 0.202 7.31 2.59 9.92
4/26/2022 3:45:00 AM 11.94 53.492 0.203 7.3 4.57 9.93
4/26/2022 4:00:00 AM 11.91 53.438 0.202 7.3 2.58 9.93
4/26/2022 4:15:00 AM 11.89 53.402 0.203 7.3 2.61 9.94
4/26/2022 4:30:00 AM 11.86 53.348 0.203 7.3 2.49 9.95
4/26/2022 4:45:00 AM 11.84 53.312 0.202 7.3 19.53 9.95
4/26/2022 5:00:00 AM 11.81 53.258 0.203 7.3 18.26 9.96
4/26/2022 5:15:00 AM 11.77 53.186 0.203 7.3 5.41 9.97
4/26/2022 5:30:00 AM 11.74 53.132 0.203 7.29 4.21 9.98
4/26/2022 5:45:00 AM 11.7 53.06 0.203 7.3 28.83 9.99
4/26/2022 6:00:00 AM 11.67 53.006 0.203 7.3 22.21 10
4/26/2022 6:15:00 AM 11.65 52.97 0.203 7.3 1.95 10.01
4/26/2022 6:30:00 AM 11.63 52.934 0.203 7.3 4.49 10.01
4/26/2022 6:45:00 AM 11.62 52.916 0.202 7.3 16.84 10.03
4/26/2022 7:00:00 AM 11.6 52.88 0.203 7.3 2.35 10.04
4/26/2022 7:15:00 AM 11.6 52.88 0.202 7.31 2.31 10.08
4/26/2022 7:30:00 AM 11.59 52.862 0.203 7.31 22.58 10.1
4/26/2022 7:45:00 AM 11.59 52.862 0.204 7.32 2.32 10.13
4/26/2022 8:00:00 AM 11.59 52.862 0.204 7.32 2.23 10.17
4/26/2022 8:15:00 AM 11.59 52.862 0.204 7.34 2.48 10.22
4/26/2022 8:30:00 AM 11.58 52.844 0.203 7.34 2.29 10.24
4/26/2022 8:45:00 AM 11.57 52.826 0.202 7.35 2.39 10.28
4/26/2022 9:00:00 AM 11.57 52.826 0.202 7.37 24.74 10.39
4/26/2022 9:15:00 AM 11.58 52.844 0.202 7.39 22.99 10.48
4/26/2022 9:30:00 AM 11.58 52.844 0.202 7.41 7.93 10.53
4/26/2022 9:45:00 AM 11.59 52.862 0.203 7.43 2.26 10.59
4/26/2022 10:00:00 AM 11.6 52.88 0.202 7.45 6.73 10.67
4/26/2022 10:15:00 AM 11.62 52.916 0.203 7.49 17.34 10.79
4/26/2022 10:30:00 AM 11.63 52.934 0.203 7.52 9.79 10.9
4/26/2022 10:45:00 AM 11.63 52.934 0.202 7.54 15.17 10.9
4/26/2022 11:00:00 AM 11.65 52.97 0.057 7.55 2.93 10.93
4/26/2022 11:15:00 AM 11.66 52.988 0.202 7.58 4.23 10.98
4/26/2022 11:30:00 AM 11.68 53.024 0.201 7.6 2.24 11.02
4/26/2022 11:45:00 AM 11.72 53.096 0.202 7.64 2.17 11.09
4/26/2022 12:00:00 PM 11.75 53.15 0.201 7.66 2.32 11.14
4/26/2022 12:15:00 PM 11.77 53.186 0.202 7.67 2.2 11.11
4/26/2022 12:30:00 PM 11.79 53.222 0.202 7.68 2.3 11.1
4/26/2022 12:45:00 PM 11.82 53.276 0.2 7.7 2.33 11.12
4/26/2022 1:00:00 PM 11.85 53.33 0.201 7.71 18.85 11.11
4/26/2022 1:15:00 PM 11.89 53.402 0.202 7.75 2.3 11.18
4/26/2022 1:30:00 PM 11.95 53.51 0.202 7.8 2.42 11.27
4/26/2022 1:45:00 PM 11.99 53.582 0.203 7.85 2.42 11.3
4/26/2022 2:00:00 PM 12.02 53.636 0.202 7.88 17.43 11.3
4/26/2022 2:15:00 PM 12.08 53.744 0.202 7.92 2.28 11.34
4/26/2022 2:30:00 PM 12.1 53.78 0.202 7.92 20.65 11.26
4/26/2022 2:45:00 PM 12.15 53.87 0.203 7.95 2.33 11.29
4/26/2022 3:00:00 PM 12.24 54.032 0.201 8.03 9.77 11.36
4/26/2022 3:15:00 PM 12.32 54.176 0.202 8.1 9.82 11.41
4/26/2022 3:30:00 PM 12.39 54.302 0.203 8.14 13.99 11.41
4/26/2022 3:45:00 PM 12.42 54.356 0.203 8.12 9.11 11.28
4/26/2022 4:00:00 PM 12.43 54.374 0.202 8.04 5.21 11.1
4/26/2022 4:15:00 PM 12.44 54.392 0.203 7.96 25.29 10.95
4/26/2022 4:30:00 PM 12.44 54.392 0.203 7.9 27.93 10.83
4/26/2022 4:45:00 PM 12.45 54.41 0.203 7.84 6.95 10.73
4/26/2022 5:00:00 PM 12.45 54.41 0.203 7.81 24.17 10.67
4/26/2022 5:15:00 PM 12.46 54.428 0.203 7.75 26.77 10.56
4/26/2022 5:30:00 PM 12.47 54.446 0.204 7.72 3.24 10.51
4/26/2022 5:45:00 PM 12.46 54.428 0.204 7.67 9.85 10.43
4/26/2022 6:00:00 PM 12.46 54.428 0.178 7.62 6.07 10.35
4/26/2022 6:15:00 PM 12.45 54.41 0.205 7.59 2.26 10.32
4/26/2022 6:30:00 PM 12.43 54.374 0.205 7.55 2.35 10.28
4/26/2022 6:45:00 PM 12.41 54.338 0.206 7.52 18.33 10.23
4/26/2022 7:00:00 PM 12.38 54.284 0.206 7.49 2.46 10.18
4/26/2022 7:15:00 PM 12.35 54.23 0.207 7.46 2.44 10.13
4/26/2022 7:30:00 PM 12.32 54.176 0.207 7.44 22.22 10.09
4/26/2022 7:45:00 PM 12.29 54.122 0.207 7.41 2.41 10.04
4/26/2022 8:00:00 PM 12.26 54.068 0.208 7.4 6.94 10.01
4/26/2022 8:15:00 PM 12.23 54.014 0.209 7.38 10.57 9.98
4/26/2022 8:30:00 PM 12.2 53.96 0.208 7.37 11.43 9.95
4/26/2022 8:45:00 PM 12.17 53.906 0.208 7.36 15.16 9.94
4/26/2022 9:00:00 PM 12.15 53.87 0.208 7.36 19.34 9.92
4/26/2022 9:15:00 PM 12.13 53.834 0.208 7.35 16.67 9.92
4/26/2022 9:30:00 PM 12.1 53.78 0.208 7.35 22.41 9.91
4/26/2022 9:45:00 PM 12.07 53.726 0.209 7.34 27.62 9.91
4/26/2022 10:00:00 PM 12.04 53.672 0.209 7.34 27.23 9.91
4/26/2022 10:15:00 PM 12.02 53.636 0.209 7.33 2.45 9.92
4/26/2022 10:30:00 PM 11.98 53.564 0.21 7.33 9.07 9.92
4/26/2022 10:45:00 PM 11.93 53.474 0.209 7.33 13.04 9.93
4/26/2022 11:00:00 PM 11.89 53.402 0.209 7.33 14.37 9.95
4/26/2022 11:15:00 PM 11.85 53.33 0.21 7.33 16.51 9.96
4/26/2022 11:30:00 PM 11.8 53.24 0.211 7.33 9.73 9.97
4/26/2022 11:45:00 PM 11.75 53.15 0.21 7.33 15.15 9.98
4/27/2022 12:00:00 AM 11.7 53.06 0.183 7.32 5.23 10
4/27/2022 12:15:00 AM 11.64 52.952 0.211 7.32 3.37 10.01
4/27/2022 12:30:00 AM 11.58 52.844 0.211 7.32 17.45 10.03
4/27/2022 12:45:00 AM 11.53 52.754 0.21 7.32 15.44 10.04
4/27/2022 1:00:00 AM 11.47 52.646 0.21 7.32 14.78 10.05
4/27/2022 1:15:00 AM 11.42 52.556 0.21 7.32 14.5 10.07
4/27/2022 1:30:00 AM 11.36 52.448 0.21 7.32 18.29 10.09
4/27/2022 1:45:00 AM 11.3 52.34 0.21 7.32 19.71 10.1
4/27/2022 2:00:00 AM 11.23 52.214 0.209 7.32 2.75 10.1
4/27/2022 2:15:00 AM 11.13 52.034 0.209 7.31 2.59 10.14
4/27/2022 2:30:00 AM 11.04 51.872 0.21 7.32 2.6 10.16
4/27/2022 2:45:00 AM 10.93 51.674 0.208 7.32 2.8 10.18
4/27/2022 3:00:00 AM 10.84 51.512 0.209 7.32 2.69 10.2
4/27/2022 3:15:00 AM 10.76 51.368 0.209 7.31 12.7 10.23
4/27/2022 3:30:00 AM 10.7 51.26 0.058 7.31 3.36 10.25
4/27/2022 3:45:00 AM 10.63 51.134 0.167 7.32 7.18 10.27
4/27/2022 4:00:00 AM 10.59 51.062 0.208 7.31 2.74 10.28
4/27/2022 4:15:00 AM 10.55 50.99 0.208 7.31 2.55 10.28
4/27/2022 4:30:00 AM 10.51 50.918 0.207 7.32 2.76 10.28
4/27/2022 4:45:00 AM 10.49 50.882 0.207 7.32 2.71 10.28
4/27/2022 5:00:00 AM 10.47 50.846 0.206 7.31 2.61 10.28
4/27/2022 5:15:00 AM 10.45 50.81 0.206 7.31 2.58 10.28
4/27/2022 5:30:00 AM 10.42 50.756 0.206 7.32 2.7 10.29
4/27/2022 5:45:00 AM 10.39 50.702 0.206 7.31 2.6 10.3
4/27/2022 6:00:00 AM 10.36 50.648 0.206 7.31 2.65 10.31
4/27/2022 6:15:00 AM 10.32 50.576 0.206 7.32 3.15 10.33
4/27/2022 6:30:00 AM 10.29 50.522 0.204 7.31 16.39 10.36
4/27/2022 6:45:00 AM 10.28 50.504 0.206 7.32 2.53 10.42
4/27/2022 7:00:00 AM 10.25 50.45 0.205 7.33 2.13 10.49
4/27/2022 7:15:00 AM 10.23 50.414 0.206 7.35 2.59 10.59
4/27/2022 7:30:00 AM 10.23 50.414 0.206 7.39 2.45 10.74
4/27/2022 7:45:00 AM 10.23 50.414 0.204 7.41 2.61 10.87
4/27/2022 8:00:00 AM 10.22 50.396 0.205 7.45 2.53 10.97
4/27/2022 8:15:00 AM 10.24 50.432 0.204 7.49 2.35 11.11
4/27/2022 8:30:00 AM 10.25 50.45 0.204 7.54 2.58 11.2
4/27/2022 8:45:00 AM 10.23 50.414 0.204 7.56 2.38 11.25
4/27/2022 9:00:00 AM 10.32 50.576 0.203 7.61 2.39 11.42
4/27/2022 9:15:00 AM 10.3 50.54 0.205 7.65 2.14 11.46
4/27/2022 9:30:00 AM 10.3 50.54 0.074 7.68 2.65 11.52
4/27/2022 9:45:00 AM 10.29 50.522 0.204 7.7 26 11.52
4/27/2022 10:00:00 AM 10.3 50.54 0.203 7.72 2.37 11.55
4/27/2022 10:15:00 AM 10.31 50.558 0.203 7.75 2.23 11.59
4/27/2022 10:30:00 AM 10.34 50.612 0.203 7.78 2.27 11.61
4/27/2022 10:45:00 AM 10.38 50.684 0.202 7.81 2.32 11.65
4/27/2022 11:00:00 AM 10.44 50.792 0.202 7.89 2.26 11.75
4/27/2022 11:15:00 AM 10.46 50.828 0.203 7.92 2.4 11.73
4/27/2022 11:30:00 AM 10.49 50.882 0.202 7.98 2.27 11.78
4/27/2022 11:45:00 AM 10.51 50.918 0.201 8.02 2.39 11.8
4/27/2022 12:00:00 PM 10.57 51.026 0.201 8.09 2.23 11.87
4/27/2022 12:15:00 PM 10.7 51.26 0.202 8.2 2.32 11.96
4/27/2022 12:30:00 PM 10.82 51.476 0.201 8.3 2.29 12.02
4/27/2022 12:45:00 PM 11.13 52.034 0.2 8.37 2.26 12.03
4/27/2022 1:00:00 PM 11.21 52.178 0.199 8.4 4.39 12
4/27/2022 1:15:00 PM 11.16 52.088 0.199 8.35 2.25 11.82
4/27/2022 1:30:00 PM 11.08 51.944 0.201 8.26 2.23 11.64
4/27/2022 1:45:00 PM 11.03 51.854 0.201 8.29 2.49 11.68
4/27/2022 2:00:00 PM 11.01 51.818 0.201 8.38 4.78 11.77
4/27/2022 2:15:00 PM 10.92 51.656 0.201 8.32 2.83 11.63
4/27/2022 2:30:00 PM 10.84 51.512 0.201 8.27 3.95 11.53
4/27/2022 2:45:00 PM 10.78 51.404 0.201 8.24 22.16 11.49
4/27/2022 3:00:00 PM 10.7 51.26 0.202 8.23 2.19 11.48
4/27/2022 3:15:00 PM 10.62 51.116 0.201 8.22 2.32 11.46
4/27/2022 3:30:00 PM 10.49 50.882 0.201 8.25 2.19 11.54
4/27/2022 3:45:00 PM 10.38 50.684 0.203 8.3 5.67 11.63
4/27/2022 4:00:00 PM 10.28 50.504 0.202 8.34 18.71 11.72
4/27/2022 4:15:00 PM 10.13 50.234 0.202 8.29 4.15 11.67
4/27/2022 4:30:00 PM 9.96 49.928 0.203 8.19 4.4 11.58
4/27/2022 4:45:00 PM 9.87 49.766 0.202 8.15 29.06 11.59
4/27/2022 5:00:00 PM 9.84 49.712 0.202 8.17 26.63 11.63
4/27/2022 5:15:00 PM 9.82 49.676 0.202 8.08 4.68 11.5
4/27/2022 5:30:00 PM 9.86 49.748 0.203 8.05 2.31 11.51
4/27/2022 5:45:00 PM 9.89 49.802 0.204 8.07 26.26 11.53
4/27/2022 6:00:00 PM 9.9 49.82 0.204 8.03 2.28 11.48
4/27/2022 6:15:00 PM 9.87 49.766 0.202 7.94 2.22 11.35
4/27/2022 6:30:00 PM 9.83 49.694 0.203 7.86 2.33 11.24
4/27/2022 6:45:00 PM 9.79 49.622 0.204 7.77 2.29 11.13
4/27/2022 7:00:00 PM 9.74 49.532 0.205 7.69 2.37 11.05
4/27/2022 7:15:00 PM 9.7 49.46 0.205 7.62 26.29 10.98
4/27/2022 7:30:00 PM 9.66 49.388 0.205 7.56 28.9 10.91
4/27/2022 7:45:00 PM 9.62 49.316 0.204 7.53 2.4 10.84
4/27/2022 8:00:00 PM 9.58 49.244 0.204 7.51 2.35 10.78
4/27/2022 8:15:00 PM 9.53 49.154 0.204 7.46 2.46 10.73
4/27/2022 8:30:00 PM 9.47 49.046 0.205 7.44 2.47 10.69
4/27/2022 8:45:00 PM 9.41 48.938 0.205 7.41 2.44 10.67
4/27/2022 9:00:00 PM 9.35 48.83 0.205 7.4 2.34 10.66
4/27/2022 9:15:00 PM 9.3 48.74 0.204 7.38 2.42 10.65
4/27/2022 9:30:00 PM 9.26 48.668 0.206 7.35 2.32 10.65
4/27/2022 9:45:00 PM 9.2 48.56 0.205 7.34 2.43 10.65
4/27/2022 10:00:00 PM 9.16 48.488 0.206 7.34 2.54 10.66
4/27/2022 10:15:00 PM 9.12 48.416 0.205 7.33 3.15 10.66
4/27/2022 10:30:00 PM 9.09 48.362 0.206 7.33 2.25 10.67
4/27/2022 10:45:00 PM 9.04 48.272 0.206 7.32 2.66 10.68
4/27/2022 11:00:00 PM 8.99 48.182 0.205 7.33 2.52 10.67
4/27/2022 11:15:00 PM 8.95 48.11 0.205 7.32 2.52 10.69
4/27/2022 11:30:00 PM 8.91 48.038 0.207 7.32 2.56 10.71
4/27/2022 11:45:00 PM 8.86 47.948 0.207 7.31 2.52 10.72
4/28/2022 12:00:00 AM 8.8 47.84 0.206 7.32 2.03 10.73
4/28/2022 12:15:00 AM 8.76 47.768 0.205 7.31 17.95 10.74
4/28/2022 12:30:00 AM 8.71 47.678 0.207 7.3 2.41 10.76
4/28/2022 12:45:00 AM 8.67 47.606 0.206 7.31 2.5 10.77
4/28/2022 1:00:00 AM 8.63 47.534 0.207 7.3 2.5 10.78
4/28/2022 1:15:00 AM 8.6 47.48 0.207 7.3 2.47 10.79
4/28/2022 1:30:00 AM 8.56 47.408 0.207 7.3 2.47 10.8
4/28/2022 1:45:00 AM 8.52 47.336 0.205 7.3 2.45 10.81
4/28/2022 2:00:00 AM 8.48 47.264 0.205 7.31 2.37 10.82
4/28/2022 2:15:00 AM 8.44 47.192 0.205 7.3 2.41 10.82
4/28/2022 2:30:00 AM 8.41 47.138 0.205 7.3 2.38 10.83
4/28/2022 2:45:00 AM 8.36 47.048 0.207 7.3 2.46 10.84
4/28/2022 3:00:00 AM 8.35 47.03 0.206 7.3 2.41 10.85
4/28/2022 3:15:00 AM 8.3 46.94 0.206 7.3 2.43 10.86
4/28/2022 3:30:00 AM 8.29 46.922 0.207 7.3 2.45 10.87
4/28/2022 3:45:00 AM 8.27 46.886 0.208 7.3 2.35 10.87
4/28/2022 4:00:00 AM 8.25 46.85 0.206 7.3 2.4 10.89
4/28/2022 4:15:00 AM 8.23 46.814 0.206 7.31 2.46 10.89
4/28/2022 4:30:00 AM 8.2 46.76 0.206 7.3 2.47 10.9
4/28/2022 4:45:00 AM 8.18 46.724 0.205 7.3 2.31 10.9
4/28/2022 5:00:00 AM 8.15 46.67 0.204 7.3 2.4 10.91
4/28/2022 5:15:00 AM 8.14 46.652 0.206 7.31 2.43 10.92
4/28/2022 5:30:00 AM 8.12 46.616 0.205 7.31 2.38 10.92
4/28/2022 5:45:00 AM 8.09 46.562 0.205 7.31 2.4 10.94
4/28/2022 6:00:00 AM 8.07 46.526 0.206 7.31 2.34 10.94
4/28/2022 6:15:00 AM 8.05 46.49 0.205 7.31 2.56 10.95
4/28/2022 6:30:00 AM 8.03 46.454 0.206 7.31 2.39 10.97
4/28/2022 6:45:00 AM 8.01 46.418 0.207 7.32 2.38 11.01
4/28/2022 7:00:00 AM 7.99 46.382 0.206 7.33 2.35 11.06
4/28/2022 7:15:00 AM 7.99 46.382 0.205 7.35 2.34 11.14
4/28/2022 7:30:00 AM 8 46.4 0.206 7.39 2.42 11.33
4/28/2022 7:45:00 AM 7.98 46.364 0.207 7.4 2.34 11.38
4/28/2022 8:00:00 AM 7.96 46.328 0.207 7.43 2.3 11.48
4/28/2022 8:15:00 AM 7.98 46.364 0.206 7.46 2.36 11.65
4/28/2022 8:30:00 AM 7.97 46.346 0.207 7.5 2.25 11.76
4/28/2022 8:45:00 AM 8 46.4 0.206 7.55 2.19 11.89
4/28/2022 9:00:00 AM 8.11 46.598 0.206 7.6 2.28 12.04
4/28/2022 9:15:00 AM 8.21 46.778 0.206 7.67 2.34 12.14
4/28/2022 9:30:00 AM 8.3 46.94 0.207 7.71 2.23 12.23
4/28/2022 9:45:00 AM 8.4 47.12 0.205 7.75 2.2 12.29
4/28/2022 10:00:00 AM 8.54 47.372 0.205 7.8 2.17 12.33
4/28/2022 10:15:00 AM 8.67 47.606 0.206 7.85 2.21 12.36
4/28/2022 10:30:00 AM 8.84 47.912 0.205 7.9 2.31 12.4
4/28/2022 10:45:00 AM 9.05 48.29 0.205 7.95 2.17 12.4
4/28/2022 11:00:00 AM 9.24 48.632 0.204 8 2.11 12.4
4/28/2022 11:15:00 AM 9.46 49.028 0.205 8.04 2.25 12.4
4/28/2022 11:30:00 AM 9.7 49.46 0.205 8.09 2.15 12.37
4/28/2022 11:45:00 AM 9.94 49.892 0.205 8.14 2.22 12.36
4/28/2022 12:00:00 PM 10.19 50.342 0.204 8.2 2.17 12.34
4/28/2022 12:15:00 PM 10.44 50.792 0.203 8.27 2.18 12.31
4/28/2022 12:30:00 PM 10.66 51.188 0.203 8.31 2.17 12.28
4/28/2022 12:45:00 PM 10.89 51.602 0.204 8.36 2.11 12.24
4/28/2022 1:00:00 PM 11.14 52.052 0.203 8.4 2.11 12.2
4/28/2022 1:15:00 PM 11.37 52.466 0.205 8.45 2.12 12.17
4/28/2022 1:30:00 PM 11.56 52.808 0.204 8.5 2.2 12.12
4/28/2022 1:45:00 PM 11.78 53.204 0.205 8.53 2.12 12.08
4/28/2022 2:00:00 PM 11.96 53.528 0.203 8.58 2.18 12.03
4/28/2022 2:15:00 PM 12.14 53.852 0.203 8.6 2.09 11.98
4/28/2022 2:30:00 PM 12.3 54.14 0.202 8.63 2.12 11.92
4/28/2022 2:45:00 PM 12.42 54.356 0.205 8.65 2.13 11.86
4/28/2022 3:00:00 PM 12.53 54.554 0.204 8.68 2.24 11.81
4/28/2022 3:15:00 PM 12.61 54.698 0.202 8.69 2.14 11.74
4/28/2022 3:30:00 PM 12.65 54.77 0.204 8.7 2.18 11.7
4/28/2022 3:45:00 PM 12.66 54.788 0.203 8.7 2.09 11.65
4/28/2022 4:00:00 PM 12.65 54.77 0.203 8.7 9.01 11.59
4/28/2022 4:15:00 PM 12.58 54.644 0.199 8.71 12.48 11.54
4/28/2022 4:30:00 PM 12.5 54.5 0.203 8.69 2.09 11.51
4/28/2022 4:45:00 PM 12.43 54.374 0.203 8.68 2.11 11.46
4/28/2022 5:00:00 PM 12.33 54.194 0.205 8.67 2.14 11.42
4/28/2022 5:15:00 PM 12.2 53.96 0.205 8.64 18.51 11.37
4/28/2022 5:30:00 PM 12.03 53.654 0.202 8.61 5.32 11.33
4/28/2022 5:45:00 PM 11.84 53.312 0.204 8.56 2.17 11.28
4/28/2022 6:00:00 PM 11.64 52.952 0.205 8.51 2.13 11.24
4/28/2022 6:15:00 PM 11.41 52.538 0.205 8.44 2.08 11.18
4/28/2022 6:30:00 PM 11.2 52.16 0.205 8.36 21.92 11.14
4/28/2022 6:45:00 PM 10.99 51.782 0.208 8.26 2.29 11.07
4/28/2022 7:00:00 PM 10.78 51.404 0.207 8.15 2.29 10.99
4/28/2022 7:15:00 PM 10.57 51.026 0.206 8.02 2.2 10.9
4/28/2022 7:30:00 PM 10.37 50.666 0.207 7.91 18.35 10.84
4/28/2022 7:45:00 PM 10.17 50.306 0.207 7.81 19.17 10.78
4/28/2022 8:00:00 PM 9.98 49.964 0.209 7.72 2.24 10.74
4/28/2022 8:15:00 PM 9.8 49.64 0.207 7.65 2.24 10.69
4/28/2022 8:30:00 PM 9.64 49.352 0.209 7.6 2.35 10.66
4/28/2022 8:45:00 PM 9.5 49.1 0.209 7.54 2.34 10.65
4/28/2022 9:00:00 PM 9.37 48.866 0.208 7.49 2.29 10.64
4/28/2022 9:15:00 PM 9.24 48.632 0.21 7.47 2.64 10.65
4/28/2022 9:30:00 PM 9.12 48.416 0.209 7.44 2.33 10.66
4/28/2022 9:45:00 PM 9.01 48.218 0.211 7.42 2.52 10.67
4/28/2022 10:00:00 PM 8.91 48.038 0.211 7.39 2.33 10.68
4/28/2022 10:15:00 PM 8.8 47.84 0.21 7.39 2.35 10.7
4/28/2022 10:30:00 PM 8.71 47.678 0.211 7.37 2.24 10.71
4/28/2022 10:45:00 PM 8.62 47.516 0.211 7.36 2.25 10.73
4/28/2022 11:00:00 PM 8.54 47.372 0.211 7.35 2.21 10.74
4/28/2022 11:15:00 PM 8.46 47.228 0.212 7.34 2.32 10.76
4/28/2022 11:30:00 PM 8.4 47.12 0.21 7.32 2.34 10.77
4/28/2022 11:45:00 PM 8.33 46.994 0.211 7.32 2.43 10.78
4/29/2022 12:00:00 AM 8.27 46.886 0.213 7.31 2.33 10.8
4/29/2022 12:15:00 AM 8.22 46.796 0.21 7.31 2.23 10.82
4/29/2022 12:30:00 AM 8.16 46.688 0.211 7.31 2.21 10.83
4/29/2022 12:45:00 AM 8.11 46.598 0.212 7.3 2.29 10.84
4/29/2022 1:00:00 AM 8.06 46.508 0.21 7.32 2.33 10.86
4/29/2022 1:15:00 AM 8.02 46.436 0.212 7.28 2.24 10.87
4/29/2022 1:30:00 AM 7.99 46.382 0.211 7.29 2.33 10.88
4/29/2022 1:45:00 AM 7.94 46.292 0.21 7.28 18.18 10.89
4/29/2022 2:00:00 AM 7.91 46.238 0.211 7.28 2.38 10.91
4/29/2022 2:15:00 AM 7.87 46.166 0.211 7.29 2.42 10.9
4/29/2022 2:30:00 AM 7.82 46.076 0.21 7.31 2.2 10.92
4/29/2022 2:45:00 AM 7.78 46.004 0.211 7.31 2.33 10.93
4/29/2022 3:00:00 AM 7.74 45.932 0.21 7.3 2.32 10.95
4/29/2022 3:15:00 AM 7.69 45.842 0.21 7.26 5.22 10.97
4/29/2022 3:30:00 AM 7.65 45.77 0.211 7.27 15.66 10.97
4/29/2022 3:45:00 AM 7.61 45.698 0.211 7.28 2.23 10.99
4/29/2022 4:00:00 AM 7.58 45.644 0.211 7.28 2.31 11.01
4/29/2022 4:15:00 AM 7.54 45.572 0.21 7.29 2.6 11.01
4/29/2022 4:30:00 AM 7.5 45.5 0.211 7.28 11.22 11.02
4/29/2022 4:45:00 AM 7.46 45.428 0.209 7.27 14.37 11.04
4/29/2022 5:00:00 AM 7.42 45.356 0.211 7.28 24.42 11.05
4/29/2022 5:15:00 AM 7.37 45.266 0.209 7.28 2.25 11.06
4/29/2022 5:30:00 AM 7.33 45.194 0.21 7.29 2.3 11.08
4/29/2022 5:45:00 AM 7.29 45.122 0.211 7.29 2.3 11.09
4/29/2022 6:00:00 AM 7.26 45.068 0.211 7.27 25.45 11.11
4/29/2022 6:15:00 AM 7.22 44.996 0.211 7.28 16.96 11.15
4/29/2022 6:30:00 AM 7.19 44.942 0.21 7.29 22.49 11.21
4/29/2022 6:45:00 AM 7.15 44.87 0.212 7.32 2.25 11.28
4/29/2022 7:00:00 AM 7.13 44.834 0.211 7.32 2.15 11.37
4/29/2022 7:15:00 AM 7.14 44.852 0.209 7.36 2.21 11.51
4/29/2022 7:30:00 AM 7.16 44.888 0.209 7.39 2.2 11.66
4/29/2022 7:45:00 AM 7.19 44.942 0.212 7.42 2.15 11.8
4/29/2022 8:00:00 AM 7.25 45.05 0.211 7.48 2.27 11.96
4/29/2022 8:15:00 AM 7.32 45.176 0.212 7.52 2.29 12.08
4/29/2022 8:30:00 AM 7.4 45.32 0.209 7.56 14.71 12.19
4/29/2022 8:45:00 AM 7.49 45.482 0.209 7.61 2.12 12.28
4/29/2022 9:00:00 AM 7.61 45.698 0.21 7.66 14.53 12.36
4/29/2022 9:15:00 AM 7.72 45.896 0.21 7.7 32.27 12.42
4/29/2022 9:30:00 AM 7.84 46.112 0.212 7.74 5.77 12.47
4/29/2022 9:45:00 AM 7.99 46.382 0.213 7.79 2.04 12.52
4/29/2022 10:00:00 AM 8.17 46.706 0.211 7.84 8.38 12.56
4/29/2022 10:15:00 AM 8.36 47.048 0.21 7.88 22.34 12.59
4/29/2022 10:30:00 AM 8.57 47.426 0.21 7.92 2.08 12.6
4/29/2022 10:45:00 AM 8.81 47.858 0.209 7.97 2.16 12.6
4/29/2022 11:00:00 AM 9.06 48.308 0.21 8.02 2.11 12.6
4/29/2022 11:15:00 AM 9.32 48.776 0.209 8.09 25.34 12.57
4/29/2022 11:30:00 AM 9.6 49.28 0.207 8.13 23.07 12.56
4/29/2022 11:45:00 AM 9.88 49.784 0.209 8.17 17.19 12.52
4/29/2022 12:00:00 PM 10.18 50.324 0.208 8.23 4.7 12.49
4/29/2022 12:15:00 PM 10.47 50.846 0.209 8.28 27.63 12.44
4/29/2022 12:30:00 PM 10.78 51.404 0.209 8.33 16.38 12.42
4/29/2022 12:45:00 PM 11.06 51.908 0.208 8.38 2.05 12.38
4/29/2022 1:00:00 PM 11.33 52.394 0.207 8.43 22.85 12.32
4/29/2022 1:15:00 PM 11.59 52.862 0.206 8.47 13.92 12.28
4/29/2022 1:30:00 PM 11.85 53.33 0.205 8.51 12.61 12.23
4/29/2022 1:45:00 PM 12.1 53.78 0.205 8.56 17.02 12.18
4/29/2022 2:00:00 PM 12.33 54.194 0.206 8.59 32.17 12.12
4/29/2022 2:15:00 PM 12.53 54.554 0.205 8.62 18.43 12.06
4/29/2022 2:30:00 PM 12.74 54.932 0.197 8.64 8.39 11.98
4/29/2022 2:45:00 PM 12.91 55.238 0.205 8.67 16.57 11.92
4/29/2022 3:00:00 PM 13.06 55.508 0.205 8.68 1.95 11.85
4/29/2022 3:15:00 PM 13.19 55.742 0.205 8.7 1.93 11.78
4/29/2022 3:30:00 PM 13.26 55.868 0.206 8.72 27.27 11.74
4/29/2022 3:45:00 PM 13.31 55.958 0.207 8.73 20.04 11.67
4/29/2022 4:00:00 PM 13.33 55.994 0.206 8.73 16.36 11.61
4/29/2022 4:15:00 PM 13.31 55.958 0.207 8.72 2 11.54
4/29/2022 4:30:00 PM 13.26 55.868 0.207 8.72 14.89 11.48
4/29/2022 4:45:00 PM 13.19 55.742 0.196 8.71 7.28 11.42
4/29/2022 5:00:00 PM 13.12 55.616 0.207 8.69 16.28 11.36
4/29/2022 5:15:00 PM 13.01 55.418 0.206 8.67 2.06 11.31
4/29/2022 5:30:00 PM 12.86 55.148 0.204 8.63 7.75 11.25
4/29/2022 5:45:00 PM 12.72 54.896 0.206 8.59 2.09 11.18
4/29/2022 6:00:00 PM 12.55 54.59 0.206 8.53 21 11.12
4/29/2022 6:15:00 PM 12.35 54.23 0.208 8.47 15.48 11.05
4/29/2022 6:30:00 PM 12.16 53.888 0.21 8.39 2.07 10.98
4/29/2022 6:45:00 PM 11.95 53.51 0.209 8.29 1.99 10.9
4/29/2022 7:00:00 PM 11.74 53.132 0.209 8.17 17.25 10.8
4/29/2022 7:15:00 PM 11.53 52.754 0.209 8.04 14.03 10.7
4/29/2022 7:30:00 PM 11.35 52.43 0.211 7.92 12.87 10.61
4/29/2022 7:45:00 PM 11.13 52.034 0.209 7.82 10.02 10.54
4/29/2022 8:00:00 PM 10.94 51.692 0.212 7.74 2.21 10.47
4/29/2022 8:15:00 PM 10.76 51.368 0.213 7.66 2.11 10.41
4/29/2022 8:30:00 PM 10.59 51.062 0.213 7.6 21.42 10.37
4/29/2022 8:45:00 PM 10.43 50.774 0.215 7.55 2.16 10.35
4/29/2022 9:00:00 PM 10.27 50.486 0.216 7.51 5.74 10.36
4/29/2022 9:15:00 PM 10.11 50.198 0.18 7.47 6.78 10.36
4/29/2022 9:30:00 PM 9.94 49.892 0.214 7.45 14.8 10.38
4/29/2022 9:45:00 PM 9.79 49.622 0.216 7.42 2.17 10.4
4/29/2022 10:00:00 PM 9.64 49.352 0.218 7.4 9.86 10.43
4/29/2022 10:15:00 PM 9.5 49.1 0.219 7.38 2.18 10.45
4/29/2022 10:30:00 PM 9.37 48.866 0.221 7.37 2.28 10.48
4/29/2022 10:45:00 PM 9.25 48.65 0.219 7.35 19.28 10.5
4/29/2022 11:00:00 PM 9.13 48.434 0.218 7.34 2.07 10.52
4/29/2022 11:15:00 PM 9.02 48.236 0.221 7.32 2.11 10.54
4/29/2022 11:30:00 PM 8.92 48.056 0.22 7.31 2.15 10.57
4/29/2022 11:45:00 PM 8.81 47.858 0.219 7.29 16.03 10.6
4/30/2022 12:00:00 AM 8.71 47.678 0.218 7.28 2.17 10.62
4/30/2022 12:15:00 AM 8.61 47.498 0.218 7.28 2.17 10.65
4/30/2022 12:30:00 AM 8.52 47.336 0.217 7.28 18.16 10.68
4/30/2022 12:45:00 AM 8.43 47.174 0.216 7.28 16.13 10.71
4/30/2022 1:00:00 AM 8.34 47.012 0.218 7.28 26.8 10.73
4/30/2022 1:15:00 AM 8.25 46.85 0.218 7.27 16.45 10.74
4/30/2022 1:30:00 AM 8.17 46.706 0.216 7.27 9.65 10.78
4/30/2022 1:45:00 AM 8.08 46.544 0.218 7.27 2.15 10.81
4/30/2022 2:00:00 AM 8.01 46.418 0.22 7.26 2.05 10.83
4/30/2022 2:15:00 AM 7.94 46.292 0.222 7.26 2.21 10.85
4/30/2022 2:30:00 AM 7.88 46.184 0.219 7.26 16.29 10.87
4/30/2022 2:45:00 AM 7.81 46.058 0.218 7.26 2.2 10.88
4/30/2022 3:00:00 AM 7.75 45.95 0.219 7.26 2.19 10.9
4/30/2022 3:15:00 AM 7.7 45.86 0.22 7.26 6.01 10.92
4/30/2022 3:30:00 AM 7.64 45.752 0.222 7.26 6.37 10.94
4/30/2022 3:45:00 AM 7.59 45.662 0.068 7.26 2.69 10.95
4/30/2022 4:00:00 AM 7.54 45.572 0.213 7.32 2.23 10.96
4/30/2022 4:15:00 AM 7.5 45.5 0.22 7.26 2.12 10.98
4/30/2022 4:30:00 AM 7.46 45.428 0.219 7.28 28.05 10.99
4/30/2022 4:45:00 AM 7.41 45.338 0.217 7.26 2.27 11
4/30/2022 5:00:00 AM 7.37 45.266 0.219 7.27 6.44 11.01
4/30/2022 5:15:00 AM 7.33 45.194 0.218 7.26 2.11 11.03
4/30/2022 5:30:00 AM 7.29 45.122 0.219 7.26 2.15 11.04
4/30/2022 5:45:00 AM 7.25 45.05 0.22 7.27 6.55 11.05
4/30/2022 6:00:00 AM 7.21 44.978 0.218 7.26 16.37 11.07
4/30/2022 6:15:00 AM 7.18 44.924 0.217 7.27 16.37 11.1
4/30/2022 6:30:00 AM 7.14 44.852 0.219 7.28 13.21 11.18
4/30/2022 6:45:00 AM 7.11 44.798 0.219 7.3 2.14 11.28
4/30/2022 7:00:00 AM 7.1 44.78 0.218 7.33 2.18 11.39
4/30/2022 7:15:00 AM 7.1 44.78 0.221 7.37 2.9 11.53
4/30/2022 7:30:00 AM 7.12 44.816 0.222 7.4 13.24 11.69
4/30/2022 7:45:00 AM 7.16 44.888 0.219 7.42 24.71 11.85
4/30/2022 8:00:00 AM 7.23 45.014 0.223 7.47 24.57 12.01
4/30/2022 8:15:00 AM 7.31 45.158 0.225 7.53 16.14 12.16
4/30/2022 8:30:00 AM 7.41 45.338 0.222 7.58 10.95 12.27
4/30/2022 8:45:00 AM 7.51 45.518 0.222 7.63 14.64 12.38
4/30/2022 9:00:00 AM 7.64 45.752 0.221 7.67 2.05 12.46
4/30/2022 9:15:00 AM 7.78 46.004 0.222 7.73 2.33 12.53
4/30/2022 9:30:00 AM 7.94 46.292 0.223 7.78 19.83 12.59
4/30/2022 9:45:00 AM 8.11 46.598 0.223 7.83 13.22 12.63
4/30/2022 10:00:00 AM 8.31 46.958 0.219 7.9 13.56 12.68
4/30/2022 10:15:00 AM 8.52 47.336 0.215 7.95 14.95 12.7
4/30/2022 10:30:00 AM 8.77 47.786 0.218 7.98 2 12.71
4/30/2022 10:45:00 AM 9.02 48.236 0.222 8.06 8.22 12.71
4/30/2022 11:00:00 AM 9.3 48.74 0.222 8.12 21.1 12.71
4/30/2022 11:15:00 AM 9.6 49.28 0.223 8.18 14.28 12.68
4/30/2022 11:30:00 AM 9.9 49.82 0.22 8.23 2.06 12.67
4/30/2022 11:45:00 AM 10.23 50.414 0.224 8.3 1.95 12.64
4/30/2022 12:00:00 PM 10.57 51.026 0.22 8.35 1.97 12.6
4/30/2022 12:15:00 PM 10.9 51.62 0.223 8.41 27.69 12.55
4/30/2022 12:30:00 PM 11.23 52.214 0.219 8.46 1.96 12.49
4/30/2022 12:45:00 PM 11.56 52.808 0.218 8.51 5.69 12.45
4/30/2022 1:00:00 PM 11.89 53.402 0.216 8.56 1.98 12.4
4/30/2022 1:15:00 PM 12.2 53.96 0.214 8.6 14.18 12.35
4/30/2022 1:30:00 PM 12.5 54.5 0.212 8.64 1.9 12.28
4/30/2022 1:45:00 PM 12.78 55.004 0.211 8.68 16.87 12.24
4/30/2022 2:00:00 PM 13.05 55.49 0.21 8.72 9.18 12.16
4/30/2022 2:15:00 PM 13.31 55.958 0.208 8.75 1.9 12.08
4/30/2022 2:30:00 PM 13.54 56.372 0.207 8.78 14.75 12.02
4/30/2022 2:45:00 PM 13.75 56.75 0.209 8.8 12.36 11.94
4/30/2022 3:00:00 PM 13.94 57.092 0.203 8.82 7.07 11.86
4/30/2022 3:15:00 PM 14.08 57.344 0.203 8.83 6.43 11.77
4/30/2022 3:30:00 PM 14.2 57.56 0.209 8.84 5.56 11.69
4/30/2022 3:45:00 PM 14.3 57.74 0.21 8.84 15.02 11.62
4/30/2022 4:00:00 PM 14.35 57.83 0.21 8.84 14.02 11.54
4/30/2022 4:15:00 PM 14.36 57.848 0.211 8.84 2.06 11.47
4/30/2022 4:30:00 PM 14.34 57.812 0.212 8.83 9.44 11.4
4/30/2022 4:45:00 PM 14.31 57.758 0.211 8.82 1.99 11.32
4/30/2022 5:00:00 PM 14.28 57.704 0.208 8.8 1.82 11.26
4/30/2022 5:15:00 PM 14.19 57.542 0.21 8.78 3.19 11.18
4/30/2022 5:30:00 PM 14.1 57.38 0.21 8.76 6.13 11.1
4/30/2022 5:45:00 PM 13.99 57.182 0.21 8.72 13.5 11.02
4/30/2022 6:00:00 PM 13.84 56.912 0.207 8.67 8.9 10.93
4/30/2022 6:15:00 PM 13.67 56.606 0.212 8.6 17.63 10.8
4/30/2022 6:30:00 PM 13.51 56.318 0.212 8.53 17.51 10.76
4/30/2022 6:45:00 PM 13.33 55.994 0.213 8.45 23.97 10.64
4/30/2022 7:00:00 PM 13.18 55.724 0.214 8.34 16.99 10.55
4/30/2022 7:15:00 PM 13.01 55.418 0.216 8.2 11 10.4
4/30/2022 7:30:00 PM 12.85 55.13 0.219 8.05 13.84 10.28
4/30/2022 7:45:00 PM 12.68 54.824 0.218 7.92 19.95 10.16
4/30/2022 8:00:00 PM 12.51 54.518 0.212 7.8 5.48 10.05
4/30/2022 8:15:00 PM 12.33 54.194 0.213 7.7 2.09 9.97
4/30/2022 8:30:00 PM 12.15 53.87 0.219 7.63 3.07 9.91
4/30/2022 8:45:00 PM 11.97 53.546 0.222 7.57 14.31 9.87
4/30/2022 9:00:00 PM 11.79 53.222 0.225 7.52 10.08 9.86
4/30/2022 9:15:00 PM 11.62 52.916 0.228 7.48 23.46 9.87
4/30/2022 9:30:00 PM 11.44 52.592 0.229 7.45 20.64 9.88
4/30/2022 9:45:00 PM 11.27 52.286 0.1 7.42 2.36 9.92
4/30/2022 10:00:00 PM 11.09 51.962 0.216 7.42 6.93 9.94
4/30/2022 10:15:00 PM 10.92 51.656 0.226 7.38 9.83 9.96
4/30/2022 10:30:00 PM 10.76 51.368 0.227 7.37 7.75 10
4/30/2022 10:45:00 PM 10.6 51.08 0.22 7.36 9.63 10.03
4/30/2022 11:00:00 PM 10.44 50.792 0.22 7.35 8.34 10.07
4/30/2022 11:15:00 PM 10.29 50.522 0.232 7.34 12.02 10.1
4/30/2022 11:30:00 PM 10.15 50.27 0.235 7.33 15.17 10.14
4/30/2022 11:45:00 PM 10.01 50.018 0.232 7.32 13.1 10.18
5/1/2022 12:00:00 AM 9.88 49.784 0.232 7.32 10.54 10.21
5/1/2022 12:15:00 AM 9.76 49.568 0.232 7.32 11.19 10.24
5/1/2022 12:30:00 AM 9.66 49.388 0.232 7.31 15.2 10.27
5/1/2022 12:45:00 AM 9.56 49.208 0.234 7.31 4.72 10.29
5/1/2022 1:00:00 AM 9.47 49.046 0.223 7.3 4.14 10.31
5/1/2022 1:15:00 AM 9.4 48.92 0.229 7.3 4.61 10.33
5/1/2022 1:30:00 AM 9.35 48.83 0.228 7.29 7.45 10.35
5/1/2022 1:45:00 AM 9.3 48.74 0.231 7.28 15.18 10.35
5/1/2022 2:00:00 AM 9.26 48.668 0.213 7.28 6.68 10.36
5/1/2022 2:15:00 AM 9.22 48.596 0.233 7.28 2.15 10.37
5/1/2022 2:30:00 AM 9.19 48.542 0.235 7.28 1.98 10.39
5/1/2022 2:45:00 AM 9.16 48.488 0.237 7.28 21.86 10.39
5/1/2022 3:00:00 AM 9.12 48.416 0.235 7.27 1.76 10.39
5/1/2022 3:15:00 AM 9.09 48.362 0.239 7.28 1.8 10.41
5/1/2022 3:30:00 AM 9.04 48.272 0.077 7.27 2.52 10.43
5/1/2022 3:45:00 AM 9 48.2 0.22 7.32 19.23 10.43
5/1/2022 4:00:00 AM 8.95 48.11 0.134 7.27 1.93 10.44
5/1/2022 4:15:00 AM 8.9 48.02 0.217 7.29 18.48 10.46
5/1/2022 4:30:00 AM 8.85 47.93 0.234 7.27 1.75 10.48
5/1/2022 4:45:00 AM 8.8 47.84 0.236 7.27 13.76 10.5
5/1/2022 5:00:00 AM 8.75 47.75 0.235 7.26 16.48 10.51
5/1/2022 5:15:00 AM 8.7 47.66 0.235 7.24 15.43 10.53
5/1/2022 5:30:00 AM 8.65 47.57 0.233 7.25 9.15 10.53
5/1/2022 5:45:00 AM 8.6 47.48 0.239 7.25 27.67 10.55
5/1/2022 6:00:00 AM 8.56 47.408 0.235 7.26 16.19 10.58
5/1/2022 6:15:00 AM 8.52 47.336 0.238 7.27 17.85 10.63
5/1/2022 6:30:00 AM 8.48 47.264 0.237 7.28 1.8 10.73
5/1/2022 6:45:00 AM 8.45 47.21 0.235 7.3 2.76 10.84
5/1/2022 7:00:00 AM 8.43 47.174 0.237 7.32 18.33 10.97
5/1/2022 7:15:00 AM 8.42 47.156 0.235 7.35 9.34 11.13
5/1/2022 7:30:00 AM 8.43 47.174 0.235 7.39 19.97 11.31
5/1/2022 7:45:00 AM 8.46 47.228 0.236 7.43 18.32 11.5
5/1/2022 8:00:00 AM 8.52 47.336 0.236 7.49 2.19 11.71
5/1/2022 8:15:00 AM 8.59 47.462 0.234 7.55 3.16 11.88
5/1/2022 8:30:00 AM 8.68 47.624 0.237 7.61 1.83 12.02
5/1/2022 8:45:00 AM 8.77 47.786 0.235 7.67 17.55 12.14
5/1/2022 9:00:00 AM 8.91 48.038 0.224 7.74 6.55 12.25
5/1/2022 9:15:00 AM 9.07 48.326 0.21 7.81 7.17 12.34
5/1/2022 9:30:00 AM 9.24 48.632 0.232 7.89 20.46 12.4
5/1/2022 9:45:00 AM 9.43 48.974 0.236 7.95 19.04 12.47
5/1/2022 10:00:00 AM 9.66 49.388 0.236 8.03 14.95 12.51
5/1/2022 10:15:00 AM 9.9 49.82 0.237 8.1 17.11 12.54
5/1/2022 10:30:00 AM 10.14 50.252 0.238 8.18 26.13 12.56
5/1/2022 10:45:00 AM 10.41 50.738 0.238 8.24 16.56 12.59
5/1/2022 11:00:00 AM 10.68 51.224 0.237 8.33 18.69 12.6
5/1/2022 11:15:00 AM 10.94 51.692 0.238 8.4 15.78 12.6
5/1/2022 11:30:00 AM 11.26 52.268 0.231 8.48 11.8 12.59
5/1/2022 11:45:00 AM 11.59 52.862 0.234 8.53 7.66 12.59
5/1/2022 12:00:00 PM 11.96 53.528 0.231 8.59 12.14 12.54
5/1/2022 12:15:00 PM 12.31 54.158 0.228 8.64 9.41 12.53
5/1/2022 12:30:00 PM 12.66 54.788 0.246 8.7 2.5 12.5
5/1/2022 12:45:00 PM 13 55.4 0.231 8.75 1.74 12.43
5/1/2022 1:00:00 PM 13.32 55.976 0.224 8.79 1.61 12.39
5/1/2022 1:15:00 PM 13.62 56.516 0.199 8.82 5.26 12.35
5/1/2022 1:30:00 PM 13.92 57.056 0.214 8.86 12.48 12.3
5/1/2022 1:45:00 PM 14.21 57.578 0.216 8.91 1.69 12.29
5/1/2022 2:00:00 PM 14.42 57.956 0.215 8.94 7.26 12.22
5/1/2022 2:15:00 PM 14.62 58.316 0.193 8.97 5.63 12.18
5/1/2022 2:30:00 PM 14.69 58.442 0.138 8.99 4.6 12.11
5/1/2022 2:45:00 PM 14.76 58.568 0.211 9.01 3.17 12.03
5/1/2022 3:00:00 PM 14.86 58.748 0.211 9.04 7.57 11.99
5/1/2022 3:15:00 PM 14.87 58.766 0.113 9.04 3.07 11.93
5/1/2022 3:30:00 PM 14.92 58.856 0.21 9.05 7.63 11.85
5/1/2022 3:45:00 PM 14.99 58.982 0.095 9.06 2.3 11.8
5/1/2022 4:00:00 PM 14.98 58.964 0.201 9.06 3.15 11.68
5/1/2022 4:15:00 PM 14.96 58.928 0.208 9.03 3.86 11.49
5/1/2022 4:30:00 PM 14.94 58.892 0.13 9 3.71 11.34
5/1/2022 4:45:00 PM 14.89 58.802 0.157 8.93 6.12 11.04
5/1/2022 5:00:00 PM 14.84 58.712 0.203 8.88 7.68 10.94
5/1/2022 5:15:00 PM 14.76 58.568 0.213 8.85 3.38 10.84
5/1/2022 5:30:00 PM 14.7 58.46 0.181 8.79 4.76 10.69
5/1/2022 5:45:00 PM 14.59 58.262 0.057 8.66 2.32 10.39
5/1/2022 6:00:00 PM 14.5 58.1 0.074 8.53 2.61 10.21
5/1/2022 6:15:00 PM 14.41 57.938 0.153 8.42 6.4 10.09
5/1/2022 6:30:00 PM 14.33 57.794 0.094 8.29 2.25 9.99
5/1/2022 6:45:00 PM 14.24 57.632 0.099 8.19 2.3 9.91
5/1/2022 7:00:00 PM 14.15 57.47 0.205 8.08 7.33 9.85
5/1/2022 7:15:00 PM 14.04 57.272 0.214 7.96 7.1 9.76
5/1/2022 7:30:00 PM 13.93 57.074 0.216 7.85 35.88 9.66
5/1/2022 7:45:00 PM 13.82 56.876 0.08 7.76 2.68 9.58
5/1/2022 8:00:00 PM 13.7 56.66 0.218 7.7 6.11 9.48
5/1/2022 8:15:00 PM 13.58 56.444 0.221 7.61 1.76 9.43
5/1/2022 8:30:00 PM 13.48 56.264 0.097 7.56 2.37 9.37
5/1/2022 8:45:00 PM 13.36 56.048 0.22 7.53 3.98 9.37
5/1/2022 9:00:00 PM 13.25 55.85 0.226 7.47 4.01 9.35
5/1/2022 9:15:00 PM 13.15 55.67 0.081 7.45 2.57 9.36
5/1/2022 9:30:00 PM 13.05 55.49 0.219 7.44 4.45 9.33
5/1/2022 9:45:00 PM 12.95 55.31 0.232 7.4 1.77 9.36
5/1/2022 10:00:00 PM 12.85 55.13 0.234 7.38 1.82 9.37
5/1/2022 10:15:00 PM 12.75 54.95 0.234 7.37 6.26 9.39
5/1/2022 10:30:00 PM 12.66 54.788 0.091 7.36 2.39 9.43
5/1/2022 10:45:00 PM 12.56 54.608 0.12 7.38 2.95 9.44
5/1/2022 11:00:00 PM 12.45 54.41 0.14 7.34 3.18 9.46
5/1/2022 11:15:00 PM 12.35 54.23 0.232 7.34 13.5 9.47
5/1/2022 11:30:00 PM 12.26 54.068 0.23 7.33 6.4 9.51
5/1/2022 11:45:00 PM 12.17 53.906 0.085 7.33 2.71 9.53
5/2/2022 12:00:00 AM 12.07 53.726 0.227 7.34 3.67 9.55
5/2/2022 12:15:00 AM 11.98 53.564 0.236 7.32 1.78 9.59
5/2/2022 12:30:00 AM 11.89 53.402 0.238 7.31 1.85 9.61
5/2/2022 12:45:00 AM 11.81 53.258 0.196 7.31 8.86 9.64
5/2/2022 1:00:00 AM 11.73 53.114 0.236 7.31 4.22 9.65
5/2/2022 1:15:00 AM 11.66 52.988 0.226 7.31 2.92 9.67
5/2/2022 1:30:00 AM 11.6 52.88 0.239 7.31 28.11 9.7
5/2/2022 1:45:00 AM 11.54 52.772 0.24 7.3 7.76 9.71
5/2/2022 2:00:00 AM 11.48 52.664 0.233 7.3 5.5 9.73
5/2/2022 2:15:00 AM 11.43 52.574 0.233 7.3 25.6 9.75
5/2/2022 2:30:00 AM 11.38 52.484 0.235 7.3 5.7 9.77
5/2/2022 2:45:00 AM 11.33 52.394 0.223 7.29 6.39 9.78
5/2/2022 3:00:00 AM 11.28 52.304 0.22 7.29 6.16 9.79
5/2/2022 3:15:00 AM 11.24 52.232 0.234 7.29 7.95 9.8
5/2/2022 3:30:00 AM 11.19 52.142 0.228 7.29 26.44 9.8
5/2/2022 3:45:00 AM 11.15 52.07 0.236 7.28 15.34 9.79
5/2/2022 4:00:00 AM 11.12 52.016 0.17 7.28 7.37 9.8
5/2/2022 4:15:00 AM 11.09 51.962 0.207 7.28 5.48 9.82
5/2/2022 4:30:00 AM 11.06 51.908 0.237 7.28 20.25 9.81
5/2/2022 4:45:00 AM 11.04 51.872 0.24 7.28 2.15 9.84
5/2/2022 5:00:00 AM 11.02 51.836 0.238 7.28 32.67 9.84
5/2/2022 5:15:00 AM 11.01 51.818 0.24 7.28 8.12 9.84
5/2/2022 5:30:00 AM 11 51.8 0.242 7.27 6.44 9.84
5/2/2022 5:45:00 AM 11.01 51.818 0.113 7.28 2.76 9.85
5/2/2022 6:00:00 AM 11.02 51.836 0.23 7.28 3.51 9.85
5/2/2022 6:15:00 AM 11.04 51.872 0.238 7.28 2.03 9.85
5/2/2022 6:30:00 AM 11.06 51.908 0.237 7.28 7.69 9.87
5/2/2022 6:45:00 AM 11.08 51.944 0.239 7.29 7.41 9.89
5/2/2022 7:00:00 AM 11.11 51.998 0.241 7.3 3.24 9.97
5/2/2022 7:15:00 AM 11.13 52.034 0.218 7.31 9.45 10
5/2/2022 7:30:00 AM 11.16 52.088 0.232 7.33 6.06 10.07
5/2/2022 7:45:00 AM 11.19 52.142 0.236 7.35 12.57 10.16
5/2/2022 8:00:00 AM 11.23 52.214 0.238 7.38 8.78 10.29
5/2/2022 8:15:00 AM 11.28 52.304 0.227 7.42 5.08 10.49
5/2/2022 8:30:00 AM 11.32 52.376 0.227 7.45 9.44 10.57
5/2/2022 8:45:00 AM 11.34 52.412 0.238 7.46 2.37 10.57
5/2/2022 9:00:00 AM 11.37 52.466 0.101 7.47 2.6 10.62
5/2/2022 9:15:00 AM 11.41 52.538 0.238 7.51 16.74 10.72
5/2/2022 9:30:00 AM 11.47 52.646 0.243 7.57 9.47 10.93
5/2/2022 9:45:00 AM 11.51 52.718 0.223 7.61 9.37 11.05
5/2/2022 10:00:00 AM 11.56 52.808 0.241 7.67 22.64 11.14
5/2/2022 10:15:00 AM 11.6 52.88 0.243 7.69 13.12 11.17
5/2/2022 10:30:00 AM 11.68 53.024 0.123 7.78 2.58 11.39
5/2/2022 10:45:00 AM 11.81 53.258 0.242 7.93 3.83 11.66
5/2/2022 11:00:00 AM 11.88 53.384 0.231 8.01 7.48 11.74
5/2/2022 11:15:00 AM 11.98 53.564 0.242 8.1 2.78 11.83
5/2/2022 11:30:00 AM 12.11 53.798 0.243 8.24 1.83 12.02
5/2/2022 11:45:00 AM 12.23 54.014 0.243 8.33 9.77 12.09
5/2/2022 12:00:00 PM 12.34 54.212 0.221 8.42 6.67 12.14
5/2/2022 12:15:00 PM 12.43 54.374 0.138 8.46 3.44 12.12
5/2/2022 12:30:00 PM 12.53 54.554 0.104 8.51 2.47 12.11
5/2/2022 12:45:00 PM 12.56 54.608 0.226 8.49 12.79 11.97
5/2/2022 1:00:00 PM 12.59 54.662 0.23 8.43 32.89 11.84
5/2/2022 1:15:00 PM 12.74 54.932 0.231 8.56 18.53 12.03
5/2/2022 1:30:00 PM 12.83 55.094 0.229 8.62 20.83 12.05
5/2/2022 1:45:00 PM 12.86 55.148 0.229 8.6 14.1 11.9
5/2/2022 2:00:00 PM 12.9 55.22 0.182 8.55 9.34 11.67
5/2/2022 2:15:00 PM 12.96 55.328 0.076 8.52 2.65 11.61
5/2/2022 2:30:00 PM 13.13 55.634 0.221 8.64 13.1 11.81
5/2/2022 2:45:00 PM 13.19 55.742 0.22 8.68 13.99 11.82
5/2/2022 3:00:00 PM 13.36 56.048 0.22 8.76 16.95 11.94
5/2/2022 3:15:00 PM 13.39 56.102 0.082 8.72 2.87 11.72
5/2/2022 3:30:00 PM 13.42 56.156 0.219 8.71 2.09 11.61
5/2/2022 3:45:00 PM 13.41 56.138 0.219 8.67 11.79 11.52
5/2/2022 4:00:00 PM 13.43 56.174 0.221 8.7 21.35 11.51
5/2/2022 4:15:00 PM 13.42 56.156 0.209 8.64 6.59 11.33
5/2/2022 4:30:00 PM 13.42 56.156 0.082 8.56 2.66 11.18
5/2/2022 4:45:00 PM 13.45 56.21 0.219 8.54 9.66 11.13
5/2/2022 5:00:00 PM 13.65 56.57 0.104 8.61 1.94 11.33
5/2/2022 5:15:00 PM 13.67 56.606 0.221 8.64 1.85 11.3
5/2/2022 5:30:00 PM 13.63 56.534 0.223 8.5 1.99 10.96
5/2/2022 5:45:00 PM 13.61 56.498 0.071 8.29 2.77 10.6
5/2/2022 6:00:00 PM 13.56 56.408 0.223 8.13 1.87 10.41
5/2/2022 6:15:00 PM 13.55 56.39 0.222 8.11 6.3 10.5
5/2/2022 6:30:00 PM 13.53 56.354 0.221 8.04 11.09 10.4
5/2/2022 6:45:00 PM 13.52 56.336 0.226 8 8.33 10.4
5/2/2022 7:00:00 PM 13.49 56.282 0.224 7.9 7.34 10.23
5/2/2022 7:15:00 PM 13.45 56.21 0.111 7.79 1.98 10.05
5/2/2022 7:30:00 PM 13.42 56.156 0.224 7.71 6.84 9.88
5/2/2022 7:45:00 PM 13.38 56.084 0.227 7.62 4.24 9.75
5/2/2022 8:00:00 PM 13.34 56.012 0.187 7.56 9.28 9.64
5/2/2022 8:15:00 PM 13.3 55.94 0.201 7.52 6.03 9.56
5/2/2022 8:30:00 PM 13.26 55.868 0.225 7.47 11.26 9.5
5/2/2022 8:45:00 PM 13.23 55.814 0.228 7.45 10.58 9.46
5/2/2022 9:00:00 PM 13.18 55.724 0.224 7.42 8.02 9.43
5/2/2022 9:15:00 PM 13.13 55.634 0.202 7.41 5.58 9.42
5/2/2022 9:30:00 PM 13.07 55.526 0.224 7.38 2.04 9.4
5/2/2022 9:45:00 PM 13.01 55.418 0.232 7.38 5.06 9.42
5/2/2022 10:00:00 PM 12.95 55.31 0.222 7.36 5.75 9.41
5/2/2022 10:15:00 PM 12.88 55.184 0.233 7.35 5.2 9.41
5/2/2022 10:30:00 PM 12.82 55.076 0.155 7.34 6.03 9.43
5/2/2022 10:45:00 PM 12.75 54.95 0.231 7.33 7.18 9.44
5/2/2022 11:00:00 PM 12.68 54.824 0.224 7.32 4.56 9.46
5/2/2022 11:15:00 PM 12.61 54.698 0.234 7.32 21.98 9.48
5/2/2022 11:30:00 PM 12.52 54.536 0.237 7.31 2.27 9.48
5/2/2022 11:45:00 PM 12.43 54.374 0.24 7.31 6.1 9.52
5/3/2022 12:00:00 AM 12.33 54.194 0.234 7.3 8.84 9.53
5/3/2022 12:15:00 AM 12.22 53.996 0.239 7.3 6.73 9.59
5/3/2022 12:30:00 AM 12.1 53.78 0.221 7.3 13.51 9.61
5/3/2022 12:45:00 AM 12 53.6 0.148 7.29 5.81 9.63
5/3/2022 1:00:00 AM 11.9 53.42 0.234 7.3 2.07 9.66
5/3/2022 1:15:00 AM 11.83 53.294 0.148 7.29 5.31 9.69
5/3/2022 1:30:00 AM 11.78 53.204 0.237 7.29 11.83 9.7
5/3/2022 1:45:00 AM 11.74 53.132 0.241 7.28 16.41 9.71
5/3/2022 2:00:00 AM 11.72 53.096 0.245 7.28 4.35 9.71
5/3/2022 2:15:00 AM 11.7 53.06 0.204 7.28 3.7 9.72
5/3/2022 2:30:00 AM 11.68 53.024 0.236 7.28 7.85 9.71
5/3/2022 2:45:00 AM 11.68 53.024 0.238 7.27 2.08 9.71
5/3/2022 3:00:00 AM 11.69 53.042 0.21 7.28 6.76 9.71
5/3/2022 3:15:00 AM 11.67 53.006 0.218 7.27 8.47 9.71
5/3/2022 3:30:00 AM 11.64 52.952 0.227 7.27 2.02 9.71
5/3/2022 3:45:00 AM 11.6 52.88 0.233 7.27 11.73 9.73
5/3/2022 4:00:00 AM 11.56 52.808 0.235 7.27 7.38 9.74
5/3/2022 4:15:00 AM 11.52 52.736 0.219 7.27 10.25 9.77
5/3/2022 4:30:00 AM 11.46 52.628 0.221 7.27 11.38 9.75
5/3/2022 4:45:00 AM 11.42 52.556 0.201 7.27 6.58 9.78
5/3/2022 5:00:00 AM 11.37 52.466 0.222 7.26 6.86 9.79
5/3/2022 5:15:00 AM 11.33 52.394 0.222 7.27 1.7 9.81
5/3/2022 5:30:00 AM 11.29 52.322 0.227 7.27 12.4 9.82
5/3/2022 5:45:00 AM 11.26 52.268 0.22 7.27 7.04 9.83
5/3/2022 6:00:00 AM 11.22 52.196 0.219 7.26 5.33 9.84
5/3/2022 6:15:00 AM 11.17 52.106 0.205 7.28 5.95 9.9
5/3/2022 6:30:00 AM 11.13 52.034 0.22 7.29 2.83 10.01
5/3/2022 6:45:00 AM 11.11 51.998 0.22 7.31 8.41 10.16
5/3/2022 7:00:00 AM 11.09 51.962 0.221 7.34 5.85 10.33
5/3/2022 7:15:00 AM 11.07 51.926 0.226 7.39 1.91 10.53
5/3/2022 7:30:00 AM 11.08 51.944 0.232 7.43 7.42 10.75
5/3/2022 7:45:00 AM 11.11 51.998 0.216 7.48 3.16 10.98
5/3/2022 8:00:00 AM 11.15 52.07 0.218 7.55 2.9 11.17
5/3/2022 8:15:00 AM 11.21 52.178 0.225 7.62 18.62 11.36
5/3/2022 8:30:00 AM 11.29 52.322 0.182 7.69 10.11 11.54
5/3/2022 8:45:00 AM 11.36 52.448 0.216 7.76 1.9 11.65
5/3/2022 9:00:00 AM 11.48 52.664 0.225 7.86 11.39 11.81
5/3/2022 9:15:00 AM 11.61 52.898 0.225 7.96 6.9 11.93
5/3/2022 9:30:00 AM 11.74 53.132 0.214 8.06 6.17 12.03
5/3/2022 9:45:00 AM 11.9 53.42 0.213 8.15 6.46 12.11
5/3/2022 10:00:00 AM 12.08 53.744 0.214 8.23 6.67 12.17
5/3/2022 10:15:00 AM 12.28 54.104 0.222 8.32 1.67 12.22
5/3/2022 10:30:00 AM 12.5 54.5 0.218 8.4 7.2 12.27
5/3/2022 10:45:00 AM 12.72 54.896 0.217 8.47 8.7 12.27
5/3/2022 11:00:00 AM 12.95 55.31 0.221 8.54 6.73 12.31
5/3/2022 11:15:00 AM 13.23 55.814 0.12 8.6 2.63 12.33
5/3/2022 11:30:00 AM 13.54 56.372 0.218 8.66 13.99 12.35
5/3/2022 11:45:00 AM 13.78 56.804 0.22 8.69 8.03 12.31
5/3/2022 12:00:00 PM 14.11 57.398 0.217 8.75 12.05 12.33
5/3/2022 12:15:00 PM 14.4 57.92 0.217 8.8 6.67 12.3
5/3/2022 12:30:00 PM 14.68 58.424 0.144 8.84 6.26 12.27
5/3/2022 12:45:00 PM 14.97 58.946 0.189 8.88 4.62 12.25
5/3/2022 1:00:00 PM 15.2 59.36 0.181 8.91 6.55 12.2
5/3/2022 1:15:00 PM 15.53 59.954 0.208 8.95 4.73 12.2
5/3/2022 1:30:00 PM 15.77 60.386 0.212 8.97 1.66 12.15
5/3/2022 1:45:00 PM 15.97 60.746 0.171 9 2.41 12.09
5/3/2022 2:00:00 PM 16.07 60.926 0.212 9.01 1.79 11.99
5/3/2022 2:15:00 PM 16.18 61.124 0.178 9.03 3.31 11.91
5/3/2022 2:30:00 PM 16.23 61.214 0.21 9.04 3.89 11.83
5/3/2022 2:45:00 PM 16.29 61.322 0.214 9.05 5.42 11.77
5/3/2022 3:00:00 PM 16.33 61.394 0.212 9.05 1.86 11.7
5/3/2022 3:15:00 PM 16.37 61.466 0.213 9.05 1.75 11.61
5/3/2022 3:30:00 PM 16.44 61.592 0.212 9.06 2.24 11.58
5/3/2022 3:45:00 PM 16.56 61.808 0.215 9.08 4.15 11.56
5/3/2022 4:00:00 PM 16.58 61.844 0.211 9.07 7.98 11.45
5/3/2022 4:15:00 PM 16.6 61.88 0.161 9.06 7.99 11.34
5/3/2022 4:30:00 PM 16.6 61.88 0.208 9.03 8.15 11.17
5/3/2022 4:45:00 PM 16.56 61.808 0.175 8.99 7.4 10.95
5/3/2022 5:00:00 PM 16.52 61.736 0.212 8.96 19.97 10.85
5/3/2022 5:15:00 PM 16.48 61.664 0.212 8.91 19.05 10.71
5/3/2022 5:30:00 PM 16.43 61.574 0.214 8.88 13.25 10.66
5/3/2022 5:45:00 PM 16.37 61.466 0.215 8.83 18.25 10.54
5/3/2022 6:00:00 PM 16.29 61.322 0.213 8.74 13.45 10.38
5/3/2022 6:15:00 PM 16.21 61.178 0.213 8.66 2.16 10.22
5/3/2022 6:30:00 PM 16.14 61.052 0.214 8.59 2.03 10.16
5/3/2022 6:45:00 PM 16.11 60.998 0.201 8.56 3.03 10.18
5/3/2022 7:00:00 PM 16 60.8 0.214 8.44 18.49 9.98
5/3/2022 7:15:00 PM 15.91 60.638 0.217 8.28 1.79 9.8
5/3/2022 7:30:00 PM 15.81 60.458 0.132 8.1 3.84 9.58
5/3/2022 7:45:00 PM 15.71 60.278 0.222 7.94 2.02 9.38
5/3/2022 8:00:00 PM 15.62 60.116 0.222 7.8 27.3 9.21
5/3/2022 8:15:00 PM 15.52 59.936 0.226 7.69 8.93 9.07
5/3/2022 8:30:00 PM 15.42 59.756 0.229 7.61 2.37 8.96
5/3/2022 8:45:00 PM 15.33 59.594 0.229 7.55 2.03 8.87
5/3/2022 9:00:00 PM 15.24 59.432 0.218 7.5 8.21 8.83
5/3/2022 9:15:00 PM 15.14 59.252 0.227 7.47 6.82 8.81
5/3/2022 9:30:00 PM 15.04 59.072 0.229 7.44 1.97 8.81
5/3/2022 9:45:00 PM 14.95 58.91 0.232 7.42 4.42 8.8
5/3/2022 10:00:00 PM 14.86 58.748 0.236 7.4 11.41 8.79
5/3/2022 10:15:00 PM 14.77 58.586 0.219 7.38 8.33 8.78
5/3/2022 10:30:00 PM 14.71 58.478 0.231 7.37 7.93 8.8
5/3/2022 10:45:00 PM 14.64 58.352 0.24 7.36 3.3 8.81
5/3/2022 11:00:00 PM 14.58 58.244 0.223 7.36 11.14 8.84
5/3/2022 11:15:00 PM 14.51 58.118 0.238 7.35 4.69 8.85
5/3/2022 11:30:00 PM 14.44 57.992 0.231 7.34 7.9 8.84
5/3/2022 11:45:00 PM 14.37 57.866 0.239 7.33 2.27 8.89
5/4/2022 12:00:00 AM 14.28 57.704 0.217 7.32 5.6 8.9
5/4/2022 12:15:00 AM 14.19 57.542 0.223 7.32 11.31 8.92
5/4/2022 12:30:00 AM 14.1 57.38 0.239 7.32 9.85 8.95
5/4/2022 12:45:00 AM 14.02 57.236 0.237 7.32 2.03 8.97
5/4/2022 1:00:00 AM 13.94 57.092 0.241 7.32 1.92 9.01
5/4/2022 1:15:00 AM 13.85 56.93 0.24 7.32 8.72 9.01
5/4/2022 1:30:00 AM 13.78 56.804 0.24 7.31 6.28 9.03
5/4/2022 1:45:00 AM 13.7 56.66 0.243 7.3 2.06 9.04
5/4/2022 2:00:00 AM 13.63 56.534 0.24 7.3 9.75 9.06
5/4/2022 2:15:00 AM 13.57 56.426 0.225 7.3 5.95 9.07
5/4/2022 2:30:00 AM 13.5 56.3 0.202 7.3 10.32 9.07
5/4/2022 2:45:00 AM 13.43 56.174 0.234 7.3 27.2 9.11
5/4/2022 3:00:00 AM 13.38 56.084 0.232 7.3 28.24 9.1
5/4/2022 3:15:00 AM 13.33 55.994 0.14 7.29 2.5 9.12
5/4/2022 3:30:00 AM 13.3 55.94 0.23 7.3 2.01 9.12
5/4/2022 3:45:00 AM 13.26 55.868 0.239 7.29 1.97 9.13
5/4/2022 4:00:00 AM 13.23 55.814 0.239 7.29 3.28 9.14
5/4/2022 4:15:00 AM 13.2 55.76 0.231 7.29 8.62 9.16
5/4/2022 4:30:00 AM 13.16 55.688 0.232 7.29 1.97 9.17
5/4/2022 4:45:00 AM 13.12 55.616 0.238 7.28 1.95 9.18
5/4/2022 5:00:00 AM 13.08 55.544 0.239 7.29 19.64 9.19
5/4/2022 5:15:00 AM 13.04 55.472 0.239 7.29 4.58 9.22
5/4/2022 5:30:00 AM 12.99 55.382 0.24 7.29 1.97 9.24
5/4/2022 5:45:00 AM 12.95 55.31 0.242 7.29 17.64 9.25
5/4/2022 6:00:00 AM 12.9 55.22 0.24 7.29 25.66 9.26
5/4/2022 6:15:00 AM 12.87 55.166 0.134 7.3 2.83 9.28
5/4/2022 6:30:00 AM 12.83 55.094 0.235 7.3 1.99 9.34
5/4/2022 6:45:00 AM 12.8 55.04 0.24 7.3 1.89 9.36
5/4/2022 7:00:00 AM 12.78 55.004 0.241 7.32 11.74 9.43
5/4/2022 7:15:00 AM 12.75 54.95 0.24 7.32 4.66 9.48
5/4/2022 7:30:00 AM 12.74 54.932 0.242 7.34 2.61 9.55
5/4/2022 7:45:00 AM 12.72 54.896 0.187 7.36 11.99 9.66
5/4/2022 8:00:00 AM 12.71 54.878 0.234 7.39 1.91 9.84
5/4/2022 8:15:00 AM 12.7 54.86 0.238 7.39 8.2 9.81
5/4/2022 8:30:00 AM 12.69 54.842 0.238 7.41 8.75 9.9
5/4/2022 8:45:00 AM 12.69 54.842 0.242 7.44 1.92 10.03
5/4/2022 9:00:00 AM 12.7 54.86 0.242 7.47 1.85 10.14
5/4/2022 9:15:00 AM 12.7 54.86 0.243 7.49 2.27 10.25
5/4/2022 9:30:00 AM 12.74 54.932 0.241 7.57 1.83 10.53
5/4/2022 9:45:00 AM 12.76 54.968 0.245 7.62 25.73 10.67
5/4/2022 10:00:00 AM 12.78 55.004 0.243 7.65 2.15 10.76
5/4/2022 10:15:00 AM 12.8 55.04 0.242 7.7 4.52 10.82
5/4/2022 10:30:00 AM 12.81 55.058 0.243 7.72 7.39 10.85
5/4/2022 10:45:00 AM 12.84 55.112 0.235 7.77 14.42 10.95
5/4/2022 11:00:00 AM 12.94 55.292 0.239 7.91 1.92 11.26
5/4/2022 11:15:00 AM 13.02 55.436 0.235 8.03 3.82 11.43
5/4/2022 11:30:00 AM 13.07 55.526 0.238 8.12 14.38 11.48
5/4/2022 11:45:00 AM 13.11 55.598 0.232 8.17 20.52 11.5
5/4/2022 12:00:00 PM 13.17 55.706 0.239 8.24 4.42 11.58
5/4/2022 12:15:00 PM 13.21 55.778 0.24 8.26 12.34 11.55
5/4/2022 12:30:00 PM 13.25 55.85 0.241 8.3 16.14 11.54
5/4/2022 12:45:00 PM 13.29 55.922 0.24 8.31 1.87 11.56
5/4/2022 1:00:00 PM 13.38 56.084 0.24 8.41 1.89 11.65
5/4/2022 1:15:00 PM 13.48 56.264 0.238 8.49 20.06 11.78
5/4/2022 1:30:00 PM 13.63 56.534 0.236 8.58 1.92 11.92
5/4/2022 1:45:00 PM 13.73 56.714 0.233 8.64 1.85 11.93
5/4/2022 2:00:00 PM 13.8 56.84 0.235 8.66 21.04 11.87
5/4/2022 2:15:00 PM 13.86 56.948 0.231 8.68 9.59 11.79
5/4/2022 2:30:00 PM 13.88 56.984 0.238 8.64 5.11 11.64
5/4/2022 2:45:00 PM 13.98 57.164 0.224 8.69 1.9 11.73
5/4/2022 3:00:00 PM 13.99 57.182 0.233 8.66 11.87 11.57
5/4/2022 3:15:00 PM 14.03 57.254 0.234 8.65 12.05 11.51
5/4/2022 3:30:00 PM 14.15 57.47 0.226 8.7 10.01 11.66
5/4/2022 3:45:00 PM 14.19 57.542 0.227 8.71 1.91 11.61
5/4/2022 4:00:00 PM 14.36 57.848 0.226 8.76 18.51 11.7
5/4/2022 4:15:00 PM 14.39 57.902 0.227 8.77 2.05 11.63
5/4/2022 4:30:00 PM 14.42 57.956 0.234 8.75 9.49 11.55
5/4/2022 4:45:00 PM 14.53 58.154 0.231 8.77 1.93 11.53
5/4/2022 5:00:00 PM 14.54 58.172 0.23 8.72 1.99 11.37
5/4/2022 5:15:00 PM 14.54 58.172 0.23 8.69 2.01 11.24
5/4/2022 5:30:00 PM 14.5 58.1 0.234 8.56 2.1 10.9
5/4/2022 5:45:00 PM 14.45 58.01 0.223 8.36 24.6 10.54
5/4/2022 6:00:00 PM 14.41 57.938 0.218 8.16 2.9 10.34
5/4/2022 6:15:00 PM 14.38 57.884 0.23 8.08 6.09 10.26
5/4/2022 6:30:00 PM 14.35 57.83 0.24 7.92 1.93 10.02
5/4/2022 6:45:00 PM 14.31 57.758 0.241 7.79 26.8 9.83
5/4/2022 7:00:00 PM 14.28 57.704 0.244 7.7 7.16 9.68
5/4/2022 7:15:00 PM 14.24 57.632 0.247 7.63 5.56 9.55
5/4/2022 7:30:00 PM 14.19 57.542 0.225 7.58 8.29 9.47
5/4/2022 7:45:00 PM 14.13 57.434 0.242 7.53 2.22 9.39
5/4/2022 8:00:00 PM 14.06 57.308 0.247 7.5 2.02 9.34
5/4/2022 8:15:00 PM 13.97 57.146 0.248 7.47 2.11 9.3
5/4/2022 8:30:00 PM 13.88 56.984 0.248 7.44 2.12 9.28
5/4/2022 8:45:00 PM 13.78 56.804 0.248 7.42 6.79 9.26
5/4/2022 9:00:00 PM 13.68 56.624 0.248 7.4 2.05 9.25
5/4/2022 9:15:00 PM 13.58 56.444 0.25 7.38 2.14 9.26
5/4/2022 9:30:00 PM 13.48 56.264 0.249 7.37 21.18 9.27
5/4/2022 9:45:00 PM 13.37 56.066 0.25 7.37 1.92 9.29
5/4/2022 10:00:00 PM 13.28 55.904 0.249 7.35 1.87 9.3
5/4/2022 10:15:00 PM 13.19 55.742 0.248 7.35 2.09 9.32
5/4/2022 10:30:00 PM 13.12 55.616 0.25 7.34 1.94 9.33
5/4/2022 10:45:00 PM 13.04 55.472 0.25 7.33 4.74 9.35
5/4/2022 11:00:00 PM 12.98 55.364 0.251 7.33 17.16 9.36
5/4/2022 11:15:00 PM 12.91 55.238 0.248 7.32 2.07 9.38
5/4/2022 11:30:00 PM 12.85 55.13 0.247 7.33 2.17 9.4
5/4/2022 11:45:00 PM 12.79 55.022 0.248 7.32 1.94 9.42
5/5/2022 12:00:00 AM 12.74 54.932 0.248 7.32 14.82 9.43
5/5/2022 12:15:00 AM 12.69 54.842 0.248 7.32 1.94 9.45
5/5/2022 12:30:00 AM 12.65 54.77 0.25 7.31 21.29 9.46
5/5/2022 12:45:00 AM 12.62 54.716 0.247 7.32 8 9.48
5/5/2022 1:00:00 AM 12.59 54.662 0.244 7.32 12.73 9.47
5/5/2022 1:15:00 AM 12.56 54.608 0.248 7.31 1.94 9.45
5/5/2022 1:30:00 AM 12.53 54.554 0.25 7.31 2.02 9.49
5/5/2022 1:45:00 AM 12.5 54.5 0.25 7.3 2.34 9.5
5/5/2022 2:00:00 AM 12.47 54.446 0.25 7.3 2.1 9.52
5/5/2022 2:15:00 AM 12.43 54.374 0.25 7.3 2.04 9.52
5/5/2022 2:30:00 AM 12.4 54.32 0.251 7.3 1.93 9.53
5/5/2022 2:45:00 AM 12.37 54.266 0.251 7.3 2.03 9.55
5/5/2022 3:00:00 AM 12.32 54.176 0.251 7.3 1.97 9.56
5/5/2022 3:15:00 AM 12.26 54.068 0.249 7.29 2.1 9.57
5/5/2022 3:30:00 AM 12.19 53.942 0.25 7.29 2.11 9.58
5/5/2022 3:45:00 AM 12.16 53.888 0.249 7.29 2.01 9.59
5/5/2022 4:00:00 AM 12.13 53.834 0.247 7.29 2.05 9.6
5/5/2022 4:15:00 AM 12.1 53.78 0.249 7.29 2.28 9.61
5/5/2022 4:30:00 AM 12.07 53.726 0.249 7.29 12.34 9.61
5/5/2022 4:45:00 AM 12.05 53.69 0.25 7.29 21.03 9.63
5/5/2022 5:00:00 AM 12.02 53.636 0.251 7.29 2.58 9.64
5/5/2022 5:15:00 AM 11.98 53.564 0.244 7.28 2.09 9.64
5/5/2022 5:30:00 AM 11.94 53.492 0.248 7.29 2.21 9.65
5/5/2022 5:45:00 AM 11.9 53.42 0.247 7.29 2.04 9.65
5/5/2022 6:00:00 AM 11.87 53.366 0.248 7.29 8.82 9.68
5/5/2022 6:15:00 AM 11.83 53.294 0.248 7.3 2.18 9.74
5/5/2022 6:30:00 AM 11.8 53.24 0.249 7.31 9.75 9.83
5/5/2022 6:45:00 AM 11.78 53.204 0.162 7.33 13.31 9.96
5/5/2022 7:00:00 AM 11.76 53.168 0.235 7.36 6.7 10.1
5/5/2022 7:15:00 AM 11.77 53.186 0.215 7.39 5.33 10.28
5/5/2022 7:30:00 AM 11.79 53.222 0.221 7.44 1.97 10.47
5/5/2022 7:45:00 AM 11.82 53.276 0.24 7.48 9.66 10.63
5/5/2022 8:00:00 AM 11.84 53.312 0.235 7.52 2.03 10.74
5/5/2022 8:15:00 AM 11.89 53.402 0.247 7.57 1.99 10.91
5/5/2022 8:30:00 AM 12.05 53.69 0.201 7.67 6.91 11.17
5/5/2022 8:45:00 AM 12.17 53.906 0.237 7.75 5.24 11.34
5/5/2022 9:00:00 AM 12.28 54.104 0.234 7.82 7.19 11.44
5/5/2022 9:15:00 AM 12.39 54.302 0.22 7.89 3.36 11.52
5/5/2022 9:30:00 AM 12.5 54.5 0.239 7.96 14.37 11.6
5/5/2022 9:45:00 AM 12.64 54.752 0.212 8.05 4.77 11.66
5/5/2022 10:00:00 AM 12.79 55.022 0.217 8.13 12.73 11.72
5/5/2022 10:15:00 AM 12.96 55.328 0.232 8.19 7 11.78
5/5/2022 10:30:00 AM 13.14 55.652 0.217 8.28 1.97 11.83
5/5/2022 10:45:00 AM 13.34 56.012 0.231 8.34 7.64 11.88
5/5/2022 11:00:00 AM 13.57 56.426 0.212 8.42 8.48 11.91
5/5/2022 11:15:00 AM 13.8 56.84 0.214 8.49 9.86 11.95
5/5/2022 11:30:00 AM 14.01 57.218 0.213 8.56 6.15 11.96
5/5/2022 11:45:00 AM 14.29 57.722 0.221 8.6 1.93 11.96
5/5/2022 12:00:00 PM 14.58 58.244 0.153 8.66 5.41 11.95
5/5/2022 12:15:00 PM 14.82 58.676 0.192 8.7 6.05 11.94
5/5/2022 12:30:00 PM 15.09 59.162 0.215 8.74 2.05 11.92
5/5/2022 12:45:00 PM 15.33 59.594 0.226 8.77 6.73 11.9
5/5/2022 1:00:00 PM 15.54 59.972 0.224 8.81 13.67 11.87
5/5/2022 1:15:00 PM 15.76 60.368 0.159 8.85 9.77 11.85
5/5/2022 1:30:00 PM 15.97 60.746 0.218 8.88 2.07 11.81
5/5/2022 1:45:00 PM 16.17 61.106 0.22 8.89 1.91 11.78
5/5/2022 2:00:00 PM 16.34 61.412 0.22 8.92 19.04 11.74
5/5/2022 2:15:00 PM 16.46 61.628 0.136 8.94 3.05 11.68
5/5/2022 2:30:00 PM 16.62 61.916 0.213 8.96 15.77 11.68
5/5/2022 2:45:00 PM 16.7 62.06 0.104 8.98 2.78 11.59
5/5/2022 3:00:00 PM 16.71 62.078 0.081 8.98 2.94 11.49
5/5/2022 3:15:00 PM 16.76 62.168 0.214 8.99 29.28 11.34
5/5/2022 3:30:00 PM 16.94 62.492 0.117 9.01 2.59 11.47
5/5/2022 3:45:00 PM 16.97 62.546 0.215 9 7.93 11.39
5/5/2022 4:00:00 PM 17.06 62.708 0.214 9 9.97 11.28
5/5/2022 4:15:00 PM 17.12 62.816 0.216 8.99 1.94 11.22
5/5/2022 4:30:00 PM 17.08 62.744 0.216 8.98 1.96 11.14
5/5/2022 4:45:00 PM 17.1 62.78 0.216 8.98 17.71 11.07
5/5/2022 5:00:00 PM 17.06 62.708 0.218 8.95 11.03 10.99
5/5/2022 5:15:00 PM 17.04 62.672 0.217 8.92 2.09 10.88
5/5/2022 5:30:00 PM 17 62.6 0.214 8.9 2.02 10.81
5/5/2022 5:45:00 PM 16.91 62.438 0.223 8.84 1.98 10.62
5/5/2022 6:00:00 PM 16.8 62.24 0.224 8.77 23.3 10.49
5/5/2022 6:15:00 PM 16.7 62.06 0.229 8.7 9.21 10.39
5/5/2022 6:30:00 PM 16.54 61.772 0.233 8.56 18.47 10.12
5/5/2022 6:45:00 PM 16.44 61.592 0.234 8.43 10.53 9.97
5/5/2022 7:00:00 PM 16.34 61.412 0.236 8.27 2.06 9.79
5/5/2022 7:15:00 PM 16.24 61.232 0.24 8.09 1.95 9.6
5/5/2022 7:30:00 PM 16.14 61.052 0.2 7.93 6.44 9.42
5/5/2022 7:45:00 PM 16.01 60.818 0.217 7.8 1.99 9.27
5/5/2022 8:00:00 PM 15.89 60.602 0.245 7.69 4.06 9.12
5/5/2022 8:15:00 PM 15.76 60.368 0.24 7.6 9.22 9
5/5/2022 8:30:00 PM 15.64 60.152 0.236 7.54 9.56 8.89
5/5/2022 8:45:00 PM 15.51 59.918 0.243 7.49 2.31 8.84
5/5/2022 9:00:00 PM 15.39 59.702 0.243 7.45 4.52 8.8
5/5/2022 9:15:00 PM 15.27 59.486 0.214 7.42 2.32 8.78
5/5/2022 9:30:00 PM 15.15 59.27 0.114 7.4 3.25 8.77
5/5/2022 9:45:00 PM 15.03 59.054 0.238 7.39 3.19 8.78
5/5/2022 10:00:00 PM 14.92 58.856 0.139 7.36 2.75 8.78
5/5/2022 10:15:00 PM 14.82 58.676 0.238 7.35 4.21 8.8
5/5/2022 10:30:00 PM 14.74 58.532 0.221 7.34 2.41 8.79
5/5/2022 10:45:00 PM 14.68 58.424 0.236 7.33 9.89 8.79
5/5/2022 11:00:00 PM 14.63 58.334 0.119 7.32 2.68 8.8
5/5/2022 11:15:00 PM 14.6 58.28 0.233 7.32 2.14 8.79
5/5/2022 11:30:00 PM 14.57 58.226 0.16 7.31 3.2 8.79
5/5/2022 11:45:00 PM 14.54 58.172 0.243 7.31 9.6 8.8
5/6/2022 12:00:00 AM 14.5 58.1 0.24 7.3 8.16 8.79
5/6/2022 12:15:00 AM 14.46 58.028 0.146 7.3 4.16 8.8
5/6/2022 12:30:00 AM 14.41 57.938 0.238 7.3 8.22 8.82
5/6/2022 12:45:00 AM 14.35 57.83 0.244 7.29 10 8.82
5/6/2022 1:00:00 AM 14.29 57.722 0.094 7.29 2.8 8.84
5/6/2022 1:15:00 AM 14.22 57.596 0.227 7.29 8.15 8.86
5/6/2022 1:30:00 AM 14.16 57.488 0.127 7.28 4.62 8.88
5/6/2022 1:45:00 AM 14.1 57.38 0.233 7.28 5.47 8.9
5/6/2022 2:00:00 AM 14.03 57.254 0.23 7.28 8.95 8.93
5/6/2022 2:15:00 AM 13.97 57.146 0.246 7.27 17.97 8.93
5/6/2022 2:30:00 AM 13.92 57.056 0.246 7.27 27.36 8.95
5/6/2022 2:45:00 AM 13.87 56.966 0.136 7.27 2.87 8.97
5/6/2022 3:00:00 AM 13.82 56.876 0.234 7.27 32.25 8.97
5/6/2022 3:15:00 AM 13.77 56.786 0.246 7.27 12.97 9
5/6/2022 3:30:00 AM 13.73 56.714 0.248 7.27 12.98 9
5/6/2022 3:45:00 AM 13.69 56.642 0.227 7.26 9.36 9.01
5/6/2022 4:00:00 AM 13.65 56.57 0.243 7.27 7.79 9.02
5/6/2022 4:15:00 AM 13.62 56.516 0.171 7.27 9.43 9.03
5/6/2022 4:30:00 AM 13.58 56.444 0.247 7.26 4.7 9.03
5/6/2022 4:45:00 AM 13.56 56.408 0.236 7.26 2.14 9.04
5/6/2022 5:00:00 AM 13.54 56.372 0.25 7.27 2.17 9.05
5/6/2022 5:15:00 AM 13.52 56.336 0.252 7.27 14.35 9.06
5/6/2022 5:30:00 AM 13.51 56.318 0.252 7.26 2.22 9.06
5/6/2022 5:45:00 AM 13.49 56.282 0.251 7.26 8.62 9.06
5/6/2022 6:00:00 AM 13.47 56.246 0.223 7.26 2.13 9.07
5/6/2022 6:15:00 AM 13.46 56.228 0.249 7.26 2.28 9.09
5/6/2022 6:30:00 AM 13.45 56.21 0.143 7.28 3.2 9.15
5/6/2022 6:45:00 AM 13.43 56.174 0.243 7.29 2.11 9.2
5/6/2022 7:00:00 AM 13.42 56.156 0.252 7.3 2.05 9.28
5/6/2022 7:15:00 AM 13.4 56.12 0.256 7.32 2.25 9.36
5/6/2022 7:30:00 AM 13.39 56.102 0.221 7.33 7.78 9.45
5/6/2022 7:45:00 AM 13.37 56.066 0.221 7.34 10.36 9.5
5/6/2022 8:00:00 AM 13.35 56.03 0.243 7.36 2.14 9.65
5/6/2022 8:15:00 AM 13.34 56.012 0.247 7.39 2.18 9.73
5/6/2022 8:30:00 AM 13.34 56.012 0.249 7.42 17.35 9.92
5/6/2022 8:45:00 AM 13.34 56.012 0.246 7.45 8.14 10.03
5/6/2022 9:00:00 AM 13.34 56.012 0.222 7.48 16.71 10.15
5/6/2022 9:15:00 AM 13.35 56.03 0.165 7.53 7.95 10.31
5/6/2022 9:30:00 AM 13.35 56.03 0.241 7.57 86.1 10.45
5/6/2022 9:45:00 AM 13.37 56.066 0.247 7.61 3.98 10.6
5/6/2022 10:00:00 AM 13.39 56.102 0.216 7.68 7.96 10.71
5/6/2022 10:15:00 AM 13.4 56.12 0.242 7.73 2.06 10.81
5/6/2022 10:30:00 AM 13.43 56.174 0.245 7.78 2.03 10.91
5/6/2022 10:45:00 AM 13.46 56.228 0.247 7.86 20.65 11.02
5/6/2022 11:00:00 AM 13.49 56.282 0.251 7.91 2.17 11.07
5/6/2022 11:15:00 AM 13.52 56.336 0.253 7.95 21.64 11.13
5/6/2022 11:30:00 AM 13.56 56.408 0.214 8.01 4.68 11.18
5/6/2022 11:45:00 AM 13.6 56.48 0.215 8.08 8.14 11.26
5/6/2022 12:00:00 PM 13.64 56.552 0.136 8.13 4.98 11.27
5/6/2022 12:15:00 PM 13.68 56.624 0.228 8.16 5.8 11.29
5/6/2022 12:30:00 PM 13.71 56.678 0.224 8.21 10.36 11.32
5/6/2022 12:45:00 PM 13.75 56.75 0.148 8.24 3.39 11.3
5/6/2022 1:00:00 PM 13.78 56.804 0.239 8.29 9.95 11.33
5/6/2022 1:15:00 PM 13.79 56.822 0.226 8.27 11.48 11.27
5/6/2022 1:30:00 PM 13.81 56.858 0.07 8.27 3.35 11.24
5/6/2022 1:45:00 PM 13.84 56.912 0.156 8.3 4.19 11.24
5/6/2022 2:00:00 PM 13.85 56.93 0.237 8.27 12.5 11.18
5/6/2022 2:15:00 PM 13.86 56.948 0.248 8.28 11.63 11.16
5/6/2022 2:30:00 PM 13.86 56.948 0.227 8.27 2.58 11.12
5/6/2022 2:45:00 PM 13.85 56.93 0.252 8.26 21.65 11.07
5/6/2022 3:00:00 PM 13.85 56.93 0.257 8.25 2.76 11.05
5/6/2022 3:15:00 PM 13.84 56.912 0.26 8.21 16.54 10.99
5/6/2022 3:30:00 PM 13.83 56.894 0.265 8.16 10.97 10.88
5/6/2022 3:45:00 PM 13.82 56.876 0.267 8.13 2.9 10.85
5/6/2022 4:00:00 PM 13.81 56.858 0.267 8.11 2.8 10.83
5/6/2022 4:15:00 PM 13.8 56.84 0.271 8.1 3.11 10.8
5/6/2022 4:30:00 PM 13.78 56.804 0.275 8.05 19.25 10.71
5/6/2022 4:45:00 PM 13.75 56.75 0.275 7.98 5.4 10.59
5/6/2022 5:00:00 PM 13.71 56.678 0.247 7.91 16.01 10.44
5/6/2022 5:15:00 PM 13.67 56.606 0.277 7.85 4.74 10.35
5/6/2022 5:30:00 PM 13.63 56.534 0.284 7.8 3.91 10.25
5/6/2022 5:45:00 PM 13.58 56.444 0.288 7.74 6.27 10.16
5/6/2022 6:00:00 PM 13.53 56.354 0.288 7.71 5.06 10.08
5/6/2022 6:15:00 PM 13.48 56.264 0.294 7.66 25.7 10.01
5/6/2022 6:30:00 PM 13.43 56.174 0.293 7.64 5.15 9.94
5/6/2022 6:45:00 PM 13.39 56.102 0.298 7.61 5.81 9.89
5/6/2022 7:00:00 PM 13.34 56.012 0.301 7.58 6.67 9.82
5/6/2022 7:15:00 PM 13.3 55.94 0.306 7.55 5.83 9.75
5/6/2022 7:30:00 PM 13.26 55.868 0.301 7.52 22.16 9.68
5/6/2022 7:45:00 PM 13.23 55.814 0.312 7.5 11.23 9.6
5/6/2022 8:00:00 PM 13.2 55.76 0.312 7.47 22.64 9.53
5/6/2022 8:15:00 PM 13.16 55.688 0.255 7.46 20.33 9.49
5/6/2022 8:30:00 PM 13.13 55.634 0.181 7.44 6.44 9.46
5/6/2022 8:45:00 PM 13.1 55.58 0.213 7.43 12.88 9.43
5/6/2022 9:00:00 PM 13.06 55.508 0.309 7.41 6.71 9.41
5/6/2022 9:15:00 PM 13.03 55.454 0.251 7.41 6.06 9.4
5/6/2022 9:30:00 PM 13.01 55.418 0.282 7.4 6.65 9.41
5/6/2022 9:45:00 PM 12.98 55.364 0.285 7.39 23.35 9.4
5/6/2022 10:00:00 PM 12.97 55.346 0.28 7.39 5.86 9.41
5/6/2022 10:15:00 PM 12.95 55.31 0.277 7.38 16.15 9.42
5/6/2022 10:30:00 PM 12.92 55.256 0.267 7.37 7.43 9.42
5/6/2022 10:45:00 PM 12.91 55.238 0.273 7.37 5.97 9.44
5/6/2022 11:00:00 PM 12.89 55.202 0.276 7.37 17.62 9.44
5/6/2022 11:15:00 PM 12.87 55.166 0.274 7.37 6.17 9.46
5/6/2022 11:30:00 PM 12.86 55.148 0.28 7.37 6.21 9.46
5/6/2022 11:45:00 PM 12.84 55.112 0.232 7.37 18.79 9.47
5/7/2022 12:00:00 AM 12.82 55.076 0.275 7.37 6.05 9.47
5/7/2022 12:15:00 AM 12.8 55.04 0.281 7.37 5.83 9.48
5/7/2022 12:30:00 AM 12.78 55.004 0.283 7.37 79.58 9.49
5/7/2022 12:45:00 AM 12.77 54.986 0.274 7.37 16.73 9.5
5/7/2022 1:00:00 AM 12.75 54.95 0.271 7.37 5.88 9.51
5/7/2022 1:15:00 AM 12.72 54.896 0.277 7.37 20.44 9.52
5/7/2022 1:30:00 AM 12.71 54.878 0.27 7.37 6.6 9.53
5/7/2022 1:45:00 AM 12.69 54.842 0.266 7.37 6.65 9.53
5/7/2022 2:00:00 AM 12.67 54.806 0.264 7.37 6.09 9.54
5/7/2022 2:15:00 AM 12.65 54.77 0.261 7.36 6.8 9.56
5/7/2022 2:30:00 AM 12.64 54.752 0.104 7.37 7.51 9.57
5/7/2022 2:45:00 AM 12.61 54.698 0.256 7.37 6.82 9.57
5/7/2022 3:00:00 AM 12.6 54.68 0.257 7.37 30.93 9.57
5/7/2022 3:15:00 AM 12.59 54.662 0.251 7.37 6.6 9.59
5/7/2022 3:30:00 AM 12.57 54.626 0.255 7.37 6.73 9.59
5/7/2022 3:45:00 AM 12.56 54.608 0.245 7.37 7.25 9.59
5/7/2022 4:00:00 AM 12.56 54.608 0.161 7.37 16.71 9.6
5/7/2022 4:15:00 AM 12.55 54.59 0.25 7.37 17.23 9.6
5/7/2022 4:30:00 AM 12.55 54.59 0.065 7.37 7.32 9.6
5/7/2022 4:45:00 AM 12.55 54.59 0.245 7.38 6.16 9.61
5/7/2022 5:00:00 AM 12.55 54.59 0.243 7.37 6.16 9.6
5/7/2022 5:15:00 AM 12.56 54.608 0.243 7.37 6.11 9.6
5/7/2022 5:30:00 AM 12.57 54.626 0.238 7.37 25.92 9.61
5/7/2022 5:45:00 AM 12.57 54.626 0.238 7.37 5.48 9.6
5/7/2022 6:00:00 AM 12.59 54.662 0.236 7.37 5.42 9.6
5/7/2022 6:15:00 AM 12.59 54.662 0.234 7.37 5.39 9.61
5/7/2022 6:30:00 AM 12.59 54.662 0.234 7.37 5.26 9.62
5/7/2022 6:45:00 AM 12.6 54.68 0.229 7.37 5.14 9.63
5/7/2022 7:00:00 AM 12.59 54.662 0.229 7.38 24.52 9.66
5/7/2022 7:15:00 AM 12.58 54.644 0.229 7.39 28.56 9.7
5/7/2022 7:30:00 AM 12.56 54.608 0.226 7.39 18.45 9.73
5/7/2022 7:45:00 AM 12.54 54.572 0.226 7.4 4.11 9.76
5/7/2022 8:00:00 AM 12.53 54.554 0.225 7.41 4.4 9.83
5/7/2022 8:15:00 AM 12.51 54.518 0.224 7.43 4.24 9.9
5/7/2022 8:30:00 AM 12.49 54.482 0.225 7.45 22.43 9.98
5/7/2022 8:45:00 AM 12.49 54.482 0.224 7.47 22.41 10.08
5/7/2022 9:00:00 AM 12.49 54.482 0.224 7.5 21.56 10.17
5/7/2022 9:15:00 AM 12.49 54.482 0.224 7.52 14.39 10.24
5/7/2022 9:30:00 AM 12.48 54.464 0.22 7.53 4.55 10.28
5/7/2022 9:45:00 AM 12.46 54.428 0.223 7.54 10.41 10.3
5/7/2022 10:00:00 AM 12.45 54.41 0.224 7.54 4.11